Darstellungsparameter: Aktuell verwendete Einstellungen:
Skalierung der Graphiken ... ?
xyx+y,   Skalierungsfaktor:      Skalierung: Modus: x, Faktor: 1
Darstellungszeitraum ... ?
Vom - - bis: - -   Zeitraum: 25.08.2006 - 24.09.2006
Min/Max/Avg-Anzeige ... ?
Zeige MMA aktuell
Zeige MMA Monat
Zeige MMA alles
Zeige --A aktuell
Zeige --A Monat
Zeige --A alles
Keine MMA-Anzeige
MMA:
Average (ber die Originaldaten)
MMA-Basis: 25.08.2006 - 24.09.2006
Quicknavigation für Darstellung... ?
Tage:      1T, 2T, 3T, 5T -1T -2T -3T -5T +1T +2T +3T +5T
Wochen: 1W, 2W, 3W -1W -2W -3W +1W +2W +3W
Monate: 1M, 3M, 6M -1M -3M -6M +1M +3M +6M
Jahre:    1J, 3J, 5J, 10J -1J -3J -5J -10J +1J +3J +5J +10J
Nutze für die Darstellung ... ?
Originaldaten oder Mittelwerte auf ...
Stundenbasis Tagesbasis Wochenbasis
Monatsbasis Jahresbasis      Datenbasis: Original-Daten
Darstellen als:
Statistik (Auto) Statistik J:M      Darstellung:
Zur Graphik,    zurück zur Übersicht aller Sensoren.
 
Tabellarische Datenbersicht: ?
 
Sensor: Nr:Datum:Temp:Abs-Feuchte:Windchill:Wind:
Aussen-T/F 1 25-08-2006 00:05:02 14.3 C 10.81 g/m*3 14.3 C 0 km/h
2 25-08-2006 00:15:02 14.1 C 10.68 g/m*3 14.1 C 0 km/h
3 25-08-2006 00:25:02 14 C 10.74 g/m*3 14 C 0 km/h
4 25-08-2006 00:35:02 14 C 10.74 g/m*3 14 C 0 km/h
5 25-08-2006 00:45:02 14 C 10.74 g/m*3 14 C 0 km/h
6 25-08-2006 00:55:02 14 C 10.74 g/m*3 14 C 0 km/h
7 25-08-2006 01:05:02 13.9 C 10.67 g/m*3 13.9 C 0 km/h
8 25-08-2006 01:15:03 13.9 C 10.67 g/m*3 13.9 C 0 km/h
9 25-08-2006 01:25:04 13.9 C 10.79 g/m*3 13.9 C 0 km/h
10 25-08-2006 01:35:03 13.8 C 10.72 g/m*3 13.8 C 0 km/h
11 25-08-2006 01:45:03 13.8 C 10.84 g/m*3 13.8 C 0 km/h
12 25-08-2006 01:55:03 13.8 C 10.84 g/m*3 13.8 C 0 km/h
13 25-08-2006 02:05:03 13.9 C 11.03 g/m*3 13.9 C 0 km/h
14 25-08-2006 02:15:03 13.9 C 11.03 g/m*3 13.9 C 0 km/h
15 25-08-2006 02:25:03 13.7 C 10.89 g/m*3 13.7 C 0 km/h
16 25-08-2006 02:35:03 13.5 C 10.76 g/m*3 13.5 C 0 km/h
17 25-08-2006 02:46:03 13.8 C 10.96 g/m*3 13.8 C 0 km/h
18 25-08-2006 02:56:03 13.7 C 10.78 g/m*3 13.7 C 0 km/h
19 25-08-2006 03:06:03 13.7 C 10.66 g/m*3 13.7 C 0 km/h
20 25-08-2006 03:16:03 13.8 C 10.6 g/m*3 13.8 C 0 km/h
21 25-08-2006 03:26:03 13.8 C 10.48 g/m*3 13.8 C 0 km/h
22 25-08-2006 03:36:02 13.9 C 10.55 g/m*3 13.9 C 0 km/h
23 25-08-2006 03:46:02 13.9 C 10.55 g/m*3 13.9 C 0 km/h
24 25-08-2006 03:56:02 13.9 C 10.67 g/m*3 13.9 C 0 km/h
25 25-08-2006 04:06:02 13.9 C 10.67 g/m*3 13.9 C 0 km/h
Sensor: Nr:Datum:Temp:Abs-Feuchte:Windchill:Wind:
Aussen-T/F 26 25-08-2006 04:16:02 13.9 C 10.79 g/m*3 13.9 C 0 km/h
27 25-08-2006 04:26:03 13.9 C 10.79 g/m*3 13.9 C 0 km/h
28 25-08-2006 04:36:02 13.9 C 10.79 g/m*3 13.9 C 0 km/h
29 25-08-2006 04:46:03 13.9 C 10.79 g/m*3 13.9 C 0 km/h
30 25-08-2006 04:56:03 13.9 C 10.79 g/m*3 13.9 C 0 km/h
31 25-08-2006 05:06:02 13.9 C 10.67 g/m*3 13.9 C 0 km/h
32 25-08-2006 05:16:03 13.9 C 10.79 g/m*3 13.9 C 0 km/h
33 25-08-2006 05:26:03 13.8 C 10.72 g/m*3 13.8 C 0 km/h
34 25-08-2006 05:36:03 13.7 C 10.66 g/m*3 13.7 C 0 km/h
35 25-08-2006 05:46:01 13.7 C 10.78 g/m*3 13.7 C 0 km/h
36 25-08-2006 05:56:01 13.6 C 10.71 g/m*3 13.6 C 0 km/h
37 25-08-2006 06:06:02 13.6 C 10.71 g/m*3 13.6 C 0 km/h
38 25-08-2006 06:16:02 13.5 C 10.64 g/m*3 13.5 C 0 km/h
39 25-08-2006 06:26:02 13.5 C 10.64 g/m*3 13.5 C 0 km/h
40 25-08-2006 06:36:02 13.5 C 10.76 g/m*3 13.5 C 0 km/h
41 25-08-2006 06:46:02 13.5 C 10.76 g/m*3 13.5 C 0 km/h
42 25-08-2006 06:56:02 13.5 C 10.76 g/m*3 13.5 C 0 km/h
43 25-08-2006 07:06:02 13.5 C 10.76 g/m*3 13.5 C 0 km/h
44 25-08-2006 07:16:02 13.4 C 10.69 g/m*3 13.4 C 0 km/h
45 25-08-2006 07:26:02 13.4 C 10.69 g/m*3 13.4 C 0 km/h
46 25-08-2006 07:36:03 13.4 C 10.69 g/m*3 13.4 C 0 km/h
47 25-08-2006 07:46:03 13.3 C 10.63 g/m*3 13.3 C 0 km/h
48 25-08-2006 07:56:03 13.4 C 10.69 g/m*3 13.4 C 0 km/h
49 25-08-2006 08:06:02 13.8 C 10.96 g/m*3 13.8 C 0 km/h
50 25-08-2006 08:16:02 14 C 11.1 g/m*3 14 C 0 km/h
Sensor: Nr:Datum:Temp:Abs-Feuchte:Windchill:Wind:
Aussen-T/F 51 25-08-2006 08:26:02 14.2 C 10.99 g/m*3 14.2 C 0 km/h
52 25-08-2006 08:36:03 14.3 C 10.93 g/m*3 14.3 C 0 km/h
53 25-08-2006 08:46:01 14.4 C 10.88 g/m*3 14.4 C 0 km/h
54 25-08-2006 08:56:01 14.5 C 10.82 g/m*3 14.5 C 0 km/h
55 25-08-2006 09:06:02 14.6 C 10.76 g/m*3 14.6 C 0 km/h
56 25-08-2006 09:16:02 14.5 C 10.7 g/m*3 14.5 C 0 km/h
57 25-08-2006 09:26:02 14.9 C 11.09 g/m*3 14.9 C 0 km/h
58 25-08-2006 09:36:02 15.3 C 11.1 g/m*3 15.3 C 0 km/h
59 25-08-2006 09:46:02 16.1 C 10.97 g/m*3 16.1 C 0 km/h
60 25-08-2006 09:56:02 15.8 C 10.63 g/m*3 15.8 C 0 km/h
61 25-08-2006 10:06:01 15.9 C 10.83 g/m*3 15.9 C 0 km/h
62 25-08-2006 10:16:01 16.1 C 10.83 g/m*3 16.1 C 0 km/h
63 25-08-2006 10:26:01 16.4 C 10.89 g/m*3 16.4 C 0 km/h
64 25-08-2006 10:36:01 17 C 10.71 g/m*3 17 C 0 km/h
65 25-08-2006 10:46:02 17.2 C 10.4 g/m*3 17.2 C 0 km/h
66 25-08-2006 10:56:02 18.1 C 10.2 g/m*3 18.1 C 0 km/h
67 25-08-2006 11:06:02 18.6 C 10.5 g/m*3 18.6 C 0 km/h
68 25-08-2006 11:16:01 18.3 C 9.85 g/m*3 18.3 C 0 km/h
69 25-08-2006 11:26:01 18.5 C 10.76 g/m*3 18.5 C 0 km/h
70 25-08-2006 11:36:01 18.3 C 10.79 g/m*3 18.3 C 0 km/h
71 25-08-2006 11:46:02 18.2 C 10.57 g/m*3 18.2 C 0 km/h
72 25-08-2006 11:56:02 19.1 C 11.15 g/m*3 19.1 C 0 km/h
73 25-08-2006 12:06:02 19.6 C 10.64 g/m*3 19.6 C 0 km/h
74 25-08-2006 12:16:01 19.6 C 10.47 g/m*3 19.6 C 0 km/h
75 25-08-2006 12:26:01 19.8 C 10.59 g/m*3 19.8 C 0 km/h
Sensor: Nr:Datum:Temp:Abs-Feuchte:Windchill:Wind:
Aussen-T/F 76 25-08-2006 12:36:01 20.9 C 10.2 g/m*3 20.9 C 0 km/h
77 25-08-2006 12:46:02 21.2 C 9.64 g/m*3 21.2 C 0 km/h
78 25-08-2006 12:56:02 21.3 C 9.13 g/m*3 21.3 C 0 km/h
79 25-08-2006 13:06:02 21.4 C 9.37 g/m*3 21.4 C 0 km/h
80 25-08-2006 13:16:02 21.6 C 9.1 g/m*3 21.6 C 0 km/h
81 25-08-2006 13:26:03 21.9 C 9.26 g/m*3 21.9 C 0 km/h
82 25-08-2006 13:36:01 21.9 C 9.07 g/m*3 21.9 C 0 km/h
83 25-08-2006 13:46:02 21.7 C 8.97 g/m*3 21.7 C 0 km/h
84 25-08-2006 13:56:02 21.7 C 9.16 g/m*3 21.7 C 0 km/h
85 25-08-2006 14:06:02 21.7 C 9.54 g/m*3 21.7 C 0 km/h
86 25-08-2006 14:16:02 22 C 8.93 g/m*3 22 C 0 km/h
87 25-08-2006 14:26:02 21.9 C 9.65 g/m*3 21.9 C 0 km/h
88 25-08-2006 14:36:01 22.7 C 8.69 g/m*3 22.7 C 0 km/h
89 25-08-2006 14:46:02 21.3 C 8.95 g/m*3 21.3 C 0 km/h
90 25-08-2006 14:56:02 20.7 C 9.72 g/m*3 20.7 C 0 km/h
91 25-08-2006 15:06:02 20.4 C 9.73 g/m*3 20.4 C 0 km/h
92 25-08-2006 15:16:02 20.6 C 9.66 g/m*3 20.6 C 0 km/h
93 25-08-2006 15:26:02 20.5 C 9.61 g/m*3 20.5 C 0 km/h
94 25-08-2006 15:36:02 19.8 C 9.57 g/m*3 19.8 C 0 km/h
95 25-08-2006 15:46:02 19.3 C 9.62 g/m*3 19.3 C 0 km/h
96 25-08-2006 15:56:02 19 C 9.61 g/m*3 19 C 0 km/h
97 25-08-2006 16:06:03 19.2 C 10.22 g/m*3 19.2 C 0 km/h
98 25-08-2006 16:16:03 19.3 C 10.28 g/m*3 19.3 C 0 km/h
99 25-08-2006 16:26:03 19.1 C 10.33 g/m*3 19.1 C 0 km/h
100 25-08-2006 16:36:02 19.1 C 10.49 g/m*3 19.1 C 0 km/h
Sensor: Nr:Datum:Temp:Abs-Feuchte:Windchill:Wind:
Aussen-T/F 101 25-08-2006 16:46:02 19 C 10.43 g/m*3 19 C 0 km/h
102 25-08-2006 16:56:02 19.1 C 10.49 g/m*3 19.1 C 0 km/h
103 25-08-2006 17:06:02 19.2 C 10.39 g/m*3 19.2 C 0 km/h
104 25-08-2006 17:16:02 19.8 C 10.25 g/m*3 19.8 C 0 km/h
105 25-08-2006 17:26:02 20.1 C 10.26 g/m*3 20.1 C 0 km/h
106 25-08-2006 17:36:02 20.5 C 10.5 g/m*3 20.5 C 0 km/h
107 25-08-2006 17:46:02 20.6 C 10.2 g/m*3 20.6 C 0 km/h
108 25-08-2006 17:56:02 20 C 10.2 g/m*3 20 C 0 km/h
109 25-08-2006 18:06:02 20.1 C 10.26 g/m*3 20.1 C 0 km/h
110 25-08-2006 18:16:02 19.8 C 10.42 g/m*3 19.8 C 0 km/h
111 25-08-2006 18:26:02 20 C 10.37 g/m*3 20 C 0 km/h
112 25-08-2006 18:36:02 19.4 C 10.51 g/m*3 19.4 C 0 km/h
113 25-08-2006 18:46:03 19.3 C 10.62 g/m*3 19.3 C 0 km/h
114 25-08-2006 18:56:03 19.1 C 10.49 g/m*3 19.1 C 0 km/h
115 25-08-2006 19:06:03 18.6 C 10.03 g/m*3 18.6 C 0 km/h
116 25-08-2006 19:16:02 18.4 C 10.07 g/m*3 18.4 C 0 km/h
117 25-08-2006 19:26:02 18.4 C 10.22 g/m*3 18.4 C 0 km/h
118 25-08-2006 19:36:03 17.4 C 11.26 g/m*3 17.4 C 0 km/h
119 25-08-2006 19:46:02 17 C 11.72 g/m*3 17 C 0 km/h
120 25-08-2006 19:56:02 16.6 C 11.87 g/m*3 16.6 C 0 km/h
121 25-08-2006 20:06:03 16.8 C 12.3 g/m*3 16.8 C 0 km/h
122 25-08-2006 20:16:02 16.6 C 12.29 g/m*3 16.6 C 0 km/h
123 25-08-2006 20:26:02 16.5 C 12.5 g/m*3 16.5 C 0 km/h
124 25-08-2006 20:36:02 16.4 C 12.42 g/m*3 16.4 C 0 km/h
125 25-08-2006 20:46:02 16.4 C 12.56 g/m*3 16.4 C 0 km/h
Sensor: Nr:Datum:Temp:Abs-Feuchte:Windchill:Wind:
Aussen-T/F 126 25-08-2006 20:56:02 16.5 C 12.78 g/m*3 16.5 C 0 km/h
127 25-08-2006 21:06:02 16.5 C 12.78 g/m*3 16.5 C 0 km/h
128 25-08-2006 21:16:01 15.9 C 12.32 g/m*3 15.9 C 0 km/h
129 25-08-2006 21:26:01 15.3 C 11.88 g/m*3 15.3 C 0 km/h
130 25-08-2006 21:37:20 15.2 C 11.81 g/m*3 15.2 C 0 km/h
131 25-08-2006 21:47:20 15.4 C 12.09 g/m*3 15.4 C 0 km/h
132 25-08-2006 21:57:20 15.4 C 12.09 g/m*3 15.4 C 0 km/h
133 25-08-2006 22:07:20 15.2 C 11.94 g/m*3 15.2 C 0 km/h
134 25-08-2006 22:17:20 15.2 C 12.07 g/m*3 15.2 C 0 km/h
135 25-08-2006 22:27:20 15.2 C 12.07 g/m*3 15.2 C 0 km/h
136 25-08-2006 22:37:20 15.3 C 12.14 g/m*3 15.3 C 0 km/h
137 25-08-2006 22:47:20 15.4 C 12.22 g/m*3 15.4 C 0 km/h
138 25-08-2006 22:57:20 15.2 C 12.07 g/m*3 15.2 C 0 km/h
139 25-08-2006 23:07:20 15.4 C 12.22 g/m*3 15.4 C 0 km/h
140 25-08-2006 23:17:20 15.4 C 12.35 g/m*3 15.4 C 0 km/h
141 25-08-2006 23:27:20 15.4 C 12.35 g/m*3 15.4 C 0 km/h
142 25-08-2006 23:37:20 15.4 C 12.35 g/m*3 15.4 C 0 km/h
143 25-08-2006 23:47:20 15.5 C 12.43 g/m*3 15.5 C 0 km/h
144 25-08-2006 23:57:20 15.5 C 12.43 g/m*3 15.5 C 0 km/h
145 26-08-2006 00:07:20 15.5 C 12.43 g/m*3 15.5 C 0 km/h
146 26-08-2006 00:17:21 15.4 C 12.35 g/m*3 15.4 C 0 km/h
147 26-08-2006 00:27:21 15.3 C 12.28 g/m*3 15.3 C 0 km/h
148 26-08-2006 00:37:21 15.3 C 12.28 g/m*3 15.3 C 0 km/h
149 26-08-2006 00:47:21 15.3 C 12.28 g/m*3 15.3 C 0 km/h
150 26-08-2006 00:57:21 15.3 C 12.28 g/m*3 15.3 C 0 km/h
Sensor: Nr:Datum:Temp:Abs-Feuchte:Windchill:Wind:
Aussen-T/F 151 26-08-2006 01:07:21 15.2 C 12.2 g/m*3 15.2 C 0 km/h
152 26-08-2006 01:17:21 15.1 C 12 g/m*3 15.1 C 0 km/h
153 26-08-2006 01:27:21 15.1 C 12 g/m*3 15.1 C 0 km/h
154 26-08-2006 01:37:21 15 C 11.93 g/m*3 15 C 0 km/h
155 26-08-2006 01:47:21 14.9 C 11.98 g/m*3 14.9 C 0 km/h
156 26-08-2006 01:57:21 14.8 C 11.91 g/m*3 14.8 C 0 km/h
157 26-08-2006 02:07:21 14.7 C 11.83 g/m*3 14.7 C 0 km/h
158 26-08-2006 02:17:21 14.6 C 11.76 g/m*3 14.6 C 0 km/h
159 26-08-2006 02:27:21 14.5 C 11.69 g/m*3 14.5 C 0 km/h
160 26-08-2006 02:37:21 14.4 C 11.62 g/m*3 14.4 C 0 km/h
161 26-08-2006 02:47:21 14.3 C 11.43 g/m*3 14.3 C 0 km/h
162 26-08-2006 02:57:21 14.2 C 11.36 g/m*3 14.2 C 0 km/h
163 26-08-2006 03:07:21 14.2 C 11.36 g/m*3 14.2 C 0 km/h
164 26-08-2006 03:17:22 14.1 C 11.29 g/m*3 14.1 C 0 km/h
165 26-08-2006 03:27:22 13.9 C 11.15 g/m*3 13.9 C 0 km/h
166 26-08-2006 03:37:22 13.8 C 11.08 g/m*3 13.8 C 0 km/h
167 26-08-2006 03:47:22 13.7 C 11.01 g/m*3 13.7 C 0 km/h
168 26-08-2006 03:57:22 13.6 C 10.95 g/m*3 13.6 C 0 km/h
169 26-08-2006 04:07:22 13.5 C 10.88 g/m*3 13.5 C 0 km/h
170 26-08-2006 04:17:22 13.4 C 10.81 g/m*3 13.4 C 0 km/h
171 26-08-2006 04:27:22 13.4 C 10.93 g/m*3 13.4 C 0 km/h
172 26-08-2006 04:37:22 13.5 C 10.99 g/m*3 13.5 C 0 km/h
173 26-08-2006 04:47:22 13.4 C 10.93 g/m*3 13.4 C 0 km/h
174 26-08-2006 04:57:22 13.4 C 10.93 g/m*3 13.4 C 0 km/h
175 26-08-2006 05:07:22 13.4 C 10.93 g/m*3 13.4 C 0 km/h
Sensor: Nr:Datum:Temp:Abs-Feuchte:Windchill:Wind:
Aussen-T/F 176 26-08-2006 05:17:22 13.5 C 10.99 g/m*3 13.5 C 0 km/h
177 26-08-2006 05:27:22 13.4 C 10.93 g/m*3 13.4 C 0 km/h
178 26-08-2006 05:37:22 13.4 C 10.93 g/m*3 13.4 C 0 km/h
179 26-08-2006 05:47:22 13.4 C 10.93 g/m*3 13.4 C 0 km/h
180 26-08-2006 05:57:22 13.3 C 10.86 g/m*3 13.3 C 0 km/h
181 26-08-2006 06:07:22 13.3 C 10.86 g/m*3 13.3 C 0 km/h
182 26-08-2006 06:17:23 13.3 C 10.86 g/m*3 13.3 C 0 km/h
183 26-08-2006 06:27:23 13.2 C 10.79 g/m*3 13.2 C 0 km/h
184 26-08-2006 06:37:23 13.2 C 10.79 g/m*3 13.2 C 0 km/h
185 26-08-2006 06:47:23 13.2 C 10.79 g/m*3 13.2 C 0 km/h
186 26-08-2006 06:57:23 13.1 C 10.73 g/m*3 13.1 C 0 km/h
187 26-08-2006 07:07:23 13.1 C 10.73 g/m*3 13.1 C 0 km/h
188 26-08-2006 07:17:23 13.2 C 10.79 g/m*3 13.2 C 0 km/h
189 26-08-2006 07:27:23 13.3 C 10.86 g/m*3 13.3 C 0 km/h
190 26-08-2006 07:37:23 13.4 C 10.93 g/m*3 13.4 C 0 km/h
191 26-08-2006 07:47:23 13.5 C 11.11 g/m*3 13.5 C 0 km/h
192 26-08-2006 07:57:23 13.6 C 11.18 g/m*3 13.6 C 0 km/h
193 26-08-2006 08:07:23 13.7 C 11.25 g/m*3 13.7 C 0 km/h
194 26-08-2006 08:17:23 13.6 C 11.06 g/m*3 13.6 C 0 km/h
195 26-08-2006 08:27:23 13.8 C 11.2 g/m*3 13.8 C 0 km/h
196 26-08-2006 08:37:23 14 C 11.34 g/m*3 14 C 0 km/h
197 26-08-2006 08:47:23 14.1 C 11.29 g/m*3 14.1 C 0 km/h
198 26-08-2006 08:57:23 14.2 C 11.36 g/m*3 14.2 C 0 km/h
199 26-08-2006 09:07:23 14.4 C 11.5 g/m*3 14.4 C 0 km/h
200 26-08-2006 09:17:24 14.7 C 11.58 g/m*3 14.7 C 0 km/h
Sensor: Nr:Datum:Temp:Abs-Feuchte:Windchill:Wind:
Aussen-T/F 201 26-08-2006 09:27:24 14.9 C 11.6 g/m*3 14.9 C 0 km/h
202 26-08-2006 09:37:24 15.1 C 11.35 g/m*3 15.1 C 0 km/h
203 26-08-2006 09:47:24 15.5 C 11.1 g/m*3 15.5 C 0 km/h
204 26-08-2006 09:57:24 15.7 C 10.97 g/m*3 15.7 C 0 km/h
205 26-08-2006 10:07:24 16.4 C 11.03 g/m*3 16.4 C 0 km/h
206 26-08-2006 10:17:24 16.7 C 10.94 g/m*3 16.7 C 0 km/h
207 26-08-2006 10:27:02 16.8 C 11.15 g/m*3 16.8 C 0 km/h
208 26-08-2006 10:37:02 17.4 C 10.97 g/m*3 17.4 C 0 km/h
209 26-08-2006 10:47:02 18.2 C 10.88 g/m*3 18.2 C 0 km/h
210 26-08-2006 10:57:02 18.6 C 10.82 g/m*3 18.6 C 0 km/h
211 26-08-2006 11:07:01 18.4 C 10.54 g/m*3 18.4 C 0 km/h
212 26-08-2006 11:17:02 18.4 C 10.7 g/m*3 18.4 C 0 km/h
213 26-08-2006 11:27:02 18.2 C 10.57 g/m*3 18.2 C 0 km/h
214 26-08-2006 11:37:02 18.8 C 11.11 g/m*3 18.8 C 0 km/h
215 26-08-2006 11:47:02 19.2 C 10.72 g/m*3 19.2 C 0 km/h
216 26-08-2006 11:57:02 19.5 C 10.24 g/m*3 19.5 C 0 km/h
217 26-08-2006 12:07:03 19.8 C 9.91 g/m*3 19.8 C 0 km/h
218 26-08-2006 12:17:03 19.8 C 9.91 g/m*3 19.8 C 0 km/h
219 26-08-2006 12:27:03 20 C 9.51 g/m*3 20 C 0 km/h
220 26-08-2006 12:37:02 20.5 C 9.25 g/m*3 20.5 C 0 km/h
221 26-08-2006 12:47:02 20.9 C 9.65 g/m*3 20.9 C 0 km/h
222 26-08-2006 12:57:03 20.8 C 9.42 g/m*3 20.8 C 0 km/h
223 26-08-2006 13:07:01 20.8 C 9.05 g/m*3 20.8 C 0 km/h
224 26-08-2006 13:17:02 21.5 C 9.24 g/m*3 21.5 C 0 km/h
225 26-08-2006 13:27:02 22 C 8.93 g/m*3 22 C 0 km/h
Sensor: Nr:Datum:Temp:Abs-Feuchte:Windchill:Wind:
Aussen-T/F 226 26-08-2006 13:37:02 22.5 C 9.39 g/m*3 22.5 C 0 km/h
227 26-08-2006 13:47:02 22 C 8.54 g/m*3 22 C 0 km/h
228 26-08-2006 13:57:02 21.7 C 8.77 g/m*3 21.7 C 0 km/h
229 26-08-2006 14:07:02 21.7 C 9.54 g/m*3 21.7 C 0 km/h
230 26-08-2006 14:17:02 21.4 C 9 g/m*3 21.4 C 0 km/h
231 26-08-2006 14:27:02 21.4 C 8.62 g/m*3 21.4 C 0 km/h
232 26-08-2006 14:37:03 21.6 C 9.1 g/m*3 21.6 C 0 km/h
233 26-08-2006 14:47:02 21.9 C 9.07 g/m*3 21.9 C 0 km/h
234 26-08-2006 14:57:02 22.3 C 8.69 g/m*3 22.3 C 0 km/h
235 26-08-2006 15:07:03 22.5 C 8.59 g/m*3 22.5 C 0 km/h
236 26-08-2006 15:17:02 22.7 C 9.5 g/m*3 22.7 C 0 km/h
237 26-08-2006 15:27:02 23 C 8.63 g/m*3 23 C 0 km/h
238 26-08-2006 15:37:02 22.9 C 7.97 g/m*3 22.9 C 0 km/h
239 26-08-2006 15:47:02 22.6 C 8.04 g/m*3 22.6 C 0 km/h
240 26-08-2006 15:57:02 22.3 C 7.9 g/m*3 22.3 C 0 km/h
241 26-08-2006 16:07:03 22.3 C 7.7 g/m*3 22.3 C 0 km/h
242 26-08-2006 16:17:02 22.5 C 7.99 g/m*3 22.5 C 0 km/h
243 26-08-2006 16:27:02 21.9 C 7.53 g/m*3 21.9 C 0 km/h
244 26-08-2006 16:37:02 21.8 C 7.29 g/m*3 21.8 C 0 km/h
245 26-08-2006 16:47:02 22.3 C 8.89 g/m*3 22.3 C 0 km/h
246 26-08-2006 16:57:02 22.7 C 9.09 g/m*3 22.7 C 0 km/h
247 26-08-2006 17:07:03 22.6 C 9.24 g/m*3 22.6 C 0 km/h
248 26-08-2006 17:17:02 22.2 C 10.01 g/m*3 22.2 C 0 km/h
249 26-08-2006 17:27:02 21.5 C 8.67 g/m*3 21.5 C 0 km/h
250 26-08-2006 17:37:02 20.6 C 8.41 g/m*3 20.6 C 0 km/h
Sensor: Nr:Datum:Temp:Abs-Feuchte:Windchill:Wind:
Aussen-T/F 251 26-08-2006 17:47:01 20 C 8.3 g/m*3 20 C 0 km/h
252 26-08-2006 17:57:01 19.2 C 8.24 g/m*3 19.2 C 0 km/h
253 26-08-2006 18:07:01 19 C 8.47 g/m*3 19 C 0 km/h
254 26-08-2006 18:17:02 18.4 C 8.65 g/m*3 18.4 C 0 km/h
255 26-08-2006 18:27:02 17.8 C 8.8 g/m*3 17.8 C 0 km/h
256 26-08-2006 18:37:02 17.9 C 9.16 g/m*3 17.9 C 0 km/h
257 26-08-2006 18:47:02 17.9 C 9.16 g/m*3 17.9 C 0 km/h
258 26-08-2006 18:57:02 17.9 C 9.01 g/m*3 17.9 C 0 km/h
259 26-08-2006 19:07:03 17.7 C 9.05 g/m*3 17.7 C 0 km/h
260 26-08-2006 19:17:02 17.6 C 9.3 g/m*3 17.6 C 0 km/h
261 26-08-2006 19:27:03 17.8 C 9.41 g/m*3 17.8 C 0 km/h
262 26-08-2006 19:37:02 17.2 C 9.23 g/m*3 17.2 C 0 km/h
263 26-08-2006 19:47:01 17.2 C 9.23 g/m*3 17.2 C 0 km/h
264 26-08-2006 19:57:01 17 C 9.12 g/m*3 17 C 0 km/h
265 26-08-2006 20:07:02 17 C 8.97 g/m*3 17 C 0 km/h
266 26-08-2006 20:17:01 16.8 C 9.01 g/m*3 16.8 C 0 km/h
267 26-08-2006 20:27:01 16.6 C 8.9 g/m*3 16.6 C 0 km/h
268 26-08-2006 20:37:02 16.3 C 9.16 g/m*3 16.3 C 0 km/h
269 26-08-2006 20:47:02 16.1 C 9.32 g/m*3 16.1 C 0 km/h
270 26-08-2006 20:57:03 15.8 C 9.42 g/m*3 15.8 C 0 km/h
271 26-08-2006 21:07:02 15.8 C 9.69 g/m*3 15.8 C 0 km/h
272 26-08-2006 21:17:03 15.9 C 9.75 g/m*3 15.9 C 0 km/h
273 26-08-2006 21:27:03 15.9 C 9.62 g/m*3 15.9 C 0 km/h
274 26-08-2006 21:37:02 15.8 C 9.56 g/m*3 15.8 C 0 km/h
275 26-08-2006 21:47:01 15.8 C 9.56 g/m*3 15.8 C 0 km/h
Sensor: Nr:Datum:Temp:Abs-Feuchte:Windchill:Wind:
Aussen-T/F 276 26-08-2006 21:57:01 15.8 C 9.69 g/m*3 15.8 C 0 km/h
277 26-08-2006 22:07:02 15.6 C 9.58 g/m*3 15.6 C 0 km/h
278 26-08-2006 22:17:02 15.4 C 9.59 g/m*3 15.4 C 0 km/h
279 26-08-2006 22:27:02 15.2 C 9.61 g/m*3 15.2 C 0 km/h
280 26-08-2006 22:37:01 15.2 C 9.73 g/m*3 15.2 C 0 km/h
281 26-08-2006 22:47:02 14.9 C 9.94 g/m*3 14.9 C 0 km/h
282 26-08-2006 22:57:02 14.8 C 9.88 g/m*3 14.8 C 0 km/h
283 26-08-2006 23:07:02 14.9 C 10.07 g/m*3 14.9 C 0 km/h
284 26-08-2006 23:17:02 14.8 C 10.01 g/m*3 14.8 C 0 km/h
285 26-08-2006 23:27:02 14.8 C 10.26 g/m*3 14.8 C 0 km/h
286 26-08-2006 23:37:02 14.9 C 10.45 g/m*3 14.9 C 0 km/h
287 26-08-2006 23:47:01 15 C 10.51 g/m*3 15 C 0 km/h
288 26-08-2006 23:57:01 15 C 10.39 g/m*3 15 C 0 km/h
289 27-08-2006 00:07:02 15 C 10.51 g/m*3 15 C 0 km/h
290 27-08-2006 00:17:02 15.3 C 10.84 g/m*3 15.3 C 0 km/h
291 27-08-2006 00:27:02 15.1 C 10.71 g/m*3 15.1 C 0 km/h
292 27-08-2006 00:37:02 15.3 C 10.84 g/m*3 15.3 C 0 km/h
293 27-08-2006 00:47:03 15.2 C 10.77 g/m*3 15.2 C 0 km/h
294 27-08-2006 00:57:03 15.3 C 10.84 g/m*3 15.3 C 0 km/h
295 27-08-2006 01:07:03 15.3 C 10.84 g/m*3 15.3 C 0 km/h
296 27-08-2006 01:17:02 15.3 C 10.71 g/m*3 15.3 C 0 km/h
297 27-08-2006 01:27:02 15 C 10.51 g/m*3 15 C 0 km/h
298 27-08-2006 01:37:03 15 C 10.51 g/m*3 15 C 0 km/h
299 27-08-2006 01:47:01 14.9 C 10.58 g/m*3 14.9 C 0 km/h
300 27-08-2006 01:57:01 14.9 C 10.45 g/m*3 14.9 C 0 km/h
Sensor: Nr:Datum:Temp:Abs-Feuchte:Windchill:Wind:
Aussen-T/F 301 27-08-2006 02:07:01 14.8 C 10.39 g/m*3 14.8 C 0 km/h
302 27-08-2006 02:17:02 14.8 C 10.39 g/m*3 14.8 C 0 km/h
303 27-08-2006 02:27:02 14.9 C 10.45 g/m*3 14.9 C 0 km/h
304 27-08-2006 02:37:02 14.8 C 10.51 g/m*3 14.8 C 0 km/h
305 27-08-2006 02:48:03 14.7 C 10.45 g/m*3 14.7 C 0 km/h
306 27-08-2006 02:58:03 14.7 C 10.45 g/m*3 14.7 C 0 km/h
307 27-08-2006 03:08:03 14.7 C 10.45 g/m*3 14.7 C 0 km/h
308 27-08-2006 03:18:04 14.6 C 10.39 g/m*3 14.6 C 0 km/h
309 27-08-2006 03:28:04 14.5 C 10.32 g/m*3 14.5 C 0 km/h
310 27-08-2006 03:38:03 14.5 C 10.32 g/m*3 14.5 C 0 km/h
311 27-08-2006 03:48:03 14.4 C 10.38 g/m*3 14.4 C 0 km/h
312 27-08-2006 03:58:03 14.4 C 10.38 g/m*3 14.4 C 0 km/h
313 27-08-2006 04:08:02 14.3 C 10.32 g/m*3 14.3 C 0 km/h
314 27-08-2006 04:18:02 14.2 C 10.26 g/m*3 14.2 C 0 km/h
315 27-08-2006 04:28:02 14.1 C 10.19 g/m*3 14.1 C 0 km/h
316 27-08-2006 04:38:02 14.1 C 10.32 g/m*3 14.1 C 0 km/h
317 27-08-2006 04:48:02 14 C 10.25 g/m*3 14 C 0 km/h
318 27-08-2006 04:58:02 14.1 C 10.32 g/m*3 14.1 C 0 km/h
319 27-08-2006 05:08:02 14.1 C 10.32 g/m*3 14.1 C 0 km/h
320 27-08-2006 05:18:03 14.2 C 10.38 g/m*3 14.2 C 0 km/h
321 27-08-2006 05:28:03 14.1 C 10.32 g/m*3 14.1 C 0 km/h
322 27-08-2006 05:38:03 14.1 C 10.32 g/m*3 14.1 C 0 km/h
323 27-08-2006 05:48:01 14.2 C 10.26 g/m*3 14.2 C 0 km/h
324 27-08-2006 05:58:01 14.2 C 10.26 g/m*3 14.2 C 0 km/h
325 27-08-2006 06:08:02 14.2 C 10.26 g/m*3 14.2 C 0 km/h
Sensor: Nr:Datum:Temp:Abs-Feuchte:Windchill:Wind:
Aussen-T/F 326 27-08-2006 06:18:02 14.2 C 10.26 g/m*3 14.2 C 0 km/h
327 27-08-2006 06:28:02 14.1 C 10.32 g/m*3 14.1 C 0 km/h
328 27-08-2006 06:38:02 13.9 C 10.55 g/m*3 13.9 C 0 km/h
329 27-08-2006 06:48:02 13.8 C 10.6 g/m*3 13.8 C 0 km/h
330 27-08-2006 06:58:02 13.7 C 10.66 g/m*3 13.7 C 0 km/h
331 27-08-2006 07:08:01 13.8 C 10.84 g/m*3 13.8 C 0 km/h
332 27-08-2006 07:18:02 13.8 C 10.84 g/m*3 13.8 C 0 km/h
333 27-08-2006 07:28:02 13.9 C 10.91 g/m*3 13.9 C 0 km/h
334 27-08-2006 07:38:02 14 C 10.86 g/m*3 14 C 0 km/h
335 27-08-2006 07:48:02 14.1 C 10.8 g/m*3 14.1 C 0 km/h
336 27-08-2006 07:58:02 14.4 C 10.88 g/m*3 14.4 C 0 km/h
337 27-08-2006 08:08:03 14.5 C 10.94 g/m*3 14.5 C 0 km/h
338 27-08-2006 08:18:02 14.5 C 10.82 g/m*3 14.5 C 0 km/h
339 27-08-2006 08:28:02 14.7 C 10.83 g/m*3 14.7 C 0 km/h
340 27-08-2006 08:38:02 14.7 C 10.83 g/m*3 14.7 C 0 km/h
341 27-08-2006 08:48:02 14.7 C 10.95 g/m*3 14.7 C 0 km/h
342 27-08-2006 08:58:02 14.6 C 10.89 g/m*3 14.6 C 0 km/h
343 27-08-2006 09:08:02 14.5 C 10.94 g/m*3 14.5 C 0 km/h
344 27-08-2006 09:18:01 14.7 C 11.08 g/m*3 14.7 C 0 km/h
345 27-08-2006 09:28:01 14.8 C 11.27 g/m*3 14.8 C 0 km/h
346 27-08-2006 09:38:02 14.9 C 11.34 g/m*3 14.9 C 0 km/h
347 27-08-2006 09:48:02 14.9 C 11.22 g/m*3 14.9 C 0 km/h
348 27-08-2006 09:58:02 14.8 C 11.27 g/m*3 14.8 C 0 km/h
349 27-08-2006 10:08:02 14.9 C 11.47 g/m*3 14.9 C 0 km/h
350 27-08-2006 10:18:01 14.8 C 11.4 g/m*3 14.8 C 0 km/h
Sensor: Nr:Datum:Temp:Abs-Feuchte:Windchill:Wind:
Aussen-T/F 351 27-08-2006 10:28:01 15 C 11.41 g/m*3 15 C 0 km/h
352 27-08-2006 10:38:01 15.2 C 11.55 g/m*3 15.2 C 0 km/h
353 27-08-2006 10:48:02 15.5 C 11.76 g/m*3 15.5 C 0 km/h
354 27-08-2006 10:58:02 15.7 C 11.77 g/m*3 15.7 C 0 km/h
355 27-08-2006 11:08:01 16.4 C 12.14 g/m*3 16.4 C 0 km/h
356 27-08-2006 11:18:02 16.8 C 11.87 g/m*3 16.8 C 0 km/h
357 27-08-2006 11:28:02 17.1 C 11.79 g/m*3 17.1 C 0 km/h
358 27-08-2006 11:38:01 17.5 C 11.93 g/m*3 17.5 C 0 km/h
359 27-08-2006 11:48:02 18.2 C 12.12 g/m*3 18.2 C 0 km/h
360 27-08-2006 11:58:03 18 C 11.67 g/m*3 18 C 0 km/h
361 27-08-2006 12:08:02 17.6 C 11.25 g/m*3 17.6 C 0 km/h
362 27-08-2006 12:18:02 18.4 C 11.48 g/m*3 18.4 C 0 km/h
363 27-08-2006 12:28:02 18.7 C 11.21 g/m*3 18.7 C 0 km/h
364 27-08-2006 12:38:03 18.2 C 11.04 g/m*3 18.2 C 0 km/h
365 27-08-2006 12:48:01 16.3 C 11.52 g/m*3 16.3 C 0 km/h
366 27-08-2006 12:58:01 15.8 C 11.71 g/m*3 15.8 C 0 km/h
367 27-08-2006 13:08:02 16.6 C 12.57 g/m*3 16.6 C 0 km/h
368 27-08-2006 13:18:02 16.8 C 12.58 g/m*3 16.8 C 0 km/h
369 27-08-2006 13:28:02 16.8 C 12.44 g/m*3 16.8 C 0 km/h
370 27-08-2006 13:38:01 16.3 C 12.07 g/m*3 16.3 C 0 km/h
371 27-08-2006 13:48:02 16.4 C 12.14 g/m*3 16.4 C 0 km/h
372 27-08-2006 13:58:02 17.5 C 12.97 g/m*3 17.5 C 0 km/h
373 27-08-2006 14:08:02 18.9 C 13.93 g/m*3 18.9 C 0 km/h
374 27-08-2006 14:18:03 19.3 C 13.44 g/m*3 19.3 C 0 km/h
375 27-08-2006 14:28:03 19.3 C 12.61 g/m*3 19.3 C 0 km/h
Sensor: Nr:Datum:Temp:Abs-Feuchte:Windchill:Wind:
Aussen-T/F 376 27-08-2006 14:38:02 19.6 C 13.34 g/m*3 19.6 C 0 km/h
377 27-08-2006 14:48:01 19.7 C 12.4 g/m*3 19.7 C 0 km/h
378 27-08-2006 14:58:01 20 C 13.31 g/m*3 20 C 0 km/h
379 27-08-2006 15:08:02 19.7 C 12.91 g/m*3 19.7 C 0 km/h
380 27-08-2006 15:18:02 19.6 C 11.82 g/m*3 19.6 C 0 km/h
381 27-08-2006 15:28:02 19.8 C 11.44 g/m*3 19.8 C 0 km/h
382 27-08-2006 15:38:02 19.5 C 10.91 g/m*3 19.5 C 0 km/h
383 27-08-2006 15:48:02 19.6 C 10.8 g/m*3 19.6 C 0 km/h
384 27-08-2006 15:58:02 20.4 C 10.79 g/m*3 20.4 C 0 km/h
385 27-08-2006 16:08:02 20.5 C 10.32 g/m*3 20.5 C 0 km/h
386 27-08-2006 16:18:03 20.1 C 9.56 g/m*3 20.1 C 0 km/h
387 27-08-2006 16:28:03 20.2 C 9.62 g/m*3 20.2 C 0 km/h
388 27-08-2006 16:38:03 20.8 C 9.96 g/m*3 20.8 C 0 km/h
389 27-08-2006 16:48:02 20 C 9.51 g/m*3 20 C 0 km/h
390 27-08-2006 16:58:02 18 C 9.52 g/m*3 18 C 0 km/h
391 27-08-2006 17:08:03 17.2 C 10.69 g/m*3 17.2 C 0 km/h
392 27-08-2006 17:18:03 17.5 C 11.18 g/m*3 17.5 C 0 km/h
393 27-08-2006 17:28:03 17.7 C 11.16 g/m*3 17.7 C 0 km/h
394 27-08-2006 17:38:02 17.7 C 11.47 g/m*3 17.7 C 0 km/h
395 27-08-2006 17:48:02 17.2 C 11.28 g/m*3 17.2 C 0 km/h
396 27-08-2006 17:58:02 17.1 C 11.5 g/m*3 17.1 C 0 km/h
397 27-08-2006 18:08:02 16.8 C 11.44 g/m*3 16.8 C 0 km/h
398 27-08-2006 18:18:02 16.7 C 11.51 g/m*3 16.7 C 0 km/h
399 27-08-2006 18:28:02 17.1 C 11.35 g/m*3 17.1 C 0 km/h
400 27-08-2006 18:38:02 17.7 C 11.62 g/m*3 17.7 C 0 km/h
Sensor: Nr:Datum:Temp:Abs-Feuchte:Windchill:Wind:
Aussen-T/F 401 27-08-2006 18:48:02 17.8 C 11.23 g/m*3 17.8 C 0 km/h
402 27-08-2006 18:58:02 17.7 C 11.01 g/m*3 17.7 C 0 km/h
403 27-08-2006 19:08:03 17.7 C 11.32 g/m*3 17.7 C 0 km/h
404 27-08-2006 19:18:02 16.8 C 9.15 g/m*3 16.8 C 0 km/h
405 27-08-2006 19:28:02 16.5 C 9.13 g/m*3 16.5 C 0 km/h
406 27-08-2006 19:38:02 16.2 C 9.52 g/m*3 16.2 C 0 km/h
407 27-08-2006 19:48:02 15.7 C 10.3 g/m*3 15.7 C 0 km/h
408 27-08-2006 19:58:02 15.7 C 10.44 g/m*3 15.7 C 0 km/h
409 27-08-2006 20:08:02 15.8 C 10.23 g/m*3 15.8 C 0 km/h
410 27-08-2006 20:18:02 16 C 10.08 g/m*3 16 C 0 km/h
411 27-08-2006 20:28:02 15.8 C 10.1 g/m*3 15.8 C 0 km/h
412 27-08-2006 20:38:02 15.6 C 10.11 g/m*3 15.6 C 0 km/h
413 27-08-2006 20:48:02 15.2 C 10.12 g/m*3 15.2 C 0 km/h
414 27-08-2006 20:58:02 14.9 C 10.2 g/m*3 14.9 C 0 km/h
415 27-08-2006 21:08:02 14.8 C 10.26 g/m*3 14.8 C 0 km/h
416 27-08-2006 21:18:02 14.4 C 10.26 g/m*3 14.4 C 0 km/h
417 27-08-2006 21:28:02 14.3 C 10.2 g/m*3 14.3 C 0 km/h
418 27-08-2006 21:38:03 14.1 C 10.19 g/m*3 14.1 C 0 km/h
419 27-08-2006 21:48:02 13.9 C 10.19 g/m*3 13.9 C 0 km/h
420 27-08-2006 21:58:02 13.8 C 10.25 g/m*3 13.8 C 0 km/h
421 27-08-2006 22:08:02 13.8 C 10.37 g/m*3 13.8 C 0 km/h
422 27-08-2006 22:18:02 14 C 10.49 g/m*3 14 C 0 km/h
423 27-08-2006 22:28:02 13.9 C 10.55 g/m*3 13.9 C 0 km/h
424 27-08-2006 22:38:02 13.9 C 10.43 g/m*3 13.9 C 0 km/h
425 27-08-2006 22:48:03 13.9 C 10.43 g/m*3 13.9 C 0 km/h
Sensor: Nr:Datum:Temp:Abs-Feuchte:Windchill:Wind:
Aussen-T/F 426 27-08-2006 22:58:03 14 C 10.37 g/m*3 14 C 0 km/h
427 27-08-2006 23:08:02 14.1 C 10.44 g/m*3 14.1 C 0 km/h
428 27-08-2006 23:18:02 14.2 C 10.38 g/m*3 14.2 C 0 km/h
429 27-08-2006 23:28:02 14.2 C 10.5 g/m*3 14.2 C 0 km/h
430 27-08-2006 23:38:02 14.1 C 10.44 g/m*3 14.1 C 0 km/h
431 27-08-2006 23:48:02 14.1 C 10.56 g/m*3 14.1 C 0 km/h
432 27-08-2006 23:58:02 14.1 C 10.56 g/m*3 14.1 C 0 km/h
433 28-08-2006 00:08:01 14 C 10.61 g/m*3 14 C 0 km/h
434 28-08-2006 00:18:02 13.9 C 10.67 g/m*3 13.9 C 0 km/h
435 28-08-2006 00:28:02 13.9 C 10.79 g/m*3 13.9 C 0 km/h
436 28-08-2006 00:38:01 13.8 C 10.72 g/m*3 13.8 C 0 km/h
437 28-08-2006 00:48:03 13.8 C 10.84 g/m*3 13.8 C 0 km/h
438 28-08-2006 00:58:03 13.8 C 10.84 g/m*3 13.8 C 0 km/h
439 28-08-2006 01:08:03 13.7 C 10.89 g/m*3 13.7 C 0 km/h
440 28-08-2006 01:18:02 13.6 C 10.83 g/m*3 13.6 C 0 km/h
441 28-08-2006 01:28:02 13.4 C 10.69 g/m*3 13.4 C 0 km/h
442 28-08-2006 01:38:02 13.3 C 10.63 g/m*3 13.3 C 0 km/h
443 28-08-2006 01:48:02 13.3 C 10.74 g/m*3 13.3 C 0 km/h
444 28-08-2006 01:58:02 13.1 C 10.5 g/m*3 13.1 C 0 km/h
445 28-08-2006 02:08:02 13 C 10.55 g/m*3 13 C 0 km/h
446 28-08-2006 02:18:02 13.1 C 10.61 g/m*3 13.1 C 0 km/h
447 28-08-2006 02:28:03 13.1 C 10.61 g/m*3 13.1 C 0 km/h
448 28-08-2006 02:38:02 13.2 C 10.79 g/m*3 13.2 C 0 km/h
449 28-08-2006 02:49:03 13.3 C 10.86 g/m*3 13.3 C 0 km/h
450 28-08-2006 02:59:03 13.4 C 10.93 g/m*3 13.4 C 0 km/h
Sensor: Nr:Datum:Temp:Abs-Feuchte:Windchill:Wind:
Aussen-T/F 451 28-08-2006 03:09:03 13.4 C 10.93 g/m*3 13.4 C 0 km/h
452 28-08-2006 03:19:03 13.4 C 10.93 g/m*3 13.4 C 0 km/h
453 28-08-2006 03:29:03 13.4 C 10.93 g/m*3 13.4 C 0 km/h
454 28-08-2006 03:39:02 13.5 C 11.11 g/m*3 13.5 C 0 km/h
455 28-08-2006 03:49:02 13.5 C 11.11 g/m*3 13.5 C 0 km/h
456 28-08-2006 03:59:02 13.6 C 11.18 g/m*3 13.6 C 0 km/h
457 28-08-2006 04:09:02 13.6 C 11.18 g/m*3 13.6 C 0 km/h
458 28-08-2006 04:19:02 13.7 C 11.25 g/m*3 13.7 C 0 km/h
459 28-08-2006 04:29:02 13.7 C 11.25 g/m*3 13.7 C 0 km/h
460 28-08-2006 04:39:02 13.7 C 11.13 g/m*3 13.7 C 0 km/h
461 28-08-2006 04:49:02 13.7 C 11.13 g/m*3 13.7 C 0 km/h
462 28-08-2006 04:59:02 13.7 C 11.01 g/m*3 13.7 C 0 km/h
463 28-08-2006 05:09:02 13.7 C 10.89 g/m*3 13.7 C 0 km/h
464 28-08-2006 05:19:02 13.7 C 10.89 g/m*3 13.7 C 0 km/h
465 28-08-2006 05:29:02 13.8 C 10.84 g/m*3 13.8 C 0 km/h
466 28-08-2006 05:39:01 13.8 C 10.84 g/m*3 13.8 C 0 km/h
467 28-08-2006 05:49:03 13.9 C 10.67 g/m*3 13.9 C 0 km/h
468 28-08-2006 05:59:03 13.9 C 10.55 g/m*3 13.9 C 0 km/h
469 28-08-2006 06:09:03 13.8 C 10.37 g/m*3 13.8 C 0 km/h
470 28-08-2006 06:19:02 13.9 C 10.43 g/m*3 13.9 C 0 km/h
471 28-08-2006 06:29:02 13.9 C 10.31 g/m*3 13.9 C 0 km/h
472 28-08-2006 06:39:02 13.9 C 10.31 g/m*3 13.9 C 0 km/h
473 28-08-2006 06:49:02 14 C 10.13 g/m*3 14 C 0 km/h
474 28-08-2006 06:59:03 14.2 C 10.14 g/m*3 14.2 C 0 km/h
475 28-08-2006 07:09:02 14.2 C 10.01 g/m*3 14.2 C 0 km/h
Sensor: Nr:Datum:Temp:Abs-Feuchte:Windchill:Wind:
Aussen-T/F 476 28-08-2006 07:19:01 14.2 C 10.01 g/m*3 14.2 C 0 km/h
477 28-08-2006 07:29:01 14.4 C 9.89 g/m*3 14.4 C 0 km/h
478 28-08-2006 07:39:02 14.5 C 9.95 g/m*3 14.5 C 0 km/h
479 28-08-2006 07:49:02 14.5 C 9.95 g/m*3 14.5 C 0 km/h
480 28-08-2006 07:59:02 14.6 C 9.89 g/m*3 14.6 C 0 km/h
481 28-08-2006 08:09:02 14.7 C 9.95 g/m*3 14.7 C 0 km/h
482 28-08-2006 08:19:02 14.7 C 9.95 g/m*3 14.7 C 0 km/h
483 28-08-2006 08:29:02 14.7 C 9.95 g/m*3 14.7 C 0 km/h
484 28-08-2006 08:39:01 14.7 C 9.82 g/m*3 14.7 C 0 km/h
485 28-08-2006 08:49:02 14.7 C 9.82 g/m*3 14.7 C 0 km/h
486 28-08-2006 08:59:02 14.8 C 9.88 g/m*3 14.8 C 0 km/h
487 28-08-2006 09:09:02 15.1 C 9.8 g/m*3 15.1 C 0 km/h
488 28-08-2006 09:19:02 15.4 C 9.72 g/m*3 15.4 C 0 km/h
489 28-08-2006 09:29:02 15.3 C 9.66 g/m*3 15.3 C 0 km/h
490 28-08-2006 09:39:02 15.4 C 9.72 g/m*3 15.4 C 0 km/h
491 28-08-2006 09:49:02 15.4 C 9.72 g/m*3 15.4 C 0 km/h
492 28-08-2006 09:59:02 15 C 9.75 g/m*3 15 C 0 km/h
493 28-08-2006 10:09:02 14.8 C 10.13 g/m*3 14.8 C 0 km/h
494 28-08-2006 10:19:02 15.2 C 10.12 g/m*3 15.2 C 0 km/h
495 28-08-2006 10:29:02 15.8 C 9.96 g/m*3 15.8 C 0 km/h
496 28-08-2006 10:39:02 16.4 C 9.91 g/m*3 16.4 C 0 km/h
497 28-08-2006 10:49:02 16.4 C 9.63 g/m*3 16.4 C 0 km/h
498 28-08-2006 10:59:02 16.1 C 9.87 g/m*3 16.1 C 0 km/h
499 28-08-2006 11:09:01 15.6 C 10.11 g/m*3 15.6 C 0 km/h
500 28-08-2006 11:19:01 15 C 10.13 g/m*3 15 C 0 km/h
Sensor: Nr:Datum:Temp:Abs-Feuchte:Windchill:Wind:
Aussen-T/F 501 28-08-2006 11:29:01 14.7 C 10.2 g/m*3 14.7 C 0 km/h
502 28-08-2006 11:39:01 14.5 C 10.32 g/m*3 14.5 C 0 km/h
503 28-08-2006 11:49:01 14.4 C 10.38 g/m*3 14.4 C 0 km/h
504 28-08-2006 11:59:01 14.3 C 10.44 g/m*3 14.3 C 0 km/h
505 28-08-2006 12:09:01 14.2 C 10.38 g/m*3 14.2 C 0 km/h
506 28-08-2006 12:19:01 14.2 C 10.38 g/m*3 14.2 C 0 km/h
507 28-08-2006 12:29:01 13.9 C 10.31 g/m*3 13.9 C 0 km/h
508 28-08-2006 12:39:02 13.8 C 10.13 g/m*3 13.8 C 0 km/h
509 28-08-2006 12:49:03 13.7 C 10.18 g/m*3 13.7 C 0 km/h
510 28-08-2006 12:59:03 13.5 C 9.94 g/m*3 13.5 C 0 km/h
511 28-08-2006 13:09:02 13.4 C 9.88 g/m*3 13.4 C 0 km/h
512 28-08-2006 13:19:02 13.4 C 9.88 g/m*3 13.4 C 0 km/h
513 28-08-2006 13:29:02 13.5 C 9.94 g/m*3 13.5 C 0 km/h
514 28-08-2006 13:39:02 13.4 C 9.88 g/m*3 13.4 C 0 km/h
515 28-08-2006 13:49:02 13.5 C 10.06 g/m*3 13.5 C 0 km/h
516 28-08-2006 13:59:02 13.7 C 10.18 g/m*3 13.7 C 0 km/h
517 28-08-2006 14:09:01 13.7 C 10.07 g/m*3 13.7 C 0 km/h
518 28-08-2006 14:19:01 14.7 C 10.83 g/m*3 14.7 C 0 km/h
519 28-08-2006 14:29:01 15.5 C 10.71 g/m*3 15.5 C 0 km/h
520 28-08-2006 14:39:01 15.2 C 10.12 g/m*3 15.2 C 0 km/h
521 28-08-2006 14:49:02 14.9 C 9.94 g/m*3 14.9 C 0 km/h
522 28-08-2006 14:59:02 14.8 C 10.01 g/m*3 14.8 C 0 km/h
523 28-08-2006 15:09:02 15.1 C 10.06 g/m*3 15.1 C 0 km/h
524 28-08-2006 15:19:02 15.3 C 10.06 g/m*3 15.3 C 0 km/h
525 28-08-2006 15:29:02 15.2 C 9.86 g/m*3 15.2 C 0 km/h
Sensor: Nr:Datum:Temp:Abs-Feuchte:Windchill:Wind:
Aussen-T/F 526 28-08-2006 15:39:02 15.2 C 9.86 g/m*3 15.2 C 0 km/h
527 28-08-2006 15:49:02 14.9 C 10.07 g/m*3 14.9 C 0 km/h
528 28-08-2006 15:59:02 14.7 C 9.95 g/m*3 14.7 C 0 km/h
529 28-08-2006 16:09:02 15 C 9.87 g/m*3 15 C 0 km/h
530 28-08-2006 16:19:02 15 C 9.87 g/m*3 15 C 0 km/h
531 28-08-2006 16:29:02 15.2 C 10.12 g/m*3 15.2 C 0 km/h
532 28-08-2006 16:39:02 15.4 C 10.12 g/m*3 15.4 C 0 km/h
533 28-08-2006 16:49:01 15.3 C 10.06 g/m*3 15.3 C 0 km/h
534 28-08-2006 16:59:02 16 C 10.08 g/m*3 16 C 0 km/h
535 28-08-2006 17:09:02 17 C 10.27 g/m*3 17 C 0 km/h
536 28-08-2006 17:19:02 16.7 C 10.09 g/m*3 16.7 C 0 km/h
537 28-08-2006 17:29:02 16.7 C 10.37 g/m*3 16.7 C 0 km/h
538 28-08-2006 17:39:02 16.4 C 9.77 g/m*3 16.4 C 0 km/h
539 28-08-2006 17:49:03 16 C 9.26 g/m*3 16 C 0 km/h
540 28-08-2006 17:59:03 16 C 9.4 g/m*3 16 C 0 km/h
541 28-08-2006 18:09:03 13.4 C 8.49 g/m*3 13.4 C 0 km/h
542 28-08-2006 18:19:03 12.8 C 8.96 g/m*3 12.8 C 0 km/h
543 28-08-2006 18:29:03 12.4 C 9.07 g/m*3 12.4 C 0 km/h
544 28-08-2006 18:39:03 12.1 C 9.12 g/m*3 12.1 C 0 km/h
545 28-08-2006 18:49:02 12 C 9.17 g/m*3 12 C 0 km/h
546 28-08-2006 18:59:02 12.2 C 9.5 g/m*3 12.2 C 0 km/h
547 28-08-2006 19:09:02 12.2 C 9.6 g/m*3 12.2 C 0 km/h
548 28-08-2006 19:19:02 12.2 C 9.5 g/m*3 12.2 C 0 km/h
549 28-08-2006 19:29:02 12.3 C 9.56 g/m*3 12.3 C 0 km/h
550 28-08-2006 19:39:03 12.4 C 9.51 g/m*3 12.4 C 0 km/h
Sensor: Nr:Datum:Temp:Abs-Feuchte:Windchill:Wind:
Aussen-T/F 551 28-08-2006 19:49:03 12.4 C 9.4 g/m*3 12.4 C 0 km/h
552 28-08-2006 19:59:03 12.5 C 9.35 g/m*3 12.5 C 0 km/h
553 28-08-2006 20:09:02 12.6 C 9.29 g/m*3 12.6 C 0 km/h
554 28-08-2006 20:19:02 12.6 C 9.4 g/m*3 12.6 C 0 km/h
555 28-08-2006 20:29:02 12.6 C 9.4 g/m*3 12.6 C 0 km/h
556 28-08-2006 20:39:02 12.6 C 9.4 g/m*3 12.6 C 0 km/h
557 28-08-2006 20:49:02 12.5 C 9.35 g/m*3 12.5 C 0 km/h
558 28-08-2006 20:59:02 12.4 C 9.29 g/m*3 12.4 C 0 km/h
559 28-08-2006 21:09:02 12.3 C 9.12 g/m*3 12.3 C 0 km/h
560 28-08-2006 21:19:01 12.1 C 9.01 g/m*3 12.1 C 0 km/h
561 28-08-2006 21:29:01 12.1 C 8.79 g/m*3 12.1 C 0 km/h
562 28-08-2006 21:39:02 11.9 C 8.9 g/m*3 11.9 C 0 km/h
563 28-08-2006 21:49:02 11.8 C 8.84 g/m*3 11.8 C 0 km/h
564 28-08-2006 21:59:02 11.6 C 8.94 g/m*3 11.6 C 0 km/h
565 28-08-2006 22:09:02 11.5 C 8.88 g/m*3 11.5 C 0 km/h
566 28-08-2006 22:19:01 11.6 C 8.73 g/m*3 11.6 C 0 km/h
567 28-08-2006 22:29:01 11.8 C 8.63 g/m*3 11.8 C 0 km/h
568 28-08-2006 22:39:02 11.7 C 8.47 g/m*3 11.7 C 0 km/h
569 28-08-2006 22:49:02 11.8 C 8.42 g/m*3 11.8 C 0 km/h
570 28-08-2006 22:59:02 11.8 C 8.31 g/m*3 11.8 C 0 km/h
571 28-08-2006 23:09:02 11.8 C 8.21 g/m*3 11.8 C 0 km/h
572 28-08-2006 23:19:01 11.8 C 8.21 g/m*3 11.8 C 0 km/h
573 28-08-2006 23:29:01 11.8 C 8.21 g/m*3 11.8 C 0 km/h
574 28-08-2006 23:39:02 11.7 C 8.05 g/m*3 11.7 C 0 km/h
575 28-08-2006 23:49:02 11.5 C 8.06 g/m*3 11.5 C 0 km/h
Sensor: Nr:Datum:Temp:Abs-Feuchte:Windchill:Wind:
Aussen-T/F 576 28-08-2006 23:59:02 11.4 C 8.11 g/m*3 11.4 C 0 km/h
577 29-08-2006 00:09:01 11.2 C 8.01 g/m*3 11.2 C 0 km/h
578 29-08-2006 00:19:02 11.1 C 8.06 g/m*3 11.1 C 0 km/h
579 29-08-2006 00:29:02 10.9 C 8.06 g/m*3 10.9 C 0 km/h
580 29-08-2006 00:39:02 11 C 8.11 g/m*3 11 C 0 km/h
581 29-08-2006 00:49:02 11 C 8.11 g/m*3 11 C 0 km/h
582 29-08-2006 00:59:02 11 C 8.11 g/m*3 11 C 0 km/h
583 29-08-2006 01:09:02 10.8 C 8.11 g/m*3 10.8 C 0 km/h
584 29-08-2006 01:19:02 10.8 C 8.11 g/m*3 10.8 C 0 km/h
585 29-08-2006 01:29:03 10.7 C 8.15 g/m*3 10.7 C 0 km/h
586 29-08-2006 01:39:02 10.7 C 8.25 g/m*3 10.7 C 0 km/h
587 29-08-2006 01:49:02 10.6 C 8.2 g/m*3 10.6 C 0 km/h
588 29-08-2006 01:59:03 10.6 C 8.2 g/m*3 10.6 C 0 km/h
589 29-08-2006 02:09:02 10.5 C 8.24 g/m*3 10.5 C 0 km/h
590 29-08-2006 02:19:02 10.5 C 8.24 g/m*3 10.5 C 0 km/h
591 29-08-2006 02:29:02 10.5 C 8.24 g/m*3 10.5 C 0 km/h
592 29-08-2006 02:39:03 10.5 C 8.24 g/m*3 10.5 C 0 km/h
593 29-08-2006 02:50:04 10.5 C 8.24 g/m*3 10.5 C 0 km/h
594 29-08-2006 03:00:04 10.5 C 8.24 g/m*3 10.5 C 0 km/h
595 29-08-2006 03:10:04 10.3 C 8.14 g/m*3 10.3 C 0 km/h
596 29-08-2006 03:20:04 10.7 C 8.35 g/m*3 10.7 C 0 km/h
597 29-08-2006 03:30:04 10.8 C 8.3 g/m*3 10.8 C 0 km/h
598 29-08-2006 03:40:02 10.9 C 8.26 g/m*3 10.9 C 0 km/h
599 29-08-2006 03:50:02 10.9 C 8.26 g/m*3 10.9 C 0 km/h
600 29-08-2006 04:00:02 10.8 C 8.3 g/m*3 10.8 C 0 km/h
Sensor: Nr:Datum:Temp:Abs-Feuchte:Windchill:Wind:
Aussen-T/F 601 29-08-2006 04:10:01 10.8 C 8.3 g/m*3 10.8 C 0 km/h
602 29-08-2006 04:20:02 11 C 8.31 g/m*3 11 C 0 km/h
603 29-08-2006 04:30:02 11.1 C 8.36 g/m*3 11.1 C 0 km/h
604 29-08-2006 04:40:02 11.1 C 8.36 g/m*3 11.1 C 0 km/h
605 29-08-2006 04:50:02 11 C 8.41 g/m*3 11 C 0 km/h
606 29-08-2006 05:00:02 10.9 C 8.45 g/m*3 10.9 C 0 km/h
607 29-08-2006 05:10:03 10.8 C 8.5 g/m*3 10.8 C 0 km/h
608 29-08-2006 05:20:03 10.7 C 8.45 g/m*3 10.7 C 0 km/h
609 29-08-2006 05:30:03 10.5 C 8.34 g/m*3 10.5 C 0 km/h
610 29-08-2006 05:40:03 10.5 C 8.44 g/m*3 10.5 C 0 km/h
611 29-08-2006 05:50:02 10.4 C 8.38 g/m*3 10.4 C 0 km/h
612 29-08-2006 06:00:02 10.4 C 8.38 g/m*3 10.4 C 0 km/h
613 29-08-2006 06:10:02 10.3 C 8.33 g/m*3 10.3 C 0 km/h
614 29-08-2006 06:20:02 10.2 C 8.37 g/m*3 10.2 C 0 km/h
615 29-08-2006 06:30:02 10.3 C 8.43 g/m*3 10.3 C 0 km/h
616 29-08-2006 06:40:01 10.5 C 8.53 g/m*3 10.5 C 0 km/h
617 29-08-2006 06:50:02 10.8 C 8.6 g/m*3 10.8 C 0 km/h
618 29-08-2006 07:00:02 10.8 C 8.5 g/m*3 10.8 C 0 km/h
619 29-08-2006 07:10:02 10.8 C 8.4 g/m*3 10.8 C 0 km/h
620 29-08-2006 07:20:01 10.9 C 8.36 g/m*3 10.9 C 0 km/h
621 29-08-2006 07:30:01 11 C 8.21 g/m*3 11 C 0 km/h
622 29-08-2006 07:40:01 11 C 8.31 g/m*3 11 C 0 km/h
623 29-08-2006 07:50:02 10.7 C 8.25 g/m*3 10.7 C 0 km/h
624 29-08-2006 08:00:02 10.7 C 8.35 g/m*3 10.7 C 0 km/h
625 29-08-2006 08:10:02 10.9 C 8.36 g/m*3 10.9 C 0 km/h
Sensor: Nr:Datum:Temp:Abs-Feuchte:Windchill:Wind:
Aussen-T/F 626 29-08-2006 08:20:02 11.2 C 8.41 g/m*3 11.2 C 0 km/h
627 29-08-2006 08:30:02 11.3 C 8.36 g/m*3 11.3 C 0 km/h
628 29-08-2006 08:40:02 11.4 C 8.31 g/m*3 11.4 C 0 km/h
629 29-08-2006 08:50:02 11.7 C 8.37 g/m*3 11.7 C 0 km/h
630 29-08-2006 09:00:03 12.1 C 8.36 g/m*3 12.1 C 0 km/h
631 29-08-2006 09:10:01 12.2 C 8.52 g/m*3 12.2 C 0 km/h
632 29-08-2006 09:20:01 12.5 C 8.58 g/m*3 12.5 C 0 km/h
633 29-08-2006 09:30:01 12.4 C 8.52 g/m*3 12.4 C 0 km/h
634 29-08-2006 09:40:01 12.4 C 8.63 g/m*3 12.4 C 0 km/h
635 29-08-2006 09:50:02 13.1 C 8.79 g/m*3 13.1 C 0 km/h
636 29-08-2006 10:00:02 13 C 8.62 g/m*3 13 C 0 km/h
637 29-08-2006 10:10:02 13.1 C 8.67 g/m*3 13.1 C 0 km/h
638 29-08-2006 10:20:02 13.3 C 8.78 g/m*3 13.3 C 0 km/h
639 29-08-2006 10:30:02 13.6 C 8.59 g/m*3 13.6 C 0 km/h
640 29-08-2006 10:40:02 14.2 C 8.79 g/m*3 14.2 C 0 km/h
641 29-08-2006 10:50:01 14.5 C 8.71 g/m*3 14.5 C 0 km/h
642 29-08-2006 11:00:01 15.7 C 9.1 g/m*3 15.7 C 0 km/h
643 29-08-2006 11:10:02 14.7 C 8.56 g/m*3 14.7 C 0 km/h
644 29-08-2006 11:20:02 14.9 C 8.54 g/m*3 14.9 C 0 km/h
645 29-08-2006 11:30:02 14.8 C 8.61 g/m*3 14.8 C 0 km/h
646 29-08-2006 11:40:02 14.8 C 8.74 g/m*3 14.8 C 0 km/h
647 29-08-2006 11:50:03 15.3 C 8.49 g/m*3 15.3 C 0 km/h
648 29-08-2006 12:00:03 15 C 8.21 g/m*3 15 C 0 km/h
649 29-08-2006 12:10:02 15.3 C 8.62 g/m*3 15.3 C 0 km/h
650 29-08-2006 12:20:02 16.3 C 8.46 g/m*3 16.3 C 0 km/h
Sensor: Nr:Datum:Temp:Abs-Feuchte:Windchill:Wind:
Aussen-T/F 651 29-08-2006 12:30:02 16.8 C 8.29 g/m*3 16.8 C 0 km/h
652 29-08-2006 12:40:02 16.7 C 8.1 g/m*3 16.7 C 0 km/h
653 29-08-2006 12:50:02 17 C 7.81 g/m*3 17 C 0 km/h
654 29-08-2006 13:00:02 17.4 C 7.85 g/m*3 17.4 C 0 km/h
655 29-08-2006 13:10:02 17.1 C 7.28 g/m*3 17.1 C 0 km/h
656 29-08-2006 13:20:01 17.2 C 7.32 g/m*3 17.2 C 0 km/h
657 29-08-2006 13:30:01 16.7 C 7.67 g/m*3 16.7 C 0 km/h
658 29-08-2006 13:40:01 15.7 C 8.16 g/m*3 15.7 C 0 km/h
659 29-08-2006 13:50:02 16.6 C 8.19 g/m*3 16.6 C 0 km/h
660 29-08-2006 14:00:02 16.9 C 8.2 g/m*3 16.9 C 0 km/h
661 29-08-2006 14:10:02 16.6 C 8.05 g/m*3 16.6 C 0 km/h
662 29-08-2006 14:20:01 17.6 C 8.1 g/m*3 17.6 C 0 km/h
663 29-08-2006 14:30:01 17.4 C 7.41 g/m*3 17.4 C 0 km/h
664 29-08-2006 14:40:01 18.2 C 7.77 g/m*3 18.2 C 0 km/h
665 29-08-2006 14:50:02 18.3 C 7.51 g/m*3 18.3 C 0 km/h
666 29-08-2006 15:00:03 18.5 C 7.12 g/m*3 18.5 C 0 km/h
667 29-08-2006 15:10:01 18.6 C 7 g/m*3 18.6 C 0 km/h
668 29-08-2006 15:20:01 18.9 C 7.13 g/m*3 18.9 C 0 km/h
669 29-08-2006 15:30:01 19.3 C 6.8 g/m*3 19.3 C 0 km/h
670 29-08-2006 15:40:01 19.2 C 6.76 g/m*3 19.2 C 0 km/h
671 29-08-2006 15:50:02 17.9 C 7.33 g/m*3 17.9 C 0 km/h
672 29-08-2006 16:00:02 17.3 C 7.51 g/m*3 17.3 C 0 km/h
673 29-08-2006 16:10:02 13.3 C 7.86 g/m*3 13.3 C 0 km/h
674 29-08-2006 16:20:02 13.1 C 8.67 g/m*3 13.1 C 0 km/h
675 29-08-2006 16:30:02 13.1 C 9.01 g/m*3 13.1 C 0 km/h
Sensor: Nr:Datum:Temp:Abs-Feuchte:Windchill:Wind:
Aussen-T/F 676 29-08-2006 16:40:01 13 C 9.07 g/m*3 13 C 0 km/h
677 29-08-2006 16:50:02 13 C 8.73 g/m*3 13 C 0 km/h
678 29-08-2006 17:00:02 12.7 C 8.91 g/m*3 12.7 C 0 km/h
679 29-08-2006 17:10:02 12.4 C 8.96 g/m*3 12.4 C 0 km/h
680 29-08-2006 17:20:02 12.3 C 9.12 g/m*3 12.3 C 0 km/h
681 29-08-2006 17:30:02 12.1 C 9.33 g/m*3 12.1 C 0 km/h
682 29-08-2006 17:40:02 12 C 9.27 g/m*3 12 C 0 km/h
683 29-08-2006 17:50:02 11.9 C 9.43 g/m*3 11.9 C 0 km/h
684 29-08-2006 18:00:02 11.7 C 9.31 g/m*3 11.7 C 0 km/h
685 29-08-2006 18:10:02 12 C 9.48 g/m*3 12 C 0 km/h
686 29-08-2006 18:20:02 12 C 9.48 g/m*3 12 C 0 km/h
687 29-08-2006 18:30:02 12.1 C 9.54 g/m*3 12.1 C 0 km/h
688 29-08-2006 18:40:02 12 C 9.48 g/m*3 12 C 0 km/h
689 29-08-2006 18:50:02 12.1 C 9.54 g/m*3 12.1 C 0 km/h
690 29-08-2006 19:00:02 12.2 C 9.6 g/m*3 12.2 C 0 km/h
691 29-08-2006 19:10:02 12.1 C 9.54 g/m*3 12.1 C 0 km/h
692 29-08-2006 19:20:02 12.1 C 9.54 g/m*3 12.1 C 0 km/h
693 29-08-2006 19:30:02 12.1 C 9.44 g/m*3 12.1 C 0 km/h
694 29-08-2006 19:40:02 12.3 C 9.56 g/m*3 12.3 C 0 km/h
695 29-08-2006 19:50:02 12.6 C 9.62 g/m*3 12.6 C 0 km/h
696 29-08-2006 20:00:02 12.8 C 9.63 g/m*3 12.8 C 0 km/h
697 29-08-2006 20:10:02 12.2 C 9.39 g/m*3 12.2 C 0 km/h
698 29-08-2006 20:20:02 11.8 C 9.26 g/m*3 11.8 C 0 km/h
699 29-08-2006 20:30:02 11.4 C 9.03 g/m*3 11.4 C 0 km/h
700 29-08-2006 20:40:02 11.2 C 8.92 g/m*3 11.2 C 0 km/h
Sensor: Nr:Datum:Temp:Abs-Feuchte:Windchill:Wind:
Aussen-T/F 701 29-08-2006 20:50:02 11.1 C 8.96 g/m*3 11.1 C 0 km/h
702 29-08-2006 21:00:02 11.1 C 8.96 g/m*3 11.1 C 0 km/h
703 29-08-2006 21:10:03 11.1 C 8.96 g/m*3 11.1 C 0 km/h
704 29-08-2006 21:20:02 10.9 C 8.85 g/m*3 10.9 C 0 km/h
705 29-08-2006 21:30:02 11 C 8.91 g/m*3 11 C 0 km/h
706 29-08-2006 21:40:02 11 C 8.91 g/m*3 11 C 0 km/h
707 29-08-2006 21:50:03 11.1 C 9.07 g/m*3 11.1 C 0 km/h
708 29-08-2006 22:00:03 11.2 C 9.22 g/m*3 11.2 C 0 km/h
709 29-08-2006 22:10:03 11.1 C 9.17 g/m*3 11.1 C 0 km/h
710 29-08-2006 22:20:02 10.8 C 9.09 g/m*3 10.8 C 0 km/h
711 29-08-2006 22:30:02 10.6 C 8.98 g/m*3 10.6 C 0 km/h
712 29-08-2006 22:40:02 10.5 C 8.92 g/m*3 10.5 C 0 km/h
713 29-08-2006 22:50:02 10.4 C 8.87 g/m*3 10.4 C 0 km/h
714 29-08-2006 23:00:02 10.3 C 8.81 g/m*3 10.3 C 0 km/h
715 29-08-2006 23:10:02 10.1 C 8.79 g/m*3 10.1 C 0 km/h
716 29-08-2006 23:20:02 10.2 C 8.85 g/m*3 10.2 C 0 km/h
717 29-08-2006 23:30:02 10.2 C 8.85 g/m*3 10.2 C 0 km/h
718 29-08-2006 23:40:02 10.1 C 8.79 g/m*3 10.1 C 0 km/h
719 29-08-2006 23:50:02 10.1 C 8.79 g/m*3 10.1 C 0 km/h
720 30-08-2006 00:00:02 10.2 C 8.95 g/m*3 10.2 C 0 km/h
721 30-08-2006 00:10:02 10.5 C 9.12 g/m*3 10.5 C 0 km/h
722 30-08-2006 00:20:03 10.5 C 9.12 g/m*3 10.5 C 0 km/h
723 30-08-2006 00:30:03 10.6 C 9.08 g/m*3 10.6 C 0 km/h
724 30-08-2006 00:40:02 10.5 C 8.92 g/m*3 10.5 C 0 km/h
725 30-08-2006 00:50:02 10.5 C 8.83 g/m*3 10.5 C 0 km/h
Sensor: Nr:Datum:Temp:Abs-Feuchte:Windchill:Wind:
Aussen-T/F 726 30-08-2006 01:00:02 10.4 C 8.67 g/m*3 10.4 C 0 km/h
727 30-08-2006 01:10:02 10.4 C 8.67 g/m*3 10.4 C 0 km/h
728 30-08-2006 01:20:02 10.5 C 8.63 g/m*3 10.5 C 0 km/h
729 30-08-2006 01:30:02 10.6 C 8.59 g/m*3 10.6 C 0 km/h
730 30-08-2006 01:40:02 10.5 C 8.53 g/m*3 10.5 C 0 km/h
731 30-08-2006 01:50:03 10.6 C 8.49 g/m*3 10.6 C 0 km/h
732 30-08-2006 02:00:03 10.6 C 8.39 g/m*3 10.6 C 0 km/h
733 30-08-2006 02:10:02 10.5 C 8.34 g/m*3 10.5 C 0 km/h
734 30-08-2006 02:20:02 10.5 C 8.34 g/m*3 10.5 C 0 km/h
735 30-08-2006 02:30:02 10.7 C 8.35 g/m*3 10.7 C 0 km/h
736 30-08-2006 02:40:02 10.8 C 8.3 g/m*3 10.8 C 0 km/h
737 30-08-2006 02:51:04 10.8 C 8.2 g/m*3 10.8 C 0 km/h
738 30-08-2006 03:01:04 10.7 C 8.15 g/m*3 10.7 C 0 km/h
739 30-08-2006 03:11:03 10.7 C 8.25 g/m*3 10.7 C 0 km/h
740 30-08-2006 03:21:03 10.5 C 8.15 g/m*3 10.5 C 0 km/h
741 30-08-2006 03:31:02 10.5 C 8.05 g/m*3 10.5 C 0 km/h
742 30-08-2006 03:41:02 10.5 C 8.05 g/m*3 10.5 C 0 km/h
743 30-08-2006 03:51:02 10.5 C 8.05 g/m*3 10.5 C 0 km/h
744 30-08-2006 04:01:02 10.5 C 8.05 g/m*3 10.5 C 0 km/h
745 30-08-2006 04:11:02 10.5 C 8.05 g/m*3 10.5 C 0 km/h
746 30-08-2006 04:21:02 10.5 C 8.05 g/m*3 10.5 C 0 km/h
747 30-08-2006 04:31:02 10.2 C 7.9 g/m*3 10.2 C 0 km/h
748 30-08-2006 04:41:02 10.3 C 7.95 g/m*3 10.3 C 0 km/h
749 30-08-2006 04:51:02 10.6 C 8.1 g/m*3 10.6 C 0 km/h
750 30-08-2006 05:01:02 10.5 C 7.95 g/m*3 10.5 C 0 km/h
Sensor: Nr:Datum:Temp:Abs-Feuchte:Windchill:Wind:
Aussen-T/F 751 30-08-2006 05:11:02 10.5 C 8.05 g/m*3 10.5 C 0 km/h
752 30-08-2006 05:21:02 10.3 C 7.95 g/m*3 10.3 C 0 km/h
753 30-08-2006 05:31:02 10.6 C 8.1 g/m*3 10.6 C 0 km/h
754 30-08-2006 05:41:02 10.5 C 8.05 g/m*3 10.5 C 0 km/h
755 30-08-2006 05:51:02 10.5 C 8.05 g/m*3 10.5 C 0 km/h
756 30-08-2006 06:01:02 10.5 C 8.05 g/m*3 10.5 C 0 km/h
757 30-08-2006 06:11:02 10.6 C 8.1 g/m*3 10.6 C 0 km/h
758 30-08-2006 06:21:02 10.4 C 8.1 g/m*3 10.4 C 0 km/h
759 30-08-2006 06:31:03 10.1 C 8.23 g/m*3 10.1 C 0 km/h
760 30-08-2006 06:41:03 10.1 C 8.32 g/m*3 10.1 C 0 km/h
761 30-08-2006 06:51:02 9.9 C 8.4 g/m*3 9.9 C 0 km/h
762 30-08-2006 07:01:02 9.8 C 8.44 g/m*3 9.8 C 0 km/h
763 30-08-2006 07:11:02 9.8 C 8.44 g/m*3 9.8 C 0 km/h
764 30-08-2006 07:21:02 9.8 C 8.44 g/m*3 9.8 C 0 km/h
765 30-08-2006 07:31:02 9.8 C 8.54 g/m*3 9.8 C 0 km/h
766 30-08-2006 07:41:02 10 C 8.55 g/m*3 10 C 0 km/h
767 30-08-2006 07:51:01 9.9 C 8.59 g/m*3 9.9 C 0 km/h
768 30-08-2006 08:01:02 10.1 C 8.61 g/m*3 10.1 C 0 km/h
769 30-08-2006 08:11:02 10.2 C 8.66 g/m*3 10.2 C 0 km/h
770 30-08-2006 08:21:02 10.3 C 8.71 g/m*3 10.3 C 0 km/h
771 30-08-2006 08:31:02 10.6 C 8.88 g/m*3 10.6 C 0 km/h
772 30-08-2006 08:41:03 10.8 C 8.99 g/m*3 10.8 C 0 km/h
773 30-08-2006 08:51:02 11.2 C 9.02 g/m*3 11.2 C 0 km/h
774 30-08-2006 09:01:02 11.4 C 9.03 g/m*3 11.4 C 0 km/h
775 30-08-2006 09:11:02 11.8 C 9.05 g/m*3 11.8 C 0 km/h
Sensor: Nr:Datum:Temp:Abs-Feuchte:Windchill:Wind:
Aussen-T/F 776 30-08-2006 09:21:02 12 C 8.95 g/m*3 12 C 0 km/h
777 30-08-2006 09:31:02 12.2 C 8.96 g/m*3 12.2 C 0 km/h
778 30-08-2006 09:41:02 12.5 C 9.02 g/m*3 12.5 C 0 km/h
779 30-08-2006 09:51:02 12.9 C 9.02 g/m*3 12.9 C 0 km/h
780 30-08-2006 10:01:02 13.7 C 9.12 g/m*3 13.7 C 0 km/h
781 30-08-2006 10:11:02 14.2 C 8.91 g/m*3 14.2 C 0 km/h
782 30-08-2006 10:21:02 13.8 C 8.94 g/m*3 13.8 C 0 km/h
783 30-08-2006 10:31:02 13.4 C 8.95 g/m*3 13.4 C 0 km/h
784 30-08-2006 10:41:02 13.4 C 8.95 g/m*3 13.4 C 0 km/h
785 30-08-2006 10:51:03 14.7 C 9.32 g/m*3 14.7 C 0 km/h
786 30-08-2006 11:01:03 14.3 C 8.97 g/m*3 14.3 C 0 km/h
787 30-08-2006 11:11:03 14.4 C 9.15 g/m*3 14.4 C 0 km/h
788 30-08-2006 11:21:02 14.4 C 8.9 g/m*3 14.4 C 0 km/h
789 30-08-2006 11:31:02 14.8 C 9.12 g/m*3 14.8 C 0 km/h
790 30-08-2006 11:41:02 15 C 8.98 g/m*3 15 C 0 km/h
791 30-08-2006 11:51:02 15 C 9.23 g/m*3 15 C 0 km/h
792 30-08-2006 12:01:01 15.2 C 9.09 g/m*3 15.2 C 0 km/h
793 30-08-2006 12:11:01 13.6 C 9.53 g/m*3 13.6 C 0 km/h
794 30-08-2006 12:21:02 13.5 C 9.94 g/m*3 13.5 C 0 km/h
795 30-08-2006 12:31:01 13.7 C 10.07 g/m*3 13.7 C 0 km/h
796 30-08-2006 12:41:01 14.3 C 10.2 g/m*3 14.3 C 0 km/h
797 30-08-2006 12:51:01 14.6 C 10.39 g/m*3 14.6 C 0 km/h
798 30-08-2006 13:01:02 14.4 C 10.01 g/m*3 14.4 C 0 km/h
799 30-08-2006 13:11:02 15.2 C 10.25 g/m*3 15.2 C 0 km/h
800 30-08-2006 13:21:02 15.5 C 10.05 g/m*3 15.5 C 0 km/h
Sensor: Nr:Datum:Temp:Abs-Feuchte:Windchill:Wind:
Aussen-T/F 801 30-08-2006 13:31:02 16.4 C 10.33 g/m*3 16.4 C 0 km/h
802 30-08-2006 13:41:02 17.2 C 9.81 g/m*3 17.2 C 0 km/h
803 30-08-2006 13:51:03 16.5 C 9.13 g/m*3 16.5 C 0 km/h
804 30-08-2006 14:01:02 16.8 C 9.72 g/m*3 16.8 C 0 km/h
805 30-08-2006 14:11:02 17.2 C 9.52 g/m*3 17.2 C 0 km/h
806 30-08-2006 14:21:02 16.5 C 9.41 g/m*3 16.5 C 0 km/h
807 30-08-2006 14:31:02 16.3 C 8.74 g/m*3 16.3 C 0 km/h
808 30-08-2006 14:41:02 16.7 C 8.95 g/m*3 16.7 C 0 km/h
809 30-08-2006 14:51:02 17.8 C 8.5 g/m*3 17.8 C 0 km/h
810 30-08-2006 15:01:01 18.1 C 8.03 g/m*3 18.1 C 0 km/h
811 30-08-2006 15:11:01 18.9 C 8.26 g/m*3 18.9 C 0 km/h
812 30-08-2006 15:21:01 19 C 7.66 g/m*3 19 C 0 km/h
813 30-08-2006 15:31:01 19.9 C 7.56 g/m*3 19.9 C 0 km/h
814 30-08-2006 15:41:01 19.9 C 7.04 g/m*3 19.9 C 0 km/h
815 30-08-2006 15:51:02 19.2 C 6.76 g/m*3 19.2 C 0 km/h
816 30-08-2006 16:01:02 20 C 7.09 g/m*3 20 C 0 km/h
817 30-08-2006 16:11:02 18.5 C 6.8 g/m*3 18.5 C 0 km/h
818 30-08-2006 16:21:01 15.8 C 6.73 g/m*3 15.8 C 0 km/h
819 30-08-2006 16:31:02 14.5 C 9.45 g/m*3 14.5 C 0 km/h
820 30-08-2006 16:41:02 14.6 C 10.01 g/m*3 14.6 C 0 km/h
821 30-08-2006 16:51:02 15 C 8.59 g/m*3 15 C 0 km/h
822 30-08-2006 17:01:02 15.2 C 8.96 g/m*3 15.2 C 0 km/h
823 30-08-2006 17:11:02 15.7 C 9.9 g/m*3 15.7 C 0 km/h
824 30-08-2006 17:21:01 15.6 C 9.84 g/m*3 15.6 C 0 km/h
825 30-08-2006 17:31:02 15.4 C 9.72 g/m*3 15.4 C 0 km/h
Sensor: Nr:Datum:Temp:Abs-Feuchte:Windchill:Wind:
Aussen-T/F 826 30-08-2006 17:41:02 15.2 C 9.48 g/m*3 15.2 C 0 km/h
827 30-08-2006 17:51:02 15.6 C 9.71 g/m*3 15.6 C 0 km/h
828 30-08-2006 18:01:02 15.9 C 9.75 g/m*3 15.9 C 0 km/h
829 30-08-2006 18:11:02 15.4 C 9.07 g/m*3 15.4 C 0 km/h
830 30-08-2006 18:21:02 15 C 9.1 g/m*3 15 C 0 km/h
831 30-08-2006 18:31:02 14.8 C 9.37 g/m*3 14.8 C 0 km/h
832 30-08-2006 18:41:02 14.8 C 9.88 g/m*3 14.8 C 0 km/h
833 30-08-2006 18:51:03 15.2 C 10.12 g/m*3 15.2 C 0 km/h
834 30-08-2006 19:01:03 15.6 C 9.44 g/m*3 15.6 C 0 km/h
835 30-08-2006 19:11:03 15.4 C 9.33 g/m*3 15.4 C 0 km/h
836 30-08-2006 19:21:03 15.1 C 9.29 g/m*3 15.1 C 0 km/h
837 30-08-2006 19:31:03 14.8 C 9.37 g/m*3 14.8 C 0 km/h
838 30-08-2006 19:41:03 14.7 C 9.57 g/m*3 14.7 C 0 km/h
839 30-08-2006 19:51:02 14.6 C 9.64 g/m*3 14.6 C 0 km/h
840 30-08-2006 20:01:03 14.7 C 9.57 g/m*3 14.7 C 0 km/h
841 30-08-2006 20:11:03 14.6 C 9.39 g/m*3 14.6 C 0 km/h
842 30-08-2006 20:21:03 14.1 C 9.59 g/m*3 14.1 C 0 km/h
843 30-08-2006 20:31:03 14.1 C 9.59 g/m*3 14.1 C 0 km/h
844 30-08-2006 20:41:03 14.1 C 9.71 g/m*3 14.1 C 0 km/h
845 30-08-2006 20:51:03 14.1 C 9.71 g/m*3 14.1 C 0 km/h
846 30-08-2006 21:01:03 14 C 9.77 g/m*3 14 C 0 km/h
847 30-08-2006 21:11:03 13.6 C 10 g/m*3 13.6 C 0 km/h
848 30-08-2006 21:21:02 13.4 C 10 g/m*3 13.4 C 0 km/h
849 30-08-2006 21:31:02 13.3 C 10.05 g/m*3 13.3 C 0 km/h
850 30-08-2006 21:41:02 13.1 C 10.04 g/m*3 13.1 C 0 km/h
Sensor: Nr:Datum:Temp:Abs-Feuchte:Windchill:Wind:
Aussen-T/F 851 30-08-2006 21:51:01 13.1 C 10.16 g/m*3 13.1 C 0 km/h
852 30-08-2006 22:01:02 13 C 10.09 g/m*3 13 C 0 km/h
853 30-08-2006 22:11:02 13 C 10.21 g/m*3 13 C 0 km/h
854 30-08-2006 22:21:02 13 C 10.21 g/m*3 13 C 0 km/h
855 30-08-2006 22:31:02 13 C 10.09 g/m*3 13 C 0 km/h
856 30-08-2006 22:41:03 12.9 C 10.03 g/m*3 12.9 C 0 km/h
857 30-08-2006 22:51:01 12.8 C 9.86 g/m*3 12.8 C 0 km/h
858 30-08-2006 23:01:01 12.9 C 10.03 g/m*3 12.9 C 0 km/h
859 30-08-2006 23:11:01 12.8 C 9.86 g/m*3 12.8 C 0 km/h
860 30-08-2006 23:21:01 12.7 C 9.8 g/m*3 12.7 C 0 km/h
861 30-08-2006 23:31:02 12.7 C 9.8 g/m*3 12.7 C 0 km/h
862 30-08-2006 23:41:02 12.5 C 9.78 g/m*3 12.5 C 0 km/h
863 30-08-2006 23:51:02 12.5 C 9.78 g/m*3 12.5 C 0 km/h
864 31-08-2006 00:01:01 12.5 C 9.89 g/m*3 12.5 C 0 km/h
865 31-08-2006 00:11:01 12.3 C 9.77 g/m*3 12.3 C 0 km/h
866 31-08-2006 00:21:02 12.2 C 9.71 g/m*3 12.2 C 0 km/h
867 31-08-2006 00:31:02 12 C 9.59 g/m*3 12 C 0 km/h
868 31-08-2006 00:41:02 12.3 C 9.88 g/m*3 12.3 C 0 km/h
869 31-08-2006 00:51:02 12.3 C 9.99 g/m*3 12.3 C 0 km/h
870 31-08-2006 01:01:03 12.3 C 9.99 g/m*3 12.3 C 0 km/h
871 31-08-2006 01:11:03 12.2 C 9.82 g/m*3 12.2 C 0 km/h
872 31-08-2006 01:21:02 11.9 C 9.64 g/m*3 11.9 C 0 km/h
873 31-08-2006 01:31:02 11.6 C 9.46 g/m*3 11.6 C 0 km/h
874 31-08-2006 01:41:02 11.5 C 9.3 g/m*3 11.5 C 0 km/h
875 31-08-2006 01:51:01 11.4 C 9.03 g/m*3 11.4 C 0 km/h
Sensor: Nr:Datum:Temp:Abs-Feuchte:Windchill:Wind:
Aussen-T/F 876 31-08-2006 02:01:01 11.2 C 8.82 g/m*3 11.2 C 0 km/h
877 31-08-2006 02:11:01 11.1 C 8.86 g/m*3 11.1 C 0 km/h
878 31-08-2006 02:21:02 10.8 C 8.7 g/m*3 10.8 C 0 km/h
879 31-08-2006 02:31:01 10.7 C 8.74 g/m*3 10.7 C 0 km/h
880 31-08-2006 02:41:01 10.7 C 8.74 g/m*3 10.7 C 0 km/h
881 31-08-2006 02:52:04 10.6 C 8.69 g/m*3 10.6 C 0 km/h
882 31-08-2006 03:02:04 10.6 C 8.78 g/m*3 10.6 C 0 km/h
883 31-08-2006 03:12:04 10.5 C 8.63 g/m*3 10.5 C 0 km/h
884 31-08-2006 03:22:04 10.4 C 8.58 g/m*3 10.4 C 0 km/h
885 31-08-2006 03:32:03 10.4 C 8.67 g/m*3 10.4 C 0 km/h
886 31-08-2006 03:42:03 10.4 C 8.67 g/m*3 10.4 C 0 km/h
887 31-08-2006 03:52:03 10.2 C 8.56 g/m*3 10.2 C 0 km/h
888 31-08-2006 04:02:02 10.1 C 8.51 g/m*3 10.1 C 0 km/h
889 31-08-2006 04:12:02 10 C 8.55 g/m*3 10 C 0 km/h
890 31-08-2006 04:22:03 10 C 8.55 g/m*3 10 C 0 km/h
891 31-08-2006 04:32:03 9.9 C 8.59 g/m*3 9.9 C 0 km/h
892 31-08-2006 04:42:03 9.7 C 8.57 g/m*3 9.7 C 0 km/h
893 31-08-2006 04:52:03 9.6 C 8.52 g/m*3 9.6 C 0 km/h
894 31-08-2006 05:02:02 9.7 C 8.57 g/m*3 9.7 C 0 km/h
895 31-08-2006 05:12:02 9.5 C 8.47 g/m*3 9.5 C 0 km/h
896 31-08-2006 05:22:02 9.5 C 8.47 g/m*3 9.5 C 0 km/h
897 31-08-2006 05:32:02 9.3 C 8.36 g/m*3 9.3 C 0 km/h
898 31-08-2006 05:42:02 9.4 C 8.41 g/m*3 9.4 C 0 km/h
899 31-08-2006 05:52:02 9.3 C 8.36 g/m*3 9.3 C 0 km/h
900 31-08-2006 06:02:02 9.1 C 8.25 g/m*3 9.1 C 0 km/h
Sensor: Nr:Datum:Temp:Abs-Feuchte:Windchill:Wind:
Aussen-T/F 901 31-08-2006 06:12:03 9 C 8.2 g/m*3 9 C 0 km/h
902 31-08-2006 06:22:02 8.8 C 8.18 g/m*3 8.8 C 0 km/h
903 31-08-2006 06:32:02 9 C 8.2 g/m*3 9 C 0 km/h
904 31-08-2006 06:42:02 9.1 C 8.25 g/m*3 9.1 C 0 km/h
905 31-08-2006 06:52:02 9 C 8.2 g/m*3 9 C 0 km/h
906 31-08-2006 07:02:03 9 C 8.2 g/m*3 9 C 0 km/h
907 31-08-2006 07:12:03 9 C 8.2 g/m*3 9 C 0 km/h
908 31-08-2006 07:22:02 9 C 8.2 g/m*3 9 C 0 km/h
909 31-08-2006 07:32:02 9 C 8.2 g/m*3 9 C 0 km/h
910 31-08-2006 07:42:02 9.1 C 8.25 g/m*3 9.1 C 0 km/h
911 31-08-2006 07:52:01 9.1 C 8.25 g/m*3 9.1 C 0 km/h
912 31-08-2006 08:02:02 9.3 C 8.45 g/m*3 9.3 C 0 km/h
913 31-08-2006 08:12:02 9.5 C 8.56 g/m*3 9.5 C 0 km/h
914 31-08-2006 08:22:02 9.6 C 8.61 g/m*3 9.6 C 0 km/h
915 31-08-2006 08:32:01 9.8 C 8.72 g/m*3 9.8 C 0 km/h
916 31-08-2006 08:42:02 10.1 C 8.79 g/m*3 10.1 C 0 km/h
917 31-08-2006 08:52:02 10.3 C 8.81 g/m*3 10.3 C 0 km/h
918 31-08-2006 09:02:02 10.7 C 9.04 g/m*3 10.7 C 0 km/h
919 31-08-2006 09:12:02 11 C 9.11 g/m*3 11 C 0 km/h
920 31-08-2006 09:22:02 11.4 C 9.24 g/m*3 11.4 C 0 km/h
921 31-08-2006 09:32:02 11.8 C 9.26 g/m*3 11.8 C 0 km/h
922 31-08-2006 09:42:02 12 C 9.17 g/m*3 12 C 0 km/h
923 31-08-2006 09:52:02 12.5 C 9.35 g/m*3 12.5 C 0 km/h
924 31-08-2006 10:02:02 12.9 C 9.24 g/m*3 12.9 C 0 km/h
925 31-08-2006 10:12:02 13.3 C 9.01 g/m*3 13.3 C 0 km/h
Sensor: Nr:Datum:Temp:Abs-Feuchte:Windchill:Wind:
Aussen-T/F 926 31-08-2006 10:22:02 13.6 C 9.18 g/m*3 13.6 C 0 km/h
927 31-08-2006 10:32:02 13.8 C 9.29 g/m*3 13.8 C 0 km/h
928 31-08-2006 10:42:02 14.2 C 9.28 g/m*3 14.2 C 0 km/h
929 31-08-2006 10:52:02 14.8 C 9.25 g/m*3 14.8 C 0 km/h
930 31-08-2006 11:02:02 15.1 C 8.26 g/m*3 15.1 C 0 km/h
931 31-08-2006 11:12:02 15.6 C 8.51 g/m*3 15.6 C 0 km/h
932 31-08-2006 11:22:02 15.8 C 8.62 g/m*3 15.8 C 0 km/h
933 31-08-2006 11:32:02 16 C 8.04 g/m*3 16 C 0 km/h
934 31-08-2006 11:42:02 16.3 C 8.19 g/m*3 16.3 C 0 km/h
935 31-08-2006 11:52:02 16.5 C 8.14 g/m*3 16.5 C 0 km/h
936 31-08-2006 12:02:02 16.9 C 8.05 g/m*3 16.9 C 0 km/h
937 31-08-2006 12:12:02 17.2 C 8.35 g/m*3 17.2 C 0 km/h
938 31-08-2006 12:22:02 17.3 C 7.96 g/m*3 17.3 C 0 km/h
939 31-08-2006 12:32:02 17.6 C 8.1 g/m*3 17.6 C 0 km/h
940 31-08-2006 12:42:02 17.8 C 7.89 g/m*3 17.8 C 0 km/h
941 31-08-2006 12:52:02 17.9 C 7.94 g/m*3 17.9 C 0 km/h
942 31-08-2006 13:02:03 18.2 C 7.93 g/m*3 18.2 C 0 km/h
943 31-08-2006 13:12:03 18.5 C 7.75 g/m*3 18.5 C 0 km/h
944 31-08-2006 13:22:03 18.7 C 7.04 g/m*3 18.7 C 0 km/h
945 31-08-2006 13:32:02 19.1 C 7.38 g/m*3 19.1 C 0 km/h
946 31-08-2006 13:42:02 19.3 C 7.3 g/m*3 19.3 C 0 km/h
947 31-08-2006 13:52:02 19.8 C 7.17 g/m*3 19.8 C 0 km/h
948 31-08-2006 14:02:02 20 C 7.09 g/m*3 20 C 0 km/h
949 31-08-2006 14:12:02 20.9 C 6.92 g/m*3 20.9 C 0 km/h
950 31-08-2006 14:22:02 20.9 C 6.56 g/m*3 20.9 C 0 km/h
Sensor: Nr:Datum:Temp:Abs-Feuchte:Windchill:Wind:
Aussen-T/F 951 31-08-2006 14:32:03 20.8 C 6.52 g/m*3 20.8 C 0 km/h
952 31-08-2006 14:42:03 20.8 C 6.52 g/m*3 20.8 C 0 km/h
953 31-08-2006 14:52:02 20.6 C 6.62 g/m*3 20.6 C 0 km/h
954 31-08-2006 15:02:02 21.2 C 6.49 g/m*3 21.2 C 0 km/h
955 31-08-2006 15:12:02 21.2 C 6.67 g/m*3 21.2 C 0 km/h
956 31-08-2006 15:22:02 21.2 C 6.86 g/m*3 21.2 C 0 km/h
957 31-08-2006 15:32:03 20.8 C 6.7 g/m*3 20.8 C 0 km/h
958 31-08-2006 15:42:03 20.7 C 6.84 g/m*3 20.7 C 0 km/h
959 31-08-2006 15:52:02 21.3 C 6.9 g/m*3 21.3 C 0 km/h
960 31-08-2006 16:02:02 21.3 C 6.9 g/m*3 21.3 C 0 km/h
961 31-08-2006 16:12:02 21.1 C 6.82 g/m*3 21.1 C 0 km/h
962 31-08-2006 16:22:02 20.9 C 7.29 g/m*3 20.9 C 0 km/h
963 31-08-2006 16:32:03 21.2 C 7.6 g/m*3 21.2 C 0 km/h
964 31-08-2006 16:42:03 20.7 C 7.38 g/m*3 20.7 C 0 km/h
965 31-08-2006 16:52:02 20.6 C 7.52 g/m*3 20.6 C 0 km/h
966 31-08-2006 17:02:03 20.4 C 7.43 g/m*3 20.4 C 0 km/h
967 31-08-2006 17:12:03 20.5 C 7.47 g/m*3 20.5 C 0 km/h
968 31-08-2006 17:22:02 20.4 C 7.43 g/m*3 20.4 C 0 km/h
969 31-08-2006 17:32:02 20.3 C 7.74 g/m*3 20.3 C 0 km/h
970 31-08-2006 17:42:02 20.3 C 7.74 g/m*3 20.3 C 0 km/h
971 31-08-2006 17:52:02 20 C 7.43 g/m*3 20 C 0 km/h
972 31-08-2006 18:02:03 19.8 C 7.69 g/m*3 19.8 C 0 km/h
973 31-08-2006 18:12:03 19.7 C 8.15 g/m*3 19.7 C 0 km/h
974 31-08-2006 18:22:03 19.6 C 7.77 g/m*3 19.6 C 0 km/h
975 31-08-2006 18:32:02 19.7 C 8.15 g/m*3 19.7 C 0 km/h
Sensor: Nr:Datum:Temp:Abs-Feuchte:Windchill:Wind:
Aussen-T/F 976 31-08-2006 18:42:02 19.6 C 8.78 g/m*3 19.6 C 0 km/h
977 31-08-2006 18:52:02 19.4 C 8.34 g/m*3 19.4 C 0 km/h
978 31-08-2006 19:02:02 19.3 C 8.29 g/m*3 19.3 C 0 km/h
979 31-08-2006 19:12:02 19.3 C 8.13 g/m*3 19.3 C 0 km/h
980 31-08-2006 19:22:02 19.1 C 8.2 g/m*3 19.1 C 0 km/h
981 31-08-2006 19:32:03 18.9 C 8.26 g/m*3 18.9 C 0 km/h
982 31-08-2006 19:42:03 18.7 C 8.33 g/m*3 18.7 C 0 km/h
983 31-08-2006 19:52:02 18.6 C 8.28 g/m*3 18.6 C 0 km/h
984 31-08-2006 20:02:02 18.7 C 8.17 g/m*3 18.7 C 0 km/h
985 31-08-2006 20:12:02 18.6 C 8.12 g/m*3 18.6 C 0 km/h
986 31-08-2006 20:22:02 18.5 C 8.07 g/m*3 18.5 C 0 km/h
987 31-08-2006 20:32:02 18.5 C 8.23 g/m*3 18.5 C 0 km/h
988 31-08-2006 20:42:02 18.2 C 8.39 g/m*3 18.2 C 0 km/h
989 31-08-2006 20:52:02 18 C 8.29 g/m*3 18 C 0 km/h
990 31-08-2006 21:02:02 17.7 C 8.45 g/m*3 17.7 C 0 km/h
991 31-08-2006 21:12:02 17.7 C 8.45 g/m*3 17.7 C 0 km/h
992 31-08-2006 21:22:03 17.8 C 8.5 g/m*3 17.8 C 0 km/h
993 31-08-2006 21:32:03 17.7 C 8.6 g/m*3 17.7 C 0 km/h
994 31-08-2006 21:42:03 17.8 C 9.11 g/m*3 17.8 C 0 km/h
995 31-08-2006 21:52:02 17.3 C 8.84 g/m*3 17.3 C 0 km/h
996 31-08-2006 22:02:02 17.4 C 9.04 g/m*3 17.4 C 0 km/h
997 31-08-2006 22:12:02 17.4 C 9.04 g/m*3 17.4 C 0 km/h
998 31-08-2006 22:22:02 17.3 C 8.84 g/m*3 17.3 C 0 km/h
999 31-08-2006 22:32:02 17.4 C 8.89 g/m*3 17.4 C 0 km/h
1000 31-08-2006 22:42:02 17.4 C 9.04 g/m*3 17.4 C 0 km/h
Sensor: Nr:Datum:Temp:Abs-Feuchte:Windchill:Wind:
Aussen-T/F 1001 31-08-2006 22:52:02 17.3 C 9.13 g/m*3 17.3 C 0 km/h
1002 31-08-2006 23:02:02 17.2 C 8.93 g/m*3 17.2 C 0 km/h
1003 31-08-2006 23:12:02 17.1 C 9.03 g/m*3 17.1 C 0 km/h
1004 31-08-2006 23:22:02 17.1 C 9.03 g/m*3 17.1 C 0 km/h
1005 31-08-2006 23:32:03 17.5 C 8.95 g/m*3 17.5 C 0 km/h
1006 31-08-2006 23:42:03 17.6 C 8.85 g/m*3 17.6 C 0 km/h
1007 31-08-2006 23:52:02 17.5 C 8.95 g/m*3 17.5 C 0 km/h
1008 01-09-2006 00:02:03 17.6 C 8.85 g/m*3 17.6 C 0 km/h
1009 01-09-2006 00:12:03 17.7 C 8.9 g/m*3 17.7 C 0 km/h
1010 01-09-2006 00:22:02 17.6 C 8.85 g/m*3 17.6 C 0 km/h
1011 01-09-2006 00:32:02 17.5 C 8.95 g/m*3 17.5 C 0 km/h
1012 01-09-2006 00:42:02 17.4 C 9.19 g/m*3 17.4 C 0 km/h
1013 01-09-2006 00:52:02 17.2 C 9.23 g/m*3 17.2 C 0 km/h
1014 01-09-2006 01:02:02 17.1 C 9.17 g/m*3 17.1 C 0 km/h
1015 01-09-2006 01:12:02 17 C 9.26 g/m*3 17 C 0 km/h
1016 01-09-2006 01:22:03 16.8 C 9.44 g/m*3 16.8 C 0 km/h
1017 01-09-2006 01:32:02 16.8 C 9.58 g/m*3 16.8 C 0 km/h
1018 01-09-2006 01:42:02 16.7 C 9.52 g/m*3 16.7 C 0 km/h
1019 01-09-2006 01:52:02 16.7 C 9.38 g/m*3 16.7 C 0 km/h
1020 01-09-2006 02:02:02 17 C 9.12 g/m*3 17 C 0 km/h
1021 01-09-2006 02:12:02 16.9 C 9.49 g/m*3 16.9 C 0 km/h
1022 01-09-2006 02:22:02 16.8 C 9.58 g/m*3 16.8 C 0 km/h
1023 01-09-2006 02:32:02 16.6 C 9.61 g/m*3 16.6 C 0 km/h
1024 01-09-2006 02:42:02 16.6 C 9.46 g/m*3 16.6 C 0 km/h
1025 01-09-2006 02:53:03 16.6 C 9.32 g/m*3 16.6 C 0 km/h
Sensor: Nr:Datum:Temp:Abs-Feuchte:Windchill:Wind:
Aussen-T/F 1026 01-09-2006 03:03:03 16.6 C 9.46 g/m*3 16.6 C 0 km/h
1027 01-09-2006 03:13:04 16.5 C 9.41 g/m*3 16.5 C 0 km/h
1028 01-09-2006 03:23:04 16.4 C 9.35 g/m*3 16.4 C 0 km/h
1029 01-09-2006 03:33:02 16.4 C 9.49 g/m*3 16.4 C 0 km/h
1030 01-09-2006 03:43:02 16.4 C 9.49 g/m*3 16.4 C 0 km/h
1031 01-09-2006 03:53:02 16.4 C 9.49 g/m*3 16.4 C 0 km/h
1032 01-09-2006 04:03:02 16.3 C 9.43 g/m*3 16.3 C 0 km/h
1033 01-09-2006 04:13:02 16.2 C 9.52 g/m*3 16.2 C 0 km/h
1034 01-09-2006 04:23:02 16.2 C 9.52 g/m*3 16.2 C 0 km/h
1035 01-09-2006 04:33:01 16.2 C 9.52 g/m*3 16.2 C 0 km/h
1036 01-09-2006 04:43:01 16.2 C 9.52 g/m*3 16.2 C 0 km/h
1037 01-09-2006 04:53:02 16.1 C 9.6 g/m*3 16.1 C 0 km/h
1038 01-09-2006 05:03:02 16 C 9.54 g/m*3 16 C 0 km/h
1039 01-09-2006 05:13:02 16 C 9.54 g/m*3 16 C 0 km/h
1040 01-09-2006 05:23:02 16 C 9.54 g/m*3 16 C 0 km/h
1041 01-09-2006 05:33:03 15.9 C 9.62 g/m*3 15.9 C 0 km/h
1042 01-09-2006 05:43:03 15.9 C 9.62 g/m*3 15.9 C 0 km/h
1043 01-09-2006 05:53:02 15.8 C 9.69 g/m*3 15.8 C 0 km/h
1044 01-09-2006 06:03:02 15.8 C 9.69 g/m*3 15.8 C 0 km/h
1045 01-09-2006 06:13:02 15.8 C 9.69 g/m*3 15.8 C 0 km/h
1046 01-09-2006 06:23:01 15.8 C 9.56 g/m*3 15.8 C 0 km/h
1047 01-09-2006 06:33:01 15.7 C 9.63 g/m*3 15.7 C 0 km/h
1048 01-09-2006 06:43:01 15.6 C 9.58 g/m*3 15.6 C 0 km/h
1049 01-09-2006 06:53:02 15.6 C 9.71 g/m*3 15.6 C 0 km/h
1050 01-09-2006 07:03:01 15.6 C 9.58 g/m*3 15.6 C 0 km/h
Sensor: Nr:Datum:Temp:Abs-Feuchte:Windchill:Wind:
Aussen-T/F 1051 01-09-2006 07:13:01 15.8 C 9.69 g/m*3 15.8 C 0 km/h
1052 01-09-2006 07:23:01 15.8 C 9.69 g/m*3 15.8 C 0 km/h
1053 01-09-2006 07:33:02 15.6 C 9.71 g/m*3 15.6 C 0 km/h
1054 01-09-2006 07:43:02 15.8 C 9.69 g/m*3 15.8 C 0 km/h
1055 01-09-2006 07:53:01 15.8 C 9.69 g/m*3 15.8 C 0 km/h
1056 01-09-2006 08:03:02 15.8 C 9.69 g/m*3 15.8 C 0 km/h
1057 01-09-2006 08:13:02 15.7 C 9.63 g/m*3 15.7 C 0 km/h
1058 01-09-2006 08:23:02 15.8 C 9.83 g/m*3 15.8 C 0 km/h
1059 01-09-2006 08:33:02 16 C 9.81 g/m*3 16 C 0 km/h
1060 01-09-2006 08:43:02 16.1 C 9.73 g/m*3 16.1 C 0 km/h
1061 01-09-2006 08:53:02 16.6 C 9.46 g/m*3 16.6 C 0 km/h
1062 01-09-2006 09:03:02 16.9 C 9.35 g/m*3 16.9 C 0 km/h
1063 01-09-2006 09:13:03 17.2 C 9.23 g/m*3 17.2 C 0 km/h
1064 01-09-2006 09:23:02 17.2 C 9.37 g/m*3 17.2 C 0 km/h
1065 01-09-2006 09:33:02 17.2 C 9.23 g/m*3 17.2 C 0 km/h
1066 01-09-2006 09:43:02 17.5 C 9.54 g/m*3 17.5 C 0 km/h
1067 01-09-2006 09:53:02 18 C 9.37 g/m*3 18 C 0 km/h
1068 01-09-2006 10:03:02 18.1 C 9.27 g/m*3 18.1 C 0 km/h
1069 01-09-2006 10:13:02 18.4 C 9.12 g/m*3 18.4 C 0 km/h
1070 01-09-2006 10:23:02 18.7 C 9.13 g/m*3 18.7 C 0 km/h
1071 01-09-2006 10:33:02 19 C 8.96 g/m*3 19 C 0 km/h
1072 01-09-2006 10:43:02 19.3 C 9.12 g/m*3 19.3 C 0 km/h
1073 01-09-2006 10:53:01 19.6 C 8.95 g/m*3 19.6 C 0 km/h
1074 01-09-2006 11:03:01 19.7 C 8.49 g/m*3 19.7 C 0 km/h
1075 01-09-2006 11:13:01 20 C 8.81 g/m*3 20 C 0 km/h
Sensor: Nr:Datum:Temp:Abs-Feuchte:Windchill:Wind:
Aussen-T/F 1076 01-09-2006 11:23:01 20.8 C 8.87 g/m*3 20.8 C 0 km/h
1077 01-09-2006 11:33:02 21.2 C 8.71 g/m*3 21.2 C 0 km/h
1078 01-09-2006 11:43:02 21.1 C 8.66 g/m*3 21.1 C 0 km/h
1079 01-09-2006 11:53:03 21.5 C 8.86 g/m*3 21.5 C 0 km/h
1080 01-09-2006 12:03:02 21.7 C 8.97 g/m*3 21.7 C 0 km/h
1081 01-09-2006 12:13:02 22.1 C 8.98 g/m*3 22.1 C 0 km/h
1082 01-09-2006 12:23:02 22.2 C 9.03 g/m*3 22.2 C 0 km/h
1083 01-09-2006 12:33:02 22.1 C 9.17 g/m*3 22.1 C 0 km/h
1084 01-09-2006 12:43:02 22.3 C 8.89 g/m*3 22.3 C 0 km/h
1085 01-09-2006 12:53:02 22.7 C 8.89 g/m*3 22.7 C 0 km/h
1086 01-09-2006 13:03:01 23.2 C 8.73 g/m*3 23.2 C 0 km/h
1087 01-09-2006 13:13:01 23.5 C 8.88 g/m*3 23.5 C 0 km/h
1088 01-09-2006 13:23:01 23.4 C 8.62 g/m*3 23.4 C 0 km/h
1089 01-09-2006 13:33:01 23.1 C 8.48 g/m*3 23.1 C 0 km/h
1090 01-09-2006 13:43:01 23.5 C 8.67 g/m*3 23.5 C 0 km/h
1091 01-09-2006 13:53:02 23.7 C 8.34 g/m*3 23.7 C 0 km/h
1092 01-09-2006 14:03:01 24.1 C 8.31 g/m*3 24.1 C 0 km/h
1093 01-09-2006 14:13:01 24.5 C 8.5 g/m*3 24.5 C 0 km/h
1094 01-09-2006 14:23:01 24.9 C 8.47 g/m*3 24.9 C 0 km/h
1095 01-09-2006 14:33:02 24.9 C 8.47 g/m*3 24.9 C 0 km/h
1096 01-09-2006 14:43:02 25.4 C 8.48 g/m*3 25.4 C 0 km/h
1097 01-09-2006 14:53:02 26.1 C 8.57 g/m*3 26.1 C 0 km/h
1098 01-09-2006 15:03:02 25.9 C 8.23 g/m*3 25.9 C 0 km/h
1099 01-09-2006 15:13:02 26.2 C 8.12 g/m*3 26.2 C 0 km/h
1100 01-09-2006 15:23:02 26.1 C 8.08 g/m*3 26.1 C 0 km/h
Sensor: Nr:Datum:Temp:Abs-Feuchte:Windchill:Wind:
Aussen-T/F 1101 01-09-2006 15:33:03 27.2 C 8.33 g/m*3 27.2 C 0 km/h
1102 01-09-2006 15:43:03 27.2 C 7.81 g/m*3 27.2 C 0 km/h
1103 01-09-2006 15:53:02 27.3 C 7.85 g/m*3 27.3 C 0 km/h
1104 01-09-2006 16:03:02 26.9 C 7.93 g/m*3 26.9 C 0 km/h
1105 01-09-2006 16:13:02 26.7 C 8.35 g/m*3 26.7 C 0 km/h
1106 01-09-2006 16:23:02 26.9 C 8.7 g/m*3 26.9 C 0 km/h
1107 01-09-2006 16:33:03 27.2 C 7.81 g/m*3 27.2 C 0 km/h
1108 01-09-2006 16:43:03 27 C 7.98 g/m*3 27 C 0 km/h
1109 01-09-2006 16:53:02 27.2 C 8.07 g/m*3 27.2 C 0 km/h
1110 01-09-2006 17:03:02 27 C 8.49 g/m*3 27 C 0 km/h
1111 01-09-2006 17:13:02 26.4 C 8.96 g/m*3 26.4 C 0 km/h
1112 01-09-2006 17:23:01 26.4 C 9.46 g/m*3 26.4 C 0 km/h
1113 01-09-2006 17:33:02 26.4 C 9.71 g/m*3 26.4 C 0 km/h
1114 01-09-2006 17:43:02 26.1 C 10.28 g/m*3 26.1 C 0 km/h
1115 01-09-2006 17:53:02 25.6 C 10.71 g/m*3 25.6 C 0 km/h
1116 01-09-2006 18:03:02 25.2 C 10.48 g/m*3 25.2 C 0 km/h
1117 01-09-2006 18:13:02 24.7 C 10.64 g/m*3 24.7 C 0 km/h
1118 01-09-2006 18:23:01 24.4 C 10.68 g/m*3 24.4 C 0 km/h
1119 01-09-2006 18:33:01 24.2 C 10.78 g/m*3 24.2 C 0 km/h
1120 01-09-2006 18:43:01 24.1 C 10.28 g/m*3 24.1 C 0 km/h
1121 01-09-2006 18:53:02 23.9 C 10.82 g/m*3 23.9 C 0 km/h
1122 01-09-2006 19:03:02 23.5 C 10.79 g/m*3 23.5 C 0 km/h
1123 01-09-2006 19:13:02 23.1 C 10.75 g/m*3 23.1 C 0 km/h
1124 01-09-2006 19:23:03 22.7 C 10.71 g/m*3 22.7 C 0 km/h
1125 01-09-2006 19:33:02 22.5 C 10.79 g/m*3 22.5 C 0 km/h
Sensor: Nr:Datum:Temp:Abs-Feuchte:Windchill:Wind:
Aussen-T/F 1126 01-09-2006 19:43:02 22.2 C 10.8 g/m*3 22.2 C 0 km/h
1127 01-09-2006 19:53:02 21.9 C 10.81 g/m*3 21.9 C 0 km/h
1128 01-09-2006 20:03:04 21.7 C 11.06 g/m*3 21.7 C 0 km/h
1129 01-09-2006 20:13:05 21.6 C 11.19 g/m*3 21.6 C 0 km/h
1130 01-09-2006 20:23:02 21.6 C 11.19 g/m*3 21.6 C 0 km/h
1131 01-09-2006 20:33:02 21.1 C 11.24 g/m*3 21.1 C 0 km/h
1132 01-09-2006 20:43:02 21 C 11.17 g/m*3 21 C 0 km/h
1133 01-09-2006 20:53:02 20.7 C 11.16 g/m*3 20.7 C 0 km/h
1134 01-09-2006 21:03:03 20.6 C 11.1 g/m*3 20.6 C 0 km/h
1135 01-09-2006 21:13:03 20.5 C 11.03 g/m*3 20.5 C 0 km/h
1136 01-09-2006 21:23:02 20.3 C 11.08 g/m*3 20.3 C 0 km/h
1137 01-09-2006 21:33:02 20.2 C 11.02 g/m*3 20.2 C 0 km/h
1138 01-09-2006 21:43:02 20.1 C 10.95 g/m*3 20.1 C 0 km/h
1139 01-09-2006 21:53:02 20.1 C 10.95 g/m*3 20.1 C 0 km/h
1140 01-09-2006 22:03:02 20.1 C 10.95 g/m*3 20.1 C 0 km/h
1141 01-09-2006 22:13:02 20 C 10.71 g/m*3 20 C 0 km/h
1142 01-09-2006 22:23:02 20 C 10.89 g/m*3 20 C 0 km/h
1143 01-09-2006 22:33:02 19.9 C 10.82 g/m*3 19.9 C 0 km/h
1144 01-09-2006 22:43:02 19.7 C 10.87 g/m*3 19.7 C 0 km/h
1145 01-09-2006 22:53:03 19.6 C 10.8 g/m*3 19.6 C 0 km/h
1146 01-09-2006 23:03:03 19.5 C 10.91 g/m*3 19.5 C 0 km/h
1147 01-09-2006 23:13:03 19.4 C 11.01 g/m*3 19.4 C 0 km/h
1148 01-09-2006 23:23:02 19.4 C 11.18 g/m*3 19.4 C 0 km/h
1149 01-09-2006 23:33:02 19.4 C 11.18 g/m*3 19.4 C 0 km/h
1150 01-09-2006 23:43:02 19.2 C 11.05 g/m*3 19.2 C 0 km/h
Sensor: Nr:Datum:Temp:Abs-Feuchte:Windchill:Wind:
Aussen-T/F 1151 01-09-2006 23:53:02 19.2 C 10.88 g/m*3 19.2 C 0 km/h
1152 02-09-2006 00:03:01 19.1 C 10.82 g/m*3 19.1 C 0 km/h
1153 02-09-2006 00:13:01 18.9 C 11.02 g/m*3 18.9 C 0 km/h
1154 02-09-2006 00:23:03 18.7 C 11.05 g/m*3 18.7 C 0 km/h
1155 02-09-2006 00:33:02 18.7 C 11.05 g/m*3 18.7 C 0 km/h
1156 02-09-2006 00:43:02 18.6 C 10.98 g/m*3 18.6 C 0 km/h
1157 02-09-2006 00:53:02 18.7 C 11.21 g/m*3 18.7 C 0 km/h
1158 02-09-2006 01:03:02 18.7 C 11.21 g/m*3 18.7 C 0 km/h
1159 02-09-2006 01:13:02 18.6 C 11.3 g/m*3 18.6 C 0 km/h
1160 02-09-2006 01:23:02 18.4 C 11.17 g/m*3 18.4 C 0 km/h
1161 02-09-2006 01:33:03 18.3 C 11.26 g/m*3 18.3 C 0 km/h
1162 02-09-2006 01:43:03 18.2 C 11.04 g/m*3 18.2 C 0 km/h
1163 02-09-2006 01:53:03 18 C 11.06 g/m*3 18 C 0 km/h
1164 02-09-2006 02:03:02 18 C 11.21 g/m*3 18 C 0 km/h
1165 02-09-2006 02:13:02 17.9 C 10.99 g/m*3 17.9 C 0 km/h
1166 02-09-2006 02:23:03 17.9 C 11.15 g/m*3 17.9 C 0 km/h
1167 02-09-2006 02:33:03 17.8 C 11.23 g/m*3 17.8 C 0 km/h
1168 02-09-2006 02:43:03 17.7 C 11.16 g/m*3 17.7 C 0 km/h
1169 02-09-2006 02:54:04 17.7 C 11.16 g/m*3 17.7 C 0 km/h
1170 02-09-2006 03:04:04 17.6 C 11.1 g/m*3 17.6 C 0 km/h
1171 02-09-2006 03:14:04 17.8 C 11.23 g/m*3 17.8 C 0 km/h
1172 02-09-2006 03:24:04 17.5 C 11.03 g/m*3 17.5 C 0 km/h
1173 02-09-2006 03:34:03 17.3 C 11.2 g/m*3 17.3 C 0 km/h
1174 02-09-2006 03:44:03 17.2 C 11.28 g/m*3 17.2 C 0 km/h
1175 02-09-2006 03:54:03 17 C 11.14 g/m*3 17 C 0 km/h
Sensor: Nr:Datum:Temp:Abs-Feuchte:Windchill:Wind:
Aussen-T/F 1176 02-09-2006 04:04:03 16.9 C 11.36 g/m*3 16.9 C 0 km/h
1177 02-09-2006 04:14:03 16.9 C 11.51 g/m*3 16.9 C 0 km/h
1178 02-09-2006 04:24:02 16.8 C 11.44 g/m*3 16.8 C 0 km/h
1179 02-09-2006 04:34:02 16.8 C 11.44 g/m*3 16.8 C 0 km/h
1180 02-09-2006 04:44:02 16.9 C 11.51 g/m*3 16.9 C 0 km/h
1181 02-09-2006 04:54:03 16.8 C 11.44 g/m*3 16.8 C 0 km/h
1182 02-09-2006 05:04:03 16.8 C 11.44 g/m*3 16.8 C 0 km/h
1183 02-09-2006 05:14:03 16.8 C 11.44 g/m*3 16.8 C 0 km/h
1184 02-09-2006 05:24:02 16.8 C 11.44 g/m*3 16.8 C 0 km/h
1185 02-09-2006 05:34:02 16.8 C 11.44 g/m*3 16.8 C 0 km/h
1186 02-09-2006 05:44:02 16.7 C 11.51 g/m*3 16.7 C 0 km/h
1187 02-09-2006 05:54:02 16.6 C 11.44 g/m*3 16.6 C 0 km/h
1188 02-09-2006 06:04:02 16.5 C 11.37 g/m*3 16.5 C 0 km/h
1189 02-09-2006 06:14:02 16.2 C 11.17 g/m*3 16.2 C 0 km/h
1190 02-09-2006 06:24:02 16.2 C 11.17 g/m*3 16.2 C 0 km/h
1191 02-09-2006 06:34:02 16.3 C 11.38 g/m*3 16.3 C 0 km/h
1192 02-09-2006 06:44:02 16.2 C 11.31 g/m*3 16.2 C 0 km/h
1193 02-09-2006 06:54:02 16 C 11.17 g/m*3 16 C 0 km/h
1194 02-09-2006 07:04:02 15.9 C 11.24 g/m*3 15.9 C 0 km/h
1195 02-09-2006 07:14:02 15.9 C 11.38 g/m*3 15.9 C 0 km/h
1196 02-09-2006 07:24:03 15.8 C 11.31 g/m*3 15.8 C 0 km/h
1197 02-09-2006 07:34:02 15.9 C 11.38 g/m*3 15.9 C 0 km/h
1198 02-09-2006 07:44:02 16.1 C 11.38 g/m*3 16.1 C 0 km/h
1199 02-09-2006 07:54:02 16.4 C 11.72 g/m*3 16.4 C 0 km/h
1200 02-09-2006 08:04:02 16.6 C 11.72 g/m*3 16.6 C 0 km/h
Sensor: Nr:Datum:Temp:Abs-Feuchte:Windchill:Wind:
Aussen-T/F 1201 02-09-2006 08:14:02 16.8 C 11.87 g/m*3 16.8 C 0 km/h
1202 02-09-2006 08:24:02 16.9 C 11.65 g/m*3 16.9 C 0 km/h
1203 02-09-2006 08:34:02 17 C 11.72 g/m*3 17 C 0 km/h
1204 02-09-2006 08:44:02 17.3 C 11.64 g/m*3 17.3 C 0 km/h
1205 02-09-2006 08:54:02 17.5 C 11.78 g/m*3 17.5 C 0 km/h
1206 02-09-2006 09:04:01 18 C 11.52 g/m*3 18 C 0 km/h
1207 02-09-2006 09:14:01 18.3 C 11.41 g/m*3 18.3 C 0 km/h
1208 02-09-2006 09:24:01 18.5 C 11.39 g/m*3 18.5 C 0 km/h
1209 02-09-2006 09:34:02 19.1 C 11.47 g/m*3 19.1 C 0 km/h
1210 02-09-2006 09:44:02 19.3 C 11.44 g/m*3 19.3 C 0 km/h
1211 02-09-2006 09:54:02 19.7 C 11.89 g/m*3 19.7 C 0 km/h
1212 02-09-2006 10:04:02 20.2 C 11.71 g/m*3 20.2 C 0 km/h
1213 02-09-2006 10:14:02 20.4 C 10.97 g/m*3 20.4 C 0 km/h
1214 02-09-2006 10:24:01 20.8 C 10.68 g/m*3 20.8 C 0 km/h
1215 02-09-2006 10:34:02 21.5 C 10.94 g/m*3 21.5 C 0 km/h
1216 02-09-2006 10:44:02 21.5 C 10.56 g/m*3 21.5 C 0 km/h
1217 02-09-2006 10:54:01 21.5 C 10.75 g/m*3 21.5 C 0 km/h
1218 02-09-2006 11:04:02 21.6 C 10.62 g/m*3 21.6 C 0 km/h
1219 02-09-2006 11:14:02 22.4 C 10.72 g/m*3 22.4 C 0 km/h
1220 02-09-2006 11:24:01 22.7 C 10.51 g/m*3 22.7 C 0 km/h
1221 02-09-2006 11:34:02 22.9 C 10.42 g/m*3 22.9 C 0 km/h
1222 02-09-2006 11:44:02 23.4 C 10.09 g/m*3 23.4 C 0 km/h
1223 02-09-2006 11:54:01 23.5 C 10.36 g/m*3 23.5 C 0 km/h
1224 02-09-2006 12:04:02 23.6 C 10.63 g/m*3 23.6 C 0 km/h
1225 02-09-2006 12:14:02 24 C 10.44 g/m*3 24 C 0 km/h
Sensor: Nr:Datum:Temp:Abs-Feuchte:Windchill:Wind:
Aussen-T/F 1226 02-09-2006 12:24:02 24.2 C 10.56 g/m*3 24.2 C 0 km/h
1227 02-09-2006 12:34:01 24.3 C 10.62 g/m*3 24.3 C 0 km/h
1228 02-09-2006 12:44:02 24 C 10.23 g/m*3 24 C 0 km/h
1229 02-09-2006 12:54:02 24 C 10.44 g/m*3 24 C 0 km/h
1230 02-09-2006 13:04:02 23.9 C 10.6 g/m*3 23.9 C 0 km/h
1231 02-09-2006 13:14:02 23.7 C 10.48 g/m*3 23.7 C 0 km/h
1232 02-09-2006 13:24:02 23.7 C 10.48 g/m*3 23.7 C 0 km/h
1233 02-09-2006 13:34:02 23.7 C 10.27 g/m*3 23.7 C 0 km/h
1234 02-09-2006 13:44:02 24 C 10.01 g/m*3 24 C 0 km/h
1235 02-09-2006 13:54:02 23.7 C 10.27 g/m*3 23.7 C 0 km/h
1236 02-09-2006 14:04:02 24.5 C 10.52 g/m*3 24.5 C 0 km/h
1237 02-09-2006 14:14:02 25.1 C 9.95 g/m*3 25.1 C 0 km/h
1238 02-09-2006 14:24:02 25.2 C 10.01 g/m*3 25.2 C 0 km/h
1239 02-09-2006 14:34:02 25.2 C 10.01 g/m*3 25.2 C 0 km/h
1240 02-09-2006 14:44:02 25.6 C 10.24 g/m*3 25.6 C 0 km/h
1241 02-09-2006 14:54:03 25.9 C 9.93 g/m*3 25.9 C 0 km/h
1242 02-09-2006 15:04:03 26.3 C 9.41 g/m*3 26.3 C 0 km/h
1243 02-09-2006 15:14:03 26.5 C 10.01 g/m*3 26.5 C 0 km/h
1244 02-09-2006 15:24:03 26.8 C 9.67 g/m*3 26.8 C 0 km/h
1245 02-09-2006 15:34:04 26.3 C 9.65 g/m*3 26.3 C 0 km/h
1246 02-09-2006 15:44:04 26.3 C 9.9 g/m*3 26.3 C 0 km/h
1247 02-09-2006 15:54:02 26.2 C 10.09 g/m*3 26.2 C 0 km/h
1248 02-09-2006 16:04:03 25.7 C 9.82 g/m*3 25.7 C 0 km/h
1249 02-09-2006 16:14:03 25.9 C 9.68 g/m*3 25.9 C 0 km/h
1250 02-09-2006 16:24:03 25.6 C 10 g/m*3 25.6 C 0 km/h
Sensor: Nr:Datum:Temp:Abs-Feuchte:Windchill:Wind:
Aussen-T/F 1251 02-09-2006 16:34:04 25.2 C 10.01 g/m*3 25.2 C 0 km/h
1252 02-09-2006 16:44:04 24.7 C 9.96 g/m*3 24.7 C 0 km/h
1253 02-09-2006 16:54:02 24.8 C 10.24 g/m*3 24.8 C 0 km/h
1254 02-09-2006 17:04:03 24.9 C 10.53 g/m*3 24.9 C 0 km/h
1255 02-09-2006 17:14:03 24.5 C 10.3 g/m*3 24.5 C 0 km/h
1256 02-09-2006 17:24:03 24.4 C 10.24 g/m*3 24.4 C 0 km/h
1257 02-09-2006 17:34:03 24.3 C 10.18 g/m*3 24.3 C 0 km/h
1258 02-09-2006 17:44:03 24.2 C 10.34 g/m*3 24.2 C 0 km/h
1259 02-09-2006 17:54:04 24.1 C 10.28 g/m*3 24.1 C 0 km/h
1260 02-09-2006 18:04:03 24 C 10.44 g/m*3 24 C 0 km/h
1261 02-09-2006 18:14:03 23.8 C 10.54 g/m*3 23.8 C 0 km/h
1262 02-09-2006 18:24:04 23.8 C 10.54 g/m*3 23.8 C 0 km/h
1263 02-09-2006 18:34:03 23.7 C 10.91 g/m*3 23.7 C 0 km/h
1264 02-09-2006 18:44:03 23.7 C 10.91 g/m*3 23.7 C 0 km/h
1265 02-09-2006 18:54:02 23.4 C 9.88 g/m*3 23.4 C 0 km/h
1266 02-09-2006 19:04:04 23.3 C 9.83 g/m*3 23.3 C 0 km/h
1267 02-09-2006 19:14:04 23.2 C 9.77 g/m*3 23.2 C 0 km/h
1268 02-09-2006 19:24:02 22.7 C 9.9 g/m*3 22.7 C 0 km/h
1269 02-09-2006 19:34:04 22.7 C 10.1 g/m*3 22.7 C 0 km/h
1270 02-09-2006 19:44:04 22.4 C 10.13 g/m*3 22.4 C 0 km/h
1271 02-09-2006 19:54:02 22.3 C 9.87 g/m*3 22.3 C 0 km/h
1272 02-09-2006 20:04:02 22.3 C 9.87 g/m*3 22.3 C 0 km/h
1273 02-09-2006 20:14:02 22.3 C 9.87 g/m*3 22.3 C 0 km/h
1274 02-09-2006 20:24:02 21.7 C 10.3 g/m*3 21.7 C 0 km/h
1275 02-09-2006 20:34:03 21.4 C 10.12 g/m*3 21.4 C 0 km/h
Sensor: Nr:Datum:Temp:Abs-Feuchte:Windchill:Wind:
Aussen-T/F 1276 02-09-2006 20:44:03 21.4 C 10.12 g/m*3 21.4 C 0 km/h
1277 02-09-2006 20:54:02 21.3 C 10.07 g/m*3 21.3 C 0 km/h
1278 02-09-2006 21:04:02 21.4 C 10.12 g/m*3 21.4 C 0 km/h
1279 02-09-2006 21:14:02 21.3 C 9.88 g/m*3 21.3 C 0 km/h
1280 02-09-2006 21:24:02 21.1 C 9.95 g/m*3 21.1 C 0 km/h
1281 02-09-2006 21:34:02 21.1 C 10.13 g/m*3 21.1 C 0 km/h
1282 02-09-2006 21:44:02 21 C 10.08 g/m*3 21 C 0 km/h
1283 02-09-2006 21:54:02 21.1 C 9.95 g/m*3 21.1 C 0 km/h
1284 02-09-2006 22:04:02 21.1 C 9.95 g/m*3 21.1 C 0 km/h
1285 02-09-2006 22:14:02 21 C 9.89 g/m*3 21 C 0 km/h
1286 02-09-2006 22:24:02 21 C 10.08 g/m*3 21 C 0 km/h
1287 02-09-2006 22:34:03 21 C 10.08 g/m*3 21 C 0 km/h
1288 02-09-2006 22:44:03 21 C 10.08 g/m*3 21 C 0 km/h
1289 02-09-2006 22:54:03 21 C 10.08 g/m*3 21 C 0 km/h
1290 02-09-2006 23:04:02 20.9 C 10.2 g/m*3 20.9 C 0 km/h
1291 02-09-2006 23:14:02 20.7 C 10.26 g/m*3 20.7 C 0 km/h
1292 02-09-2006 23:24:02 20.6 C 10.2 g/m*3 20.6 C 0 km/h
1293 02-09-2006 23:34:03 20.6 C 10.38 g/m*3 20.6 C 0 km/h
1294 02-09-2006 23:44:03 20.5 C 10.32 g/m*3 20.5 C 0 km/h
1295 02-09-2006 23:54:02 20.5 C 10.32 g/m*3 20.5 C 0 km/h
1296 03-09-2006 00:04:02 20.6 C 10.38 g/m*3 20.6 C 0 km/h
1297 03-09-2006 00:14:02 20.6 C 10.2 g/m*3 20.6 C 0 km/h
1298 03-09-2006 00:24:02 20.6 C 10.2 g/m*3 20.6 C 0 km/h
1299 03-09-2006 00:34:03 20.8 C 10.14 g/m*3 20.8 C 0 km/h
1300 03-09-2006 00:44:03 20.8 C 10.14 g/m*3 20.8 C 0 km/h
Sensor: Nr:Datum:Temp:Abs-Feuchte:Windchill:Wind:
Aussen-T/F 1301 03-09-2006 00:54:03 20.8 C 9.96 g/m*3 20.8 C 0 km/h
1302 03-09-2006 01:04:03 20.8 C 9.96 g/m*3 20.8 C 0 km/h
1303 03-09-2006 01:14:03 20.7 C 9.9 g/m*3 20.7 C 0 km/h
1304 03-09-2006 01:24:03 20.6 C 9.84 g/m*3 20.6 C 0 km/h
1305 03-09-2006 01:34:03 20.5 C 9.96 g/m*3 20.5 C 0 km/h
1306 03-09-2006 01:44:03 20.4 C 10.08 g/m*3 20.4 C 0 km/h
1307 03-09-2006 01:54:03 20.4 C 10.08 g/m*3 20.4 C 0 km/h
1308 03-09-2006 02:04:03 20.4 C 10.08 g/m*3 20.4 C 0 km/h
1309 03-09-2006 02:14:03 20.4 C 10.08 g/m*3 20.4 C 0 km/h
1310 03-09-2006 02:24:03 20.4 C 10.08 g/m*3 20.4 C 0 km/h
1311 03-09-2006 02:34:03 20.4 C 10.26 g/m*3 20.4 C 0 km/h
1312 03-09-2006 02:44:03 20.4 C 10.26 g/m*3 20.4 C 0 km/h
1313 03-09-2006 02:55:04 20.4 C 10.44 g/m*3 20.4 C 0 km/h
1314 03-09-2006 03:05:04 20.3 C 10.2 g/m*3 20.3 C 0 km/h
1315 03-09-2006 03:15:04 20.2 C 10.32 g/m*3 20.2 C 0 km/h
1316 03-09-2006 03:25:04 20.1 C 10.26 g/m*3 20.1 C 0 km/h
1317 03-09-2006 03:35:02 20 C 10.2 g/m*3 20 C 0 km/h
1318 03-09-2006 03:45:02 20.1 C 10.26 g/m*3 20.1 C 0 km/h
1319 03-09-2006 03:55:02 20.1 C 10.26 g/m*3 20.1 C 0 km/h
1320 03-09-2006 04:05:02 20 C 10.2 g/m*3 20 C 0 km/h
1321 03-09-2006 04:15:02 19.9 C 10.48 g/m*3 19.9 C 0 km/h
1322 03-09-2006 04:25:02 19.8 C 10.42 g/m*3 19.8 C 0 km/h
1323 03-09-2006 04:35:02 19.8 C 10.59 g/m*3 19.8 C 0 km/h
1324 03-09-2006 04:45:03 19.8 C 10.59 g/m*3 19.8 C 0 km/h
1325 03-09-2006 04:55:04 19.7 C 10.53 g/m*3 19.7 C 0 km/h
Sensor: Nr:Datum:Temp:Abs-Feuchte:Windchill:Wind:
Aussen-T/F 1326 03-09-2006 05:05:02 19.6 C 10.47 g/m*3 19.6 C 0 km/h
1327 03-09-2006 05:15:03 19.6 C 10.47 g/m*3 19.6 C 0 km/h
1328 03-09-2006 05:25:03 19.6 C 10.47 g/m*3 19.6 C 0 km/h
1329 03-09-2006 05:35:03 19.5 C 10.41 g/m*3 19.5 C 0 km/h
1330 03-09-2006 05:45:01 19.3 C 10.45 g/m*3 19.3 C 0 km/h
1331 03-09-2006 05:55:01 19.2 C 10.39 g/m*3 19.2 C 0 km/h
1332 03-09-2006 06:05:02 19.2 C 10.55 g/m*3 19.2 C 0 km/h
1333 03-09-2006 06:15:02 19.2 C 10.55 g/m*3 19.2 C 0 km/h
1334 03-09-2006 06:25:02 19.1 C 10.49 g/m*3 19.1 C 0 km/h
1335 03-09-2006 06:35:02 19 C 10.43 g/m*3 19 C 0 km/h
1336 03-09-2006 06:45:02 19.1 C 10.49 g/m*3 19.1 C 0 km/h
1337 03-09-2006 06:55:02 19.1 C 10.49 g/m*3 19.1 C 0 km/h
1338 03-09-2006 07:05:02 19.1 C 10.49 g/m*3 19.1 C 0 km/h
1339 03-09-2006 07:15:02 19.3 C 10.62 g/m*3 19.3 C 0 km/h
1340 03-09-2006 07:25:02 19.3 C 10.62 g/m*3 19.3 C 0 km/h
1341 03-09-2006 07:35:02 19.5 C 10.74 g/m*3 19.5 C 0 km/h
1342 03-09-2006 07:45:02 19.7 C 10.7 g/m*3 19.7 C 0 km/h
1343 03-09-2006 07:55:02 19.7 C 10.87 g/m*3 19.7 C 0 km/h
1344 03-09-2006 08:05:02 19.9 C 11 g/m*3 19.9 C 0 km/h
1345 03-09-2006 08:15:02 20 C 10.89 g/m*3 20 C 0 km/h
1346 03-09-2006 08:25:02 20.1 C 10.95 g/m*3 20.1 C 0 km/h
1347 03-09-2006 08:35:02 20.1 C 10.95 g/m*3 20.1 C 0 km/h
1348 03-09-2006 08:45:02 20.2 C 11.02 g/m*3 20.2 C 0 km/h
1349 03-09-2006 08:55:02 20.4 C 11.14 g/m*3 20.4 C 0 km/h
1350 03-09-2006 09:05:02 20.4 C 11.14 g/m*3 20.4 C 0 km/h
Sensor: Nr:Datum:Temp:Abs-Feuchte:Windchill:Wind:
Aussen-T/F 1351 03-09-2006 09:15:02 20.5 C 11.21 g/m*3 20.5 C 0 km/h
1352 03-09-2006 09:25:02 20.8 C 11.41 g/m*3 20.8 C 0 km/h
1353 03-09-2006 09:35:02 20.8 C 11.41 g/m*3 20.8 C 0 km/h
1354 03-09-2006 09:45:02 20.7 C 11.34 g/m*3 20.7 C 0 km/h
1355 03-09-2006 09:55:02 20.6 C 11.28 g/m*3 20.6 C 0 km/h
1356 03-09-2006 10:05:02 20.6 C 11.45 g/m*3 20.6 C 0 km/h
1357 03-09-2006 10:15:02 20.6 C 11.45 g/m*3 20.6 C 0 km/h
1358 03-09-2006 10:25:02 20.9 C 11.66 g/m*3 20.9 C 0 km/h
1359 03-09-2006 10:35:03 21.1 C 11.42 g/m*3 21.1 C 0 km/h
1360 03-09-2006 10:45:01 21.3 C 11.56 g/m*3 21.3 C 0 km/h
1361 03-09-2006 10:55:01 21.2 C 11.49 g/m*3 21.2 C 0 km/h
1362 03-09-2006 11:05:02 21.2 C 11.68 g/m*3 21.2 C 0 km/h
1363 03-09-2006 11:15:02 21.3 C 11.93 g/m*3 21.3 C 0 km/h
1364 03-09-2006 11:25:02 21.2 C 11.68 g/m*3 21.2 C 0 km/h
1365 03-09-2006 11:35:01 21.2 C 11.86 g/m*3 21.2 C 0 km/h
1366 03-09-2006 11:45:02 21.2 C 12.05 g/m*3 21.2 C 0 km/h
1367 03-09-2006 11:55:02 21.6 C 12.33 g/m*3 21.6 C 0 km/h
1368 03-09-2006 12:05:03 21.6 C 12.14 g/m*3 21.6 C 0 km/h
1369 03-09-2006 12:15:03 21.6 C 12.14 g/m*3 21.6 C 0 km/h
1370 03-09-2006 12:25:03 21.6 C 12.33 g/m*3 21.6 C 0 km/h
1371 03-09-2006 12:35:03 21.7 C 12.4 g/m*3 21.7 C 0 km/h
1372 03-09-2006 12:45:02 22.2 C 12.17 g/m*3 22.2 C 0 km/h
1373 03-09-2006 12:55:02 22 C 12.03 g/m*3 22 C 0 km/h
1374 03-09-2006 13:05:03 22.4 C 12.31 g/m*3 22.4 C 0 km/h
1375 03-09-2006 13:15:02 23 C 12.33 g/m*3 23 C 0 km/h
Sensor: Nr:Datum:Temp:Abs-Feuchte:Windchill:Wind:
Aussen-T/F 1376 03-09-2006 13:25:02 23 C 11.92 g/m*3 23 C 0 km/h
1377 03-09-2006 13:35:02 23.3 C 12.34 g/m*3 23.3 C 0 km/h
1378 03-09-2006 13:45:02 23.5 C 12.27 g/m*3 23.5 C 0 km/h
1379 03-09-2006 13:55:02 23.4 C 12.2 g/m*3 23.4 C 0 km/h
1380 03-09-2006 14:05:03 23.3 C 12.55 g/m*3 23.3 C 0 km/h
1381 03-09-2006 14:15:02 23.7 C 12.83 g/m*3 23.7 C 0 km/h
1382 03-09-2006 14:25:02 23.5 C 12.69 g/m*3 23.5 C 0 km/h
1383 03-09-2006 14:35:02 23.5 C 12.9 g/m*3 23.5 C 0 km/h
1384 03-09-2006 14:45:02 23.9 C 12.76 g/m*3 23.9 C 0 km/h
1385 03-09-2006 14:55:02 23.4 C 12.83 g/m*3 23.4 C 0 km/h
1386 03-09-2006 15:05:02 23.2 C 12.89 g/m*3 23.2 C 0 km/h
1387 03-09-2006 15:15:03 23.3 C 12.96 g/m*3 23.3 C 0 km/h
1388 03-09-2006 15:25:03 23.5 C 13.11 g/m*3 23.5 C 0 km/h
1389 03-09-2006 15:35:02 23.4 C 13.04 g/m*3 23.4 C 0 km/h
1390 03-09-2006 15:45:02 23.5 C 12.9 g/m*3 23.5 C 0 km/h
1391 03-09-2006 15:55:02 23.7 C 13.26 g/m*3 23.7 C 0 km/h
1392 03-09-2006 16:05:03 24.1 C 12.69 g/m*3 24.1 C 0 km/h
1393 03-09-2006 16:15:02 24.5 C 13.2 g/m*3 24.5 C 0 km/h
1394 03-09-2006 16:25:02 24.9 C 13.28 g/m*3 24.9 C 0 km/h
1395 03-09-2006 16:35:02 25.6 C 12.86 g/m*3 25.6 C 0 km/h
1396 03-09-2006 16:45:02 25.6 C 13.09 g/m*3 25.6 C 0 km/h
1397 03-09-2006 16:55:02 25.3 C 12.88 g/m*3 25.3 C 0 km/h
1398 03-09-2006 17:05:02 26.3 C 13.12 g/m*3 26.3 C 0 km/h
1399 03-09-2006 17:15:01 25.2 C 12.8 g/m*3 25.2 C 0 km/h
1400 03-09-2006 17:25:01 25.2 C 13.04 g/m*3 25.2 C 0 km/h
Sensor: Nr:Datum:Temp:Abs-Feuchte:Windchill:Wind:
Aussen-T/F 1401 03-09-2006 17:35:01 25 C 12.89 g/m*3 25 C 0 km/h
1402 03-09-2006 17:45:03 24.6 C 13.28 g/m*3 24.6 C 0 km/h
1403 03-09-2006 17:55:03 24.8 C 13.43 g/m*3 24.8 C 0 km/h
1404 03-09-2006 18:05:03 24.5 C 13.43 g/m*3 24.5 C 0 km/h
1405 03-09-2006 18:15:02 24.1 C 13.57 g/m*3 24.1 C 0 km/h
1406 03-09-2006 18:25:02 24.5 C 13.65 g/m*3 24.5 C 0 km/h
1407 03-09-2006 18:35:03 24.3 C 13.5 g/m*3 24.3 C 0 km/h
1408 03-09-2006 18:45:02 24.4 C 13.58 g/m*3 24.4 C 0 km/h
1409 03-09-2006 18:55:02 24.1 C 13.57 g/m*3 24.1 C 0 km/h
1410 03-09-2006 19:06:54 24.4 C 13.8 g/m*3 24.4 C 0 km/h
1411 03-09-2006 19:16:54 23.8 C 13.98 g/m*3 23.8 C 0 km/h
1412 03-09-2006 19:26:54 23.6 C 14.04 g/m*3 23.6 C 0 km/h
1413 03-09-2006 19:36:54 23.4 C 13.88 g/m*3 23.4 C 0 km/h
1414 03-09-2006 19:46:54 23.4 C 13.88 g/m*3 23.4 C 0 km/h
1415 03-09-2006 19:56:55 23.3 C 14.01 g/m*3 23.3 C 0 km/h
1416 03-09-2006 20:06:55 23.3 C 14.01 g/m*3 23.3 C 0 km/h
1417 03-09-2006 20:16:55 23.3 C 14.01 g/m*3 23.3 C 0 km/h
1418 03-09-2006 20:26:55 23.3 C 14.01 g/m*3 23.3 C 0 km/h
1419 03-09-2006 20:36:55 23.2 C 14.14 g/m*3 23.2 C 0 km/h
1420 03-09-2006 20:46:55 23.1 C 14.06 g/m*3 23.1 C 0 km/h
1421 03-09-2006 20:56:55 23 C 14.39 g/m*3 23 C 0 km/h
1422 03-09-2006 21:06:55 22.9 C 14.51 g/m*3 22.9 C 0 km/h
1423 03-09-2006 21:16:55 22.9 C 14.71 g/m*3 22.9 C 0 km/h
1424 03-09-2006 21:26:55 22.4 C 14.89 g/m*3 22.4 C 0 km/h
1425 03-09-2006 21:36:55 22.1 C 15.23 g/m*3 22.1 C 0 km/h
Sensor: Nr:Datum:Temp:Abs-Feuchte:Windchill:Wind:
Aussen-T/F 1426 03-09-2006 21:46:55 21.8 C 15.54 g/m*3 21.8 C 0 km/h
1427 03-09-2006 21:56:55 21.7 C 15.64 g/m*3 21.7 C 0 km/h
1428 03-09-2006 22:06:55 21.6 C 15.55 g/m*3 21.6 C 0 km/h
1429 03-09-2006 22:16:55 21.6 C 15.55 g/m*3 21.6 C 0 km/h
1430 03-09-2006 22:26:55 21.9 C 15.63 g/m*3 21.9 C 0 km/h
1431 03-09-2006 22:36:55 22 C 15.53 g/m*3 22 C 0 km/h
1432 03-09-2006 22:46:56 21.9 C 15.44 g/m*3 21.9 C 0 km/h
1433 03-09-2006 22:56:56 22 C 15.33 g/m*3 22 C 0 km/h
1434 03-09-2006 23:06:56 21.9 C 15.24 g/m*3 21.9 C 0 km/h
1435 03-09-2006 23:16:56 21.9 C 15.24 g/m*3 21.9 C 0 km/h
1436 03-09-2006 23:26:56 22.1 C 15.23 g/m*3 22.1 C 0 km/h
1437 03-09-2006 23:36:56 22.1 C 15.03 g/m*3 22.1 C 0 km/h
1438 03-09-2006 23:46:56 22.1 C 15.03 g/m*3 22.1 C 0 km/h
1439 03-09-2006 23:56:56 22.1 C 15.03 g/m*3 22.1 C 0 km/h
1440 04-09-2006 00:06:56 22.3 C 15.01 g/m*3 22.3 C 0 km/h
1441 04-09-2006 00:16:56 22.2 C 14.92 g/m*3 22.2 C 0 km/h
1442 04-09-2006 00:26:56 22 C 14.75 g/m*3 22 C 0 km/h
1443 04-09-2006 00:36:56 21.9 C 15.05 g/m*3 21.9 C 0 km/h
1444 04-09-2006 00:46:56 21.8 C 14.97 g/m*3 21.8 C 0 km/h
1445 04-09-2006 00:56:56 21.8 C 14.97 g/m*3 21.8 C 0 km/h
1446 04-09-2006 01:06:56 21.6 C 14.79 g/m*3 21.6 C 0 km/h
1447 04-09-2006 01:16:56 21.4 C 14.81 g/m*3 21.4 C 0 km/h
1448 04-09-2006 01:26:56 21.5 C 14.9 g/m*3 21.5 C 0 km/h
1449 04-09-2006 01:36:57 21.6 C 14.79 g/m*3 21.6 C 0 km/h
1450 04-09-2006 01:46:57 21.6 C 14.6 g/m*3 21.6 C 0 km/h
Sensor: Nr:Datum:Temp:Abs-Feuchte:Windchill:Wind:
Aussen-T/F 1451 04-09-2006 01:56:57 21.5 C 14.71 g/m*3 21.5 C 0 km/h
1452 04-09-2006 02:06:57 21.4 C 14.62 g/m*3 21.4 C 0 km/h
1453 04-09-2006 02:16:57 21.3 C 14.17 g/m*3 21.3 C 0 km/h
1454 04-09-2006 02:26:57 21 C 13.56 g/m*3 21 C 0 km/h
1455 04-09-2006 02:36:57 20.9 C 13.3 g/m*3 20.9 C 0 km/h
1456 04-09-2006 02:46:57 20.8 C 13.22 g/m*3 20.8 C 0 km/h
1457 04-09-2006 02:56:57 20.9 C 12.38 g/m*3 20.9 C 0 km/h
1458 04-09-2006 03:06:57 21.1 C 11.79 g/m*3 21.1 C 0 km/h
1459 04-09-2006 03:16:57 21 C 11.54 g/m*3 21 C 0 km/h
1460 04-09-2006 03:26:57 21 C 11.36 g/m*3 21 C 0 km/h
1461 04-09-2006 03:36:57 20.8 C 11.41 g/m*3 20.8 C 0 km/h
1462 04-09-2006 03:46:57 20.8 C 11.41 g/m*3 20.8 C 0 km/h
1463 04-09-2006 03:56:57 20.6 C 11.1 g/m*3 20.6 C 0 km/h
1464 04-09-2006 04:06:57 20.6 C 10.92 g/m*3 20.6 C 0 km/h
1465 04-09-2006 04:16:57 20.5 C 10.68 g/m*3 20.5 C 0 km/h
1466 04-09-2006 04:26:58 20.4 C 10.26 g/m*3 20.4 C 0 km/h
1467 04-09-2006 04:36:58 20.4 C 10.26 g/m*3 20.4 C 0 km/h
1468 04-09-2006 04:46:58 20.2 C 10.14 g/m*3 20.2 C 0 km/h
1469 04-09-2006 04:56:58 20 C 10.2 g/m*3 20 C 0 km/h
1470 04-09-2006 05:06:58 20 C 10.2 g/m*3 20 C 0 km/h
1471 04-09-2006 05:16:58 19.9 C 10.48 g/m*3 19.9 C 0 km/h
1472 04-09-2006 05:26:58 19.7 C 10.36 g/m*3 19.7 C 0 km/h
1473 04-09-2006 05:36:58 19.5 C 10.57 g/m*3 19.5 C 0 km/h
1474 04-09-2006 05:46:58 19.3 C 10.45 g/m*3 19.3 C 0 km/h
1475 04-09-2006 05:56:58 19.2 C 10.39 g/m*3 19.2 C 0 km/h
Sensor: Nr:Datum:Temp:Abs-Feuchte:Windchill:Wind:
Aussen-T/F 1476 04-09-2006 06:06:58 19.1 C 10.33 g/m*3 19.1 C 0 km/h
1477 04-09-2006 06:16:58 19 C 10.43 g/m*3 19 C 0 km/h
1478 04-09-2006 06:26:58 18.8 C 10.63 g/m*3 18.8 C 0 km/h
1479 04-09-2006 06:36:58 18.5 C 10.76 g/m*3 18.5 C 0 km/h
1480 04-09-2006 06:46:58 18.5 C 10.92 g/m*3 18.5 C 0 km/h
1481 04-09-2006 06:56:58 18.5 C 10.92 g/m*3 18.5 C 0 km/h
1482 04-09-2006 07:06:58 18.5 C 10.92 g/m*3 18.5 C 0 km/h
1483 04-09-2006 07:16:59 18.5 C 11.08 g/m*3 18.5 C 0 km/h
1484 04-09-2006 07:26:59 18.5 C 10.92 g/m*3 18.5 C 0 km/h
1485 04-09-2006 07:36:59 18.6 C 10.66 g/m*3 18.6 C 0 km/h
1486 04-09-2006 07:46:59 18.9 C 10.69 g/m*3 18.9 C 0 km/h
1487 04-09-2006 07:56:59 19.1 C 10.49 g/m*3 19.1 C 0 km/h
1488 04-09-2006 08:06:59 19.2 C 10.72 g/m*3 19.2 C 0 km/h
1489 04-09-2006 08:16:59 19.3 C 10.62 g/m*3 19.3 C 0 km/h
1490 04-09-2006 08:26:59 19.4 C 10.51 g/m*3 19.4 C 0 km/h
1491 04-09-2006 08:36:01 19.5 C 10.57 g/m*3 19.5 C 0 km/h
1492 04-09-2006 08:46:03 19.4 C 10.51 g/m*3 19.4 C 0 km/h
1493 04-09-2006 08:56:03 19.5 C 10.41 g/m*3 19.5 C 0 km/h
1494 04-09-2006 09:06:03 19.6 C 10.47 g/m*3 19.6 C 0 km/h
1495 04-09-2006 09:16:02 19.6 C 10.47 g/m*3 19.6 C 0 km/h
1496 04-09-2006 09:26:02 19.9 C 10.65 g/m*3 19.9 C 0 km/h
1497 04-09-2006 09:36:02 20.4 C 10.61 g/m*3 20.4 C 0 km/h
1498 04-09-2006 09:46:02 20.5 C 10.5 g/m*3 20.5 C 0 km/h
1499 04-09-2006 09:56:02 20.6 C 10.56 g/m*3 20.6 C 0 km/h
1500 04-09-2006 10:06:02 20.9 C 10.38 g/m*3 20.9 C 0 km/h
Sensor: Nr:Datum:Temp:Abs-Feuchte:Windchill:Wind:
Aussen-T/F 1501 04-09-2006 10:16:02 21 C 10.08 g/m*3 21 C 0 km/h
1502 04-09-2006 10:26:02 21 C 10.08 g/m*3 21 C 0 km/h
1503 04-09-2006 10:36:02 21.1 C 10.13 g/m*3 21.1 C 0 km/h
1504 04-09-2006 10:46:02 21.2 C 9.82 g/m*3 21.2 C 0 km/h
1505 04-09-2006 10:56:02 21.8 C 10.17 g/m*3 21.8 C 0 km/h
1506 04-09-2006 11:06:01 21.9 C 9.84 g/m*3 21.9 C 0 km/h
1507 04-09-2006 11:16:01 22.3 C 9.68 g/m*3 22.3 C 0 km/h
1508 04-09-2006 11:26:01 22.6 C 9.64 g/m*3 22.6 C 0 km/h
1509 04-09-2006 11:36:02 22.1 C 9.56 g/m*3 22.1 C 0 km/h
1510 04-09-2006 11:46:02 22.7 C 9.9 g/m*3 22.7 C 0 km/h
1511 04-09-2006 11:56:02 22.9 C 9.61 g/m*3 22.9 C 0 km/h
1512 04-09-2006 12:06:02 22.9 C 9.4 g/m*3 22.9 C 0 km/h
1513 04-09-2006 12:16:02 23.1 C 9.1 g/m*3 23.1 C 0 km/h
1514 04-09-2006 12:26:03 23.5 C 9.09 g/m*3 23.5 C 0 km/h
1515 04-09-2006 12:36:02 23.3 C 9.62 g/m*3 23.3 C 0 km/h
1516 04-09-2006 12:46:02 23.5 C 9.09 g/m*3 23.5 C 0 km/h
1517 04-09-2006 12:56:02 23.3 C 9.2 g/m*3 23.3 C 0 km/h
1518 04-09-2006 13:06:02 23.3 C 8.57 g/m*3 23.3 C 0 km/h
1519 04-09-2006 13:16:02 23.1 C 8.68 g/m*3 23.1 C 0 km/h
1520 04-09-2006 13:26:02 24.3 C 8.63 g/m*3 24.3 C 0 km/h
1521 04-09-2006 13:36:02 24.6 C 8.55 g/m*3 24.6 C 0 km/h
1522 04-09-2006 13:46:02 24.7 C 8.83 g/m*3 24.7 C 0 km/h
1523 04-09-2006 13:56:02 24.4 C 8.9 g/m*3 24.4 C 0 km/h
1524 04-09-2006 14:06:02 24.5 C 8.73 g/m*3 24.5 C 0 km/h
1525 04-09-2006 14:16:02 24.6 C 9 g/m*3 24.6 C 0 km/h
Sensor: Nr:Datum:Temp:Abs-Feuchte:Windchill:Wind:
Aussen-T/F 1526 04-09-2006 14:26:02 24.9 C 8.93 g/m*3 24.9 C 0 km/h
1527 04-09-2006 14:36:02 25.3 C 8.9 g/m*3 25.3 C 0 km/h
1528 04-09-2006 14:46:02 25 C 8.29 g/m*3 25 C 0 km/h
1529 04-09-2006 14:56:02 24.9 C 8.47 g/m*3 24.9 C 0 km/h
1530 04-09-2006 15:06:02 25 C 8.06 g/m*3 25 C 0 km/h
1531 04-09-2006 15:16:02 25.1 C 8.1 g/m*3 25.1 C 0 km/h
1532 04-09-2006 15:26:02 25 C 8.06 g/m*3 25 C 0 km/h
1533 04-09-2006 15:36:02 25.3 C 8.19 g/m*3 25.3 C 0 km/h
1534 04-09-2006 15:46:02 25.6 C 8.33 g/m*3 25.6 C 0 km/h
1535 04-09-2006 15:56:02 25.8 C 8.19 g/m*3 25.8 C 0 km/h
1536 04-09-2006 16:06:02 25.8 C 8.19 g/m*3 25.8 C 0 km/h
1537 04-09-2006 16:16:02 26.3 C 7.67 g/m*3 26.3 C 0 km/h
1538 04-09-2006 16:26:02 26.9 C 8.19 g/m*3 26.9 C 0 km/h
1539 04-09-2006 16:36:03 27.4 C 7.89 g/m*3 27.4 C 0 km/h
1540 04-09-2006 16:46:02 26.6 C 8.05 g/m*3 26.6 C 0 km/h
1541 04-09-2006 16:56:02 27.4 C 8.16 g/m*3 27.4 C 0 km/h
1542 04-09-2006 17:06:02 26.1 C 7.83 g/m*3 26.1 C 0 km/h
1543 04-09-2006 17:16:02 26.1 C 8.32 g/m*3 26.1 C 0 km/h
1544 04-09-2006 17:26:02 26 C 8.03 g/m*3 26 C 0 km/h
1545 04-09-2006 17:36:03 25.6 C 8.33 g/m*3 25.6 C 0 km/h
1546 04-09-2006 17:46:02 24.8 C 8.19 g/m*3 24.8 C 0 km/h
1547 04-09-2006 17:56:02 24.9 C 8.24 g/m*3 24.9 C 0 km/h
1548 04-09-2006 18:06:02 25.4 C 8 g/m*3 25.4 C 0 km/h
1549 04-09-2006 18:16:02 25.8 C 7.94 g/m*3 25.8 C 0 km/h
1550 04-09-2006 18:26:02 25.4 C 8.24 g/m*3 25.4 C 0 km/h
Sensor: Nr:Datum:Temp:Abs-Feuchte:Windchill:Wind:
Aussen-T/F 1551 04-09-2006 18:36:02 24.7 C 8.15 g/m*3 24.7 C 0 km/h
1552 04-09-2006 18:46:02 24.6 C 8.33 g/m*3 24.6 C 0 km/h
1553 04-09-2006 18:56:02 24.5 C 8.28 g/m*3 24.5 C 0 km/h
1554 04-09-2006 19:06:02 24.3 C 8.63 g/m*3 24.3 C 0 km/h
1555 04-09-2006 19:16:01 24.1 C 8.75 g/m*3 24.1 C 0 km/h
1556 04-09-2006 19:26:01 24.5 C 8.73 g/m*3 24.5 C 0 km/h
1557 04-09-2006 19:36:02 24.1 C 8.75 g/m*3 24.1 C 0 km/h
1558 04-09-2006 19:46:02 23.7 C 8.98 g/m*3 23.7 C 0 km/h
1559 04-09-2006 19:56:03 23.3 C 9.2 g/m*3 23.3 C 0 km/h
1560 04-09-2006 20:06:01 23 C 8.84 g/m*3 23 C 0 km/h
1561 04-09-2006 20:16:02 22.8 C 9.14 g/m*3 22.8 C 0 km/h
1562 04-09-2006 20:26:02 22.7 C 9.09 g/m*3 22.7 C 0 km/h
1563 04-09-2006 20:36:02 22.4 C 9.14 g/m*3 22.4 C 0 km/h
1564 04-09-2006 20:46:02 22.1 C 8.98 g/m*3 22.1 C 0 km/h
1565 04-09-2006 20:56:02 21.9 C 9.26 g/m*3 21.9 C 0 km/h
1566 04-09-2006 21:06:02 21.8 C 9.21 g/m*3 21.8 C 0 km/h
1567 04-09-2006 21:16:02 21.7 C 9.35 g/m*3 21.7 C 0 km/h
1568 04-09-2006 21:26:02 21.7 C 9.35 g/m*3 21.7 C 0 km/h
1569 04-09-2006 21:36:02 21.2 C 9.45 g/m*3 21.2 C 0 km/h
1570 04-09-2006 21:46:02 21.4 C 9.37 g/m*3 21.4 C 0 km/h
1571 04-09-2006 21:56:02 21.4 C 9.37 g/m*3 21.4 C 0 km/h
1572 04-09-2006 22:06:01 21.4 C 9.37 g/m*3 21.4 C 0 km/h
1573 04-09-2006 22:16:02 21.3 C 9.32 g/m*3 21.3 C 0 km/h
1574 04-09-2006 22:26:02 21.2 C 9.45 g/m*3 21.2 C 0 km/h
1575 04-09-2006 22:36:02 20.9 C 9.65 g/m*3 20.9 C 0 km/h
Sensor: Nr:Datum:Temp:Abs-Feuchte:Windchill:Wind:
Aussen-T/F 1576 04-09-2006 22:46:02 20.6 C 9.66 g/m*3 20.6 C 0 km/h
1577 04-09-2006 22:56:02 20.3 C 9.85 g/m*3 20.3 C 0 km/h
1578 04-09-2006 23:06:02 20.2 C 9.79 g/m*3 20.2 C 0 km/h
1579 04-09-2006 23:16:02 20 C 9.85 g/m*3 20 C 0 km/h
1580 04-09-2006 23:26:02 19.8 C 9.91 g/m*3 19.8 C 0 km/h
1581 04-09-2006 23:36:02 19.7 C 10.02 g/m*3 19.7 C 0 km/h
1582 04-09-2006 23:46:02 19.5 C 10.07 g/m*3 19.5 C 0 km/h
1583 04-09-2006 23:56:02 19.5 C 10.07 g/m*3 19.5 C 0 km/h
1584 05-09-2006 00:06:02 19.2 C 10.06 g/m*3 19.2 C 0 km/h
1585 05-09-2006 00:16:02 19.1 C 10.16 g/m*3 19.1 C 0 km/h
1586 05-09-2006 00:26:02 19 C 10.1 g/m*3 19 C 0 km/h
1587 05-09-2006 00:36:03 18.8 C 10.31 g/m*3 18.8 C 0 km/h
1588 05-09-2006 00:46:03 18.6 C 10.35 g/m*3 18.6 C 0 km/h
1589 05-09-2006 00:56:03 18.4 C 10.38 g/m*3 18.4 C 0 km/h
1590 05-09-2006 01:06:03 18.3 C 10.32 g/m*3 18.3 C 0 km/h
1591 05-09-2006 01:16:03 18.3 C 10.32 g/m*3 18.3 C 0 km/h
1592 05-09-2006 01:26:03 18.2 C 10.41 g/m*3 18.2 C 0 km/h
1593 05-09-2006 01:36:03 18.1 C 10.51 g/m*3 18.1 C 0 km/h
1594 05-09-2006 01:46:01 17.8 C 10.62 g/m*3 17.8 C 0 km/h
1595 05-09-2006 01:56:01 17.8 C 10.62 g/m*3 17.8 C 0 km/h
1596 05-09-2006 02:06:01 17.7 C 10.56 g/m*3 17.7 C 0 km/h
1597 05-09-2006 02:16:02 17.7 C 10.71 g/m*3 17.7 C 0 km/h
1598 05-09-2006 02:26:02 17.7 C 10.71 g/m*3 17.7 C 0 km/h
1599 05-09-2006 02:36:01 17.5 C 10.59 g/m*3 17.5 C 0 km/h
1600 05-09-2006 02:47:03 17.3 C 10.61 g/m*3 17.3 C 0 km/h
Sensor: Nr:Datum:Temp:Abs-Feuchte:Windchill:Wind:
Aussen-T/F 1601 05-09-2006 02:57:04 17.2 C 10.69 g/m*3 17.2 C 0 km/h
1602 05-09-2006 03:07:04 17 C 10.56 g/m*3 17 C 0 km/h
1603 05-09-2006 03:17:04 16.9 C 10.64 g/m*3 16.9 C 0 km/h
1604 05-09-2006 03:27:04 16.6 C 10.45 g/m*3 16.6 C 0 km/h
1605 05-09-2006 03:37:01 16.6 C 10.31 g/m*3 16.6 C 0 km/h
1606 05-09-2006 03:47:01 16.4 C 10.19 g/m*3 16.4 C 0 km/h
1607 05-09-2006 03:57:01 16.2 C 10.07 g/m*3 16.2 C 0 km/h
1608 05-09-2006 04:07:01 16.1 C 10.14 g/m*3 16.1 C 0 km/h
1609 05-09-2006 04:17:02 15.7 C 10.57 g/m*3 15.7 C 0 km/h
1610 05-09-2006 04:27:02 15.6 C 10.64 g/m*3 15.6 C 0 km/h
1611 05-09-2006 04:37:02 15.5 C 10.57 g/m*3 15.5 C 0 km/h
1612 05-09-2006 04:47:02 15.4 C 10.51 g/m*3 15.4 C 0 km/h
1613 05-09-2006 04:57:02 15.3 C 10.32 g/m*3 15.3 C 0 km/h
1614 05-09-2006 05:07:03 15.3 C 10.45 g/m*3 15.3 C 0 km/h
1615 05-09-2006 05:17:03 15.1 C 10.58 g/m*3 15.1 C 0 km/h
1616 05-09-2006 05:27:03 15 C 10.51 g/m*3 15 C 0 km/h
1617 05-09-2006 05:37:03 14.9 C 10.58 g/m*3 14.9 C 0 km/h
1618 05-09-2006 05:47:02 14.8 C 10.51 g/m*3 14.8 C 0 km/h
1619 05-09-2006 05:57:02 14.6 C 10.26 g/m*3 14.6 C 0 km/h
1620 05-09-2006 06:07:02 14.6 C 10.26 g/m*3 14.6 C 0 km/h
1621 05-09-2006 06:17:02 14.6 C 10.39 g/m*3 14.6 C 0 km/h
1622 05-09-2006 06:27:02 14.5 C 10.32 g/m*3 14.5 C 0 km/h
1623 05-09-2006 06:37:02 14.4 C 10.26 g/m*3 14.4 C 0 km/h
1624 05-09-2006 06:47:02 14.2 C 10.26 g/m*3 14.2 C 0 km/h
1625 05-09-2006 06:57:02 14.2 C 10.38 g/m*3 14.2 C 0 km/h
Sensor: Nr:Datum:Temp:Abs-Feuchte:Windchill:Wind:
Aussen-T/F 1626 05-09-2006 07:07:02 14.1 C 10.32 g/m*3 14.1 C 0 km/h
1627 05-09-2006 07:17:02 14.1 C 10.32 g/m*3 14.1 C 0 km/h
1628 05-09-2006 07:27:02 14.1 C 10.32 g/m*3 14.1 C 0 km/h
1629 05-09-2006 07:37:02 14.1 C 10.44 g/m*3 14.1 C 0 km/h
1630 05-09-2006 07:47:02 14.1 C 10.44 g/m*3 14.1 C 0 km/h
1631 05-09-2006 07:57:02 14 C 10.25 g/m*3 14 C 0 km/h
1632 05-09-2006 08:07:02 14.2 C 10.38 g/m*3 14.2 C 0 km/h
1633 05-09-2006 08:17:02 14.3 C 10.44 g/m*3 14.3 C 0 km/h
1634 05-09-2006 08:27:02 14.4 C 10.51 g/m*3 14.4 C 0 km/h
1635 05-09-2006 08:37:02 14.6 C 10.64 g/m*3 14.6 C 0 km/h
1636 05-09-2006 08:47:02 14.8 C 10.77 g/m*3 14.8 C 0 km/h
1637 05-09-2006 08:57:02 15.1 C 10.71 g/m*3 15.1 C 0 km/h
1638 05-09-2006 09:07:02 15.3 C 10.84 g/m*3 15.3 C 0 km/h
1639 05-09-2006 09:17:02 16 C 11.04 g/m*3 16 C 0 km/h
1640 05-09-2006 09:27:02 16.6 C 10.74 g/m*3 16.6 C 0 km/h
1641 05-09-2006 09:37:02 17.1 C 10.77 g/m*3 17.1 C 0 km/h
1642 05-09-2006 09:47:02 17 C 10.71 g/m*3 17 C 0 km/h
1643 05-09-2006 09:57:02 17.4 C 10.97 g/m*3 17.4 C 0 km/h
1644 05-09-2006 10:07:02 18.1 C 11.12 g/m*3 18.1 C 0 km/h
1645 05-09-2006 10:17:02 17.9 C 10.99 g/m*3 17.9 C 0 km/h
1646 05-09-2006 10:27:02 18 C 10.91 g/m*3 18 C 0 km/h
1647 05-09-2006 10:37:02 18.3 C 11.1 g/m*3 18.3 C 0 km/h
1648 05-09-2006 10:47:03 18.7 C 11.21 g/m*3 18.7 C 0 km/h
1649 05-09-2006 10:57:03 18.7 C 11.21 g/m*3 18.7 C 0 km/h
1650 05-09-2006 11:07:03 19.6 C 11.14 g/m*3 19.6 C 0 km/h
Sensor: Nr:Datum:Temp:Abs-Feuchte:Windchill:Wind:
Aussen-T/F 1651 05-09-2006 11:17:03 19.6 C 10.97 g/m*3 19.6 C 0 km/h
1652 05-09-2006 11:27:03 20.3 C 11.08 g/m*3 20.3 C 0 km/h
1653 05-09-2006 11:37:03 21.2 C 10.56 g/m*3 21.2 C 0 km/h
1654 05-09-2006 11:47:03 21.5 C 10.37 g/m*3 21.5 C 0 km/h
1655 05-09-2006 11:57:03 21.6 C 10.24 g/m*3 21.6 C 0 km/h
1656 05-09-2006 12:07:03 21.5 C 10.18 g/m*3 21.5 C 0 km/h
1657 05-09-2006 12:17:03 21.7 C 10.49 g/m*3 21.7 C 0 km/h
1658 05-09-2006 12:27:03 22.1 C 9.96 g/m*3 22.1 C 0 km/h
1659 05-09-2006 12:37:02 22.5 C 10.39 g/m*3 22.5 C 0 km/h
1660 05-09-2006 12:47:03 22.8 C 10.16 g/m*3 22.8 C 0 km/h
1661 05-09-2006 12:57:03 22.8 C 10.16 g/m*3 22.8 C 0 km/h
1662 05-09-2006 13:07:05 23.5 C 9.94 g/m*3 23.5 C 0 km/h
1663 05-09-2006 13:17:03 23.6 C 9.78 g/m*3 23.6 C 0 km/h
1664 05-09-2006 13:27:03 23.5 C 9.73 g/m*3 23.5 C 0 km/h
1665 05-09-2006 13:37:02 23.5 C 9.73 g/m*3 23.5 C 0 km/h
1666 05-09-2006 13:47:02 23.5 C 9.73 g/m*3 23.5 C 0 km/h
1667 05-09-2006 13:57:02 24.9 C 9.84 g/m*3 24.9 C 0 km/h
1668 05-09-2006 14:07:02 25.8 C 9.63 g/m*3 25.8 C 0 km/h
1669 05-09-2006 14:17:02 26.6 C 9.82 g/m*3 26.6 C 0 km/h
1670 05-09-2006 14:27:02 27.3 C 9.68 g/m*3 27.3 C 0 km/h
1671 05-09-2006 14:37:02 26.1 C 9.79 g/m*3 26.1 C 0 km/h
1672 05-09-2006 14:47:02 26 C 9.74 g/m*3 26 C 0 km/h
1673 05-09-2006 14:57:02 26 C 9.74 g/m*3 26 C 0 km/h
1674 05-09-2006 15:07:02 26.6 C 10.07 g/m*3 26.6 C 0 km/h
1675 05-09-2006 15:17:02 26.9 C 10.49 g/m*3 26.9 C 0 km/h
Sensor: Nr:Datum:Temp:Abs-Feuchte:Windchill:Wind:
Aussen-T/F 1676 05-09-2006 15:27:02 27.3 C 9.68 g/m*3 27.3 C 0 km/h
1677 05-09-2006 15:37:01 27.9 C 10.01 g/m*3 27.9 C 0 km/h
1678 05-09-2006 15:47:02 27 C 10.81 g/m*3 27 C 0 km/h
1679 05-09-2006 15:57:02 25.9 C 10.89 g/m*3 25.9 C 0 km/h
1680 05-09-2006 16:07:02 25.3 C 11.24 g/m*3 25.3 C 0 km/h
1681 05-09-2006 16:17:02 25.2 C 11.17 g/m*3 25.2 C 0 km/h
1682 05-09-2006 16:27:02 25.4 C 11.77 g/m*3 25.4 C 0 km/h
1683 05-09-2006 16:37:02 25.4 C 11.77 g/m*3 25.4 C 0 km/h
1684 05-09-2006 16:47:03 25.1 C 11.57 g/m*3 25.1 C 0 km/h
1685 05-09-2006 16:57:03 25 C 11.97 g/m*3 25 C 0 km/h
1686 05-09-2006 17:07:04 25.1 C 12.04 g/m*3 25.1 C 0 km/h
1687 05-09-2006 17:17:03 25.8 C 11.8 g/m*3 25.8 C 0 km/h
1688 05-09-2006 17:27:03 25.9 C 11.38 g/m*3 25.9 C 0 km/h
1689 05-09-2006 17:37:02 26 C 10.96 g/m*3 26 C 0 km/h
1690 05-09-2006 17:47:02 26 C 10.96 g/m*3 26 C 0 km/h
1691 05-09-2006 17:57:02 25.8 C 11.56 g/m*3 25.8 C 0 km/h
1692 05-09-2006 18:07:02 25.9 C 11.86 g/m*3 25.9 C 0 km/h
1693 05-09-2006 18:17:02 25.9 C 11.86 g/m*3 25.9 C 0 km/h
1694 05-09-2006 18:27:02 25.4 C 11.77 g/m*3 25.4 C 0 km/h
1695 05-09-2006 18:37:02 25 C 11.97 g/m*3 25 C 0 km/h
1696 05-09-2006 18:47:02 25.5 C 11.84 g/m*3 25.5 C 0 km/h
1697 05-09-2006 18:57:02 25.8 C 12.04 g/m*3 25.8 C 0 km/h
1698 05-09-2006 19:07:02 25.6 C 12.14 g/m*3 25.6 C 0 km/h
1699 05-09-2006 19:17:02 25.2 C 12.11 g/m*3 25.2 C 0 km/h
1700 05-09-2006 19:27:02 24.9 C 12.13 g/m*3 24.9 C 0 km/h
Sensor: Nr:Datum:Temp:Abs-Feuchte:Windchill:Wind:
Aussen-T/F 1701 05-09-2006 19:37:02 23.9 C 12.33 g/m*3 23.9 C 0 km/h
1702 05-09-2006 19:47:02 23.5 C 12.48 g/m*3 23.5 C 0 km/h
1703 05-09-2006 19:57:02 23.5 C 12.48 g/m*3 23.5 C 0 km/h
1704 05-09-2006 20:07:02 22.2 C 12.37 g/m*3 22.2 C 0 km/h
1705 05-09-2006 20:17:02 21.7 C 12.4 g/m*3 21.7 C 0 km/h
1706 05-09-2006 20:27:02 21.6 C 12.52 g/m*3 21.6 C 0 km/h
1707 05-09-2006 20:37:02 20.9 C 12.38 g/m*3 20.9 C 0 km/h
1708 05-09-2006 20:47:02 20.6 C 12.35 g/m*3 20.6 C 0 km/h
1709 05-09-2006 20:57:02 20.5 C 12.63 g/m*3 20.5 C 0 km/h
1710 05-09-2006 21:07:03 20.3 C 12.49 g/m*3 20.3 C 0 km/h
1711 05-09-2006 21:17:02 20.2 C 12.41 g/m*3 20.2 C 0 km/h
1712 05-09-2006 21:27:02 20 C 12.44 g/m*3 20 C 0 km/h
1713 05-09-2006 21:37:02 19.9 C 12.71 g/m*3 19.9 C 0 km/h
1714 05-09-2006 21:47:02 19.7 C 12.57 g/m*3 19.7 C 0 km/h
1715 05-09-2006 21:57:02 19.6 C 12.66 g/m*3 19.6 C 0 km/h
1716 05-09-2006 22:07:01 19.5 C 12.59 g/m*3 19.5 C 0 km/h
1717 05-09-2006 22:17:01 19.3 C 12.44 g/m*3 19.3 C 0 km/h
1718 05-09-2006 22:27:01 19.3 C 12.44 g/m*3 19.3 C 0 km/h
1719 05-09-2006 22:37:02 19 C 12.22 g/m*3 19 C 0 km/h
1720 05-09-2006 22:47:02 18.9 C 12.47 g/m*3 18.9 C 0 km/h
1721 05-09-2006 22:57:02 18.8 C 12.4 g/m*3 18.8 C 0 km/h
1722 05-09-2006 23:07:01 18.7 C 12.49 g/m*3 18.7 C 0 km/h
1723 05-09-2006 23:17:01 18.7 C 12.49 g/m*3 18.7 C 0 km/h
1724 05-09-2006 23:27:01 18.5 C 12.5 g/m*3 18.5 C 0 km/h
1725 05-09-2006 23:37:02 18.3 C 12.35 g/m*3 18.3 C 0 km/h
Sensor: Nr:Datum:Temp:Abs-Feuchte:Windchill:Wind:
Aussen-T/F 1726 05-09-2006 23:47:02 18.2 C 12.28 g/m*3 18.2 C 0 km/h
1727 05-09-2006 23:57:02 18.1 C 12.21 g/m*3 18.1 C 0 km/h
1728 06-09-2006 00:07:01 17.9 C 12.37 g/m*3 17.9 C 0 km/h
1729 06-09-2006 00:17:02 17.8 C 12.29 g/m*3 17.8 C 0 km/h
1730 06-09-2006 00:27:02 17.7 C 12.22 g/m*3 17.7 C 0 km/h
1731 06-09-2006 00:37:02 17.6 C 12.15 g/m*3 17.6 C 0 km/h
1732 06-09-2006 00:47:02 17.5 C 12.23 g/m*3 17.5 C 0 km/h
1733 06-09-2006 00:57:03 17.4 C 12.15 g/m*3 17.4 C 0 km/h
1734 06-09-2006 01:07:03 17.3 C 12.08 g/m*3 17.3 C 0 km/h
1735 06-09-2006 01:17:03 17.1 C 11.94 g/m*3 17.1 C 0 km/h
1736 06-09-2006 01:27:03 17 C 11.87 g/m*3 17 C 0 km/h
1737 06-09-2006 01:37:03 17 C 12.01 g/m*3 17 C 0 km/h
1738 06-09-2006 01:47:03 17 C 12.15 g/m*3 17 C 0 km/h
1739 06-09-2006 01:57:03 16.9 C 12.23 g/m*3 16.9 C 0 km/h
1740 06-09-2006 02:07:03 16.7 C 11.94 g/m*3 16.7 C 0 km/h
1741 06-09-2006 02:17:03 16.6 C 11.87 g/m*3 16.6 C 0 km/h
1742 06-09-2006 02:27:03 16.5 C 11.8 g/m*3 16.5 C 0 km/h
1743 06-09-2006 02:37:03 16.4 C 11.72 g/m*3 16.4 C 0 km/h
1744 06-09-2006 02:48:03 16.3 C 11.79 g/m*3 16.3 C 0 km/h
1745 06-09-2006 02:58:03 16.3 C 11.79 g/m*3 16.3 C 0 km/h
1746 06-09-2006 03:08:03 16.4 C 12 g/m*3 16.4 C 0 km/h
1747 06-09-2006 03:18:03 16.2 C 11.86 g/m*3 16.2 C 0 km/h
1748 06-09-2006 03:28:03 16 C 11.72 g/m*3 16 C 0 km/h
1749 06-09-2006 03:38:02 15.9 C 11.78 g/m*3 15.9 C 0 km/h
1750 06-09-2006 03:48:02 15.8 C 11.71 g/m*3 15.8 C 0 km/h
Sensor: Nr:Datum:Temp:Abs-Feuchte:Windchill:Wind:
Aussen-T/F 1751 06-09-2006 03:58:03 15.7 C 11.64 g/m*3 15.7 C 0 km/h
1752 06-09-2006 04:08:02 15.7 C 11.64 g/m*3 15.7 C 0 km/h
1753 06-09-2006 04:18:02 15.6 C 11.57 g/m*3 15.6 C 0 km/h
1754 06-09-2006 04:28:02 15.8 C 11.71 g/m*3 15.8 C 0 km/h
1755 06-09-2006 04:38:02 15.8 C 11.71 g/m*3 15.8 C 0 km/h
1756 06-09-2006 04:48:02 15.9 C 11.78 g/m*3 15.9 C 0 km/h
1757 06-09-2006 04:58:02 15.8 C 11.85 g/m*3 15.8 C 0 km/h
1758 06-09-2006 05:08:01 15.6 C 11.7 g/m*3 15.6 C 0 km/h
1759 06-09-2006 05:18:02 15.5 C 11.63 g/m*3 15.5 C 0 km/h
1760 06-09-2006 05:28:02 15.4 C 11.69 g/m*3 15.4 C 0 km/h
1761 06-09-2006 05:38:02 15.4 C 11.69 g/m*3 15.4 C 0 km/h
1762 06-09-2006 05:48:03 15.3 C 11.62 g/m*3 15.3 C 0 km/h
1763 06-09-2006 05:58:03 15.2 C 11.55 g/m*3 15.2 C 0 km/h
1764 06-09-2006 06:08:03 15.3 C 11.62 g/m*3 15.3 C 0 km/h
1765 06-09-2006 06:18:02 15.3 C 11.49 g/m*3 15.3 C 0 km/h
1766 06-09-2006 06:28:02 15.4 C 11.56 g/m*3 15.4 C 0 km/h
1767 06-09-2006 06:38:02 15.5 C 11.63 g/m*3 15.5 C 0 km/h
1768 06-09-2006 06:48:02 15.5 C 11.63 g/m*3 15.5 C 0 km/h
1769 06-09-2006 06:58:02 15.4 C 11.56 g/m*3 15.4 C 0 km/h
1770 06-09-2006 07:08:02 15.5 C 11.63 g/m*3 15.5 C 0 km/h
1771 06-09-2006 07:18:01 15.4 C 11.56 g/m*3 15.4 C 0 km/h
1772 06-09-2006 07:28:01 15.5 C 11.76 g/m*3 15.5 C 0 km/h
1773 06-09-2006 07:38:01 15.1 C 11.35 g/m*3 15.1 C 0 km/h
1774 06-09-2006 07:48:03 15 C 11.28 g/m*3 15 C 0 km/h
1775 06-09-2006 07:58:03 15.1 C 11.35 g/m*3 15.1 C 0 km/h
Sensor: Nr:Datum:Temp:Abs-Feuchte:Windchill:Wind:
Aussen-T/F 1776 06-09-2006 08:08:02 15.3 C 11.62 g/m*3 15.3 C 0 km/h
1777 06-09-2006 08:18:02 15.3 C 11.49 g/m*3 15.3 C 0 km/h
1778 06-09-2006 08:28:02 15.2 C 11.29 g/m*3 15.2 C 0 km/h
1779 06-09-2006 08:38:02 15.1 C 11.35 g/m*3 15.1 C 0 km/h
1780 06-09-2006 08:48:02 15.4 C 11.56 g/m*3 15.4 C 0 km/h
1781 06-09-2006 08:58:02 15.6 C 11.7 g/m*3 15.6 C 0 km/h
1782 06-09-2006 09:08:02 15.7 C 11.64 g/m*3 15.7 C 0 km/h
1783 06-09-2006 09:18:02 16.6 C 12.01 g/m*3 16.6 C 0 km/h
1784 06-09-2006 09:28:02 16.6 C 11.72 g/m*3 16.6 C 0 km/h
1785 06-09-2006 09:38:02 16.5 C 11.51 g/m*3 16.5 C 0 km/h
1786 06-09-2006 09:48:02 16.7 C 11.65 g/m*3 16.7 C 0 km/h
1787 06-09-2006 09:58:02 17.1 C 11.79 g/m*3 17.1 C 0 km/h
1788 06-09-2006 10:08:02 17.1 C 11.65 g/m*3 17.1 C 0 km/h
1789 06-09-2006 10:18:02 17.4 C 12 g/m*3 17.4 C 0 km/h
1790 06-09-2006 10:28:02 17.7 C 12.07 g/m*3 17.7 C 0 km/h
1791 06-09-2006 10:38:02 18.1 C 12.21 g/m*3 18.1 C 0 km/h
1792 06-09-2006 10:48:02 18.6 C 12.41 g/m*3 18.6 C 0 km/h
1793 06-09-2006 10:58:02 19.1 C 12.13 g/m*3 19.1 C 0 km/h
1794 06-09-2006 11:08:02 19.7 C 12.4 g/m*3 19.7 C 0 km/h
1795 06-09-2006 11:18:02 20 C 12.27 g/m*3 20 C 0 km/h
1796 06-09-2006 11:28:02 20.5 C 12.46 g/m*3 20.5 C 0 km/h
1797 06-09-2006 11:38:02 21.2 C 12.6 g/m*3 21.2 C 0 km/h
1798 06-09-2006 11:48:02 21.6 C 12.71 g/m*3 21.6 C 0 km/h
1799 06-09-2006 11:58:02 22 C 12.81 g/m*3 22 C 0 km/h
1800 06-09-2006 12:08:01 22.4 C 12.91 g/m*3 22.4 C 0 km/h
Sensor: Nr:Datum:Temp:Abs-Feuchte:Windchill:Wind:
Aussen-T/F 1801 06-09-2006 12:18:01 23.2 C 12.89 g/m*3 23.2 C 0 km/h
1802 06-09-2006 12:28:01 23.3 C 12.96 g/m*3 23.3 C 0 km/h
1803 06-09-2006 12:38:01 23.7 C 12.83 g/m*3 23.7 C 0 km/h
1804 06-09-2006 12:48:02 24.1 C 12.47 g/m*3 24.1 C 0 km/h
1805 06-09-2006 12:58:02 24.4 C 12.69 g/m*3 24.4 C 0 km/h
1806 06-09-2006 13:08:02 24.8 C 12.52 g/m*3 24.8 C 0 km/h
1807 06-09-2006 13:18:01 25.3 C 12.64 g/m*3 25.3 C 0 km/h
1808 06-09-2006 13:28:01 25.9 C 11.14 g/m*3 25.9 C 0 km/h
1809 06-09-2006 13:38:01 26.3 C 10.89 g/m*3 26.3 C 0 km/h
1810 06-09-2006 13:48:02 26.8 C 11.96 g/m*3 26.8 C 0 km/h
1811 06-09-2006 13:58:02 27.3 C 10.2 g/m*3 27.3 C 0 km/h
1812 06-09-2006 14:08:02 27.5 C 9.79 g/m*3 27.5 C 0 km/h
1813 06-09-2006 14:18:01 28.3 C 9.95 g/m*3 28.3 C 0 km/h
1814 06-09-2006 14:28:01 28.7 C 9.89 g/m*3 28.7 C 0 km/h
1815 06-09-2006 14:38:01 29.2 C 9.58 g/m*3 29.2 C 0 km/h
1816 06-09-2006 14:48:02 29.4 C 10.27 g/m*3 29.4 C 0 km/h
1817 06-09-2006 14:58:02 29.7 C 10.14 g/m*3 29.7 C 0 km/h
1818 06-09-2006 15:08:02 30.2 C 9.81 g/m*3 30.2 C 0 km/h
1819 06-09-2006 15:18:02 30.3 C 9.86 g/m*3 30.3 C 0 km/h
1820 06-09-2006 15:28:02 30.6 C 9.71 g/m*3 30.6 C 0 km/h
1821 06-09-2006 15:38:02 30.4 C 10.85 g/m*3 30.4 C 0 km/h
1822 06-09-2006 15:48:02 30.6 C 9.71 g/m*3 30.6 C 0 km/h
1823 06-09-2006 15:58:02 30.7 C 9.76 g/m*3 30.7 C 0 km/h
1824 06-09-2006 16:08:01 30.4 C 9.61 g/m*3 30.4 C 0 km/h
1825 06-09-2006 16:18:01 30.7 C 9.45 g/m*3 30.7 C 0 km/h
Sensor: Nr:Datum:Temp:Abs-Feuchte:Windchill:Wind:
Aussen-T/F 1826 06-09-2006 16:28:01 31.3 C 11.06 g/m*3 31.3 C 0 km/h
1827 06-09-2006 16:38:01 31.5 C 10.19 g/m*3 31.5 C 0 km/h
1828 06-09-2006 16:48:02 31.7 C 10.3 g/m*3 31.7 C 0 km/h
1829 06-09-2006 16:58:02 31.8 C 9.69 g/m*3 31.8 C 0 km/h
1830 06-09-2006 17:08:02 32 C 9.11 g/m*3 32 C 0 km/h
1831 06-09-2006 17:18:02 32.1 C 9.16 g/m*3 32.1 C 0 km/h
1832 06-09-2006 17:28:02 31.9 C 9.74 g/m*3 31.9 C 0 km/h
1833 06-09-2006 17:38:02 31.9 C 8.73 g/m*3 31.9 C 0 km/h
1834 06-09-2006 17:48:02 32.1 C 10.18 g/m*3 32.1 C 0 km/h
1835 06-09-2006 17:58:03 32.1 C 10.18 g/m*3 32.1 C 0 km/h
1836 06-09-2006 18:08:02 31.8 C 10.02 g/m*3 31.8 C 0 km/h
1837 06-09-2006 18:18:03 31.5 C 9.2 g/m*3 31.5 C 0 km/h
1838 06-09-2006 18:28:03 31.4 C 9.48 g/m*3 31.4 C 0 km/h
1839 06-09-2006 18:38:03 31 C 10.56 g/m*3 31 C 0 km/h
1840 06-09-2006 18:48:02 30.7 C 10.39 g/m*3 30.7 C 0 km/h
1841 06-09-2006 18:58:02 30.3 C 10.79 g/m*3 30.3 C 0 km/h
1842 06-09-2006 19:08:02 29.3 C 10.8 g/m*3 29.3 C 0 km/h
1843 06-09-2006 19:18:02 28.2 C 10.72 g/m*3 28.2 C 0 km/h
1844 06-09-2006 19:28:02 27.5 C 10.85 g/m*3 27.5 C 0 km/h
1845 06-09-2006 19:38:02 27.1 C 10.61 g/m*3 27.1 C 0 km/h
1846 06-09-2006 19:48:02 26.5 C 10.76 g/m*3 26.5 C 0 km/h
1847 06-09-2006 19:58:02 25.8 C 10.83 g/m*3 25.8 C 0 km/h
1848 06-09-2006 20:08:02 25.3 C 10.77 g/m*3 25.3 C 0 km/h
1849 06-09-2006 20:18:01 24.9 C 10.99 g/m*3 24.9 C 0 km/h
1850 06-09-2006 20:28:01 24.8 C 10.7 g/m*3 24.8 C 0 km/h
Sensor: Nr:Datum:Temp:Abs-Feuchte:Windchill:Wind:
Aussen-T/F 1851 06-09-2006 20:38:01 24.6 C 10.8 g/m*3 24.6 C 0 km/h
1852 06-09-2006 20:48:02 24.5 C 10.97 g/m*3 24.5 C 0 km/h
1853 06-09-2006 20:58:02 24.3 C 10.84 g/m*3 24.3 C 0 km/h
1854 06-09-2006 21:08:03 24.1 C 11.16 g/m*3 24.1 C 0 km/h
1855 06-09-2006 21:18:02 23.9 C 11.47 g/m*3 23.9 C 0 km/h
1856 06-09-2006 21:28:03 23.6 C 11.27 g/m*3 23.6 C 0 km/h
1857 06-09-2006 21:38:02 23.3 C 11.71 g/m*3 23.3 C 0 km/h
1858 06-09-2006 21:48:02 22.9 C 12.06 g/m*3 22.9 C 0 km/h
1859 06-09-2006 21:58:02 22.6 C 11.85 g/m*3 22.6 C 0 km/h
1860 06-09-2006 22:08:03 22.3 C 12.24 g/m*3 22.3 C 0 km/h
1861 06-09-2006 22:18:02 22 C 12.23 g/m*3 22 C 0 km/h
1862 06-09-2006 22:28:02 21.7 C 12.21 g/m*3 21.7 C 0 km/h
1863 06-09-2006 22:38:02 21.6 C 12.33 g/m*3 21.6 C 0 km/h
1864 06-09-2006 22:48:02 21.4 C 12.19 g/m*3 21.4 C 0 km/h
1865 06-09-2006 22:58:03 21 C 12.09 g/m*3 21 C 0 km/h
1866 06-09-2006 23:08:02 20.8 C 12.31 g/m*3 20.8 C 0 km/h
1867 06-09-2006 23:18:01 20.6 C 12.35 g/m*3 20.6 C 0 km/h
1868 06-09-2006 23:28:01 20.5 C 12.28 g/m*3 20.5 C 0 km/h
1869 06-09-2006 23:38:02 20.4 C 12.21 g/m*3 20.4 C 0 km/h
1870 06-09-2006 23:48:02 20.2 C 12.24 g/m*3 20.2 C 0 km/h
1871 06-09-2006 23:58:02 20 C 12.1 g/m*3 20 C 0 km/h
1872 07-09-2006 00:08:01 19.9 C 12.37 g/m*3 19.9 C 0 km/h
1873 07-09-2006 00:18:02 19.7 C 12.23 g/m*3 19.7 C 0 km/h
1874 07-09-2006 00:28:02 19.6 C 12.15 g/m*3 19.6 C 0 km/h
1875 07-09-2006 00:38:01 19.5 C 12.25 g/m*3 19.5 C 0 km/h
Sensor: Nr:Datum:Temp:Abs-Feuchte:Windchill:Wind:
Aussen-T/F 1876 07-09-2006 00:48:03 19.3 C 12.11 g/m*3 19.3 C 0 km/h
1877 07-09-2006 00:58:03 19.3 C 12.11 g/m*3 19.3 C 0 km/h
1878 07-09-2006 01:08:03 19 C 12.22 g/m*3 19 C 0 km/h
1879 07-09-2006 01:18:03 18.9 C 12.15 g/m*3 18.9 C 0 km/h
1880 07-09-2006 01:28:03 18.7 C 12.17 g/m*3 18.7 C 0 km/h
1881 07-09-2006 01:38:03 18.5 C 12.02 g/m*3 18.5 C 0 km/h
1882 07-09-2006 01:48:02 18.5 C 12.02 g/m*3 18.5 C 0 km/h
1883 07-09-2006 01:58:02 18.4 C 12.11 g/m*3 18.4 C 0 km/h
1884 07-09-2006 02:08:02 18.2 C 11.97 g/m*3 18.2 C 0 km/h
1885 07-09-2006 02:18:02 18 C 11.83 g/m*3 18 C 0 km/h
1886 07-09-2006 02:28:03 18 C 11.98 g/m*3 18 C 0 km/h
1887 07-09-2006 02:38:02 17.9 C 12.06 g/m*3 17.9 C 0 km/h
1888 07-09-2006 02:49:04 17.8 C 11.99 g/m*3 17.8 C 0 km/h
1889 07-09-2006 02:59:04 17.7 C 11.92 g/m*3 17.7 C 0 km/h
1890 07-09-2006 03:09:04 17.9 C 12.06 g/m*3 17.9 C 0 km/h
1891 07-09-2006 03:19:03 17.4 C 11.86 g/m*3 17.4 C 0 km/h
1892 07-09-2006 03:29:03 17.3 C 11.93 g/m*3 17.3 C 0 km/h
1893 07-09-2006 03:39:02 17.2 C 11.86 g/m*3 17.2 C 0 km/h
1894 07-09-2006 03:49:02 17.1 C 11.79 g/m*3 17.1 C 0 km/h
1895 07-09-2006 03:59:02 17 C 11.72 g/m*3 17 C 0 km/h
1896 07-09-2006 04:09:02 16.9 C 11.79 g/m*3 16.9 C 0 km/h
1897 07-09-2006 04:19:02 16.8 C 11.72 g/m*3 16.8 C 0 km/h
1898 07-09-2006 04:29:02 16.8 C 11.72 g/m*3 16.8 C 0 km/h
1899 07-09-2006 04:39:02 16.6 C 11.72 g/m*3 16.6 C 0 km/h
1900 07-09-2006 04:49:03 16.6 C 11.72 g/m*3 16.6 C 0 km/h
Sensor: Nr:Datum:Temp:Abs-Feuchte:Windchill:Wind:
Aussen-T/F 1901 07-09-2006 04:59:03 16.5 C 11.65 g/m*3 16.5 C 0 km/h
1902 07-09-2006 05:09:03 16.4 C 11.58 g/m*3 16.4 C 0 km/h
1903 07-09-2006 05:19:02 16.4 C 11.72 g/m*3 16.4 C 0 km/h
1904 07-09-2006 05:29:02 16.2 C 11.45 g/m*3 16.2 C 0 km/h
1905 07-09-2006 05:39:02 16.1 C 11.51 g/m*3 16.1 C 0 km/h
1906 07-09-2006 05:49:02 16 C 11.44 g/m*3 16 C 0 km/h
1907 07-09-2006 05:59:02 15.9 C 11.51 g/m*3 15.9 C 0 km/h
1908 07-09-2006 06:09:02 15.8 C 11.31 g/m*3 15.8 C 0 km/h
1909 07-09-2006 06:19:01 15.7 C 11.37 g/m*3 15.7 C 0 km/h
1910 07-09-2006 06:29:01 15.7 C 11.37 g/m*3 15.7 C 0 km/h
1911 07-09-2006 06:39:02 15.7 C 11.37 g/m*3 15.7 C 0 km/h
1912 07-09-2006 06:49:02 15.6 C 11.3 g/m*3 15.6 C 0 km/h
1913 07-09-2006 06:59:02 15.6 C 11.44 g/m*3 15.6 C 0 km/h
1914 07-09-2006 07:09:03 15.4 C 11.3 g/m*3 15.4 C 0 km/h
1915 07-09-2006 07:19:02 15.3 C 11.23 g/m*3 15.3 C 0 km/h
1916 07-09-2006 07:29:02 15.4 C 11.3 g/m*3 15.4 C 0 km/h
1917 07-09-2006 07:39:01 15.2 C 11.29 g/m*3 15.2 C 0 km/h
1918 07-09-2006 07:49:02 15.2 C 11.29 g/m*3 15.2 C 0 km/h
1919 07-09-2006 07:59:02 15.2 C 11.42 g/m*3 15.2 C 0 km/h
1920 07-09-2006 08:09:02 15.4 C 11.56 g/m*3 15.4 C 0 km/h
1921 07-09-2006 08:19:02 15.4 C 11.56 g/m*3 15.4 C 0 km/h
1922 07-09-2006 08:29:02 15.8 C 11.85 g/m*3 15.8 C 0 km/h
1923 07-09-2006 08:39:02 16 C 11.72 g/m*3 16 C 0 km/h
1924 07-09-2006 08:49:02 16.2 C 11.86 g/m*3 16.2 C 0 km/h
1925 07-09-2006 08:59:02 16.6 C 12.15 g/m*3 16.6 C 0 km/h
Sensor: Nr:Datum:Temp:Abs-Feuchte:Windchill:Wind:
Aussen-T/F 1926 07-09-2006 09:09:02 16.8 C 12.15 g/m*3 16.8 C 0 km/h
1927 07-09-2006 09:19:02 16.8 C 11.87 g/m*3 16.8 C 0 km/h
1928 07-09-2006 09:29:02 17.3 C 12.08 g/m*3 17.3 C 0 km/h
1929 07-09-2006 09:39:02 17.2 C 11.86 g/m*3 17.2 C 0 km/h
1930 07-09-2006 09:49:02 17.3 C 11.93 g/m*3 17.3 C 0 km/h
1931 07-09-2006 09:59:02 17.7 C 12.22 g/m*3 17.7 C 0 km/h
1932 07-09-2006 10:09:02 18 C 12.29 g/m*3 18 C 0 km/h
1933 07-09-2006 10:19:02 18.5 C 12.5 g/m*3 18.5 C 0 km/h
1934 07-09-2006 10:29:02 19 C 12.71 g/m*3 19 C 0 km/h
1935 07-09-2006 10:39:02 19.5 C 12.75 g/m*3 19.5 C 0 km/h
1936 07-09-2006 10:49:02 20 C 12.62 g/m*3 20 C 0 km/h
1937 07-09-2006 10:59:02 20.5 C 12.99 g/m*3 20.5 C 0 km/h
1938 07-09-2006 11:09:02 21 C 12.82 g/m*3 21 C 0 km/h
1939 07-09-2006 11:19:02 21.5 C 13.01 g/m*3 21.5 C 0 km/h
1940 07-09-2006 11:29:02 21.9 C 13.12 g/m*3 21.9 C 0 km/h
1941 07-09-2006 11:39:02 22.4 C 13.31 g/m*3 22.4 C 0 km/h
1942 07-09-2006 11:49:02 22.9 C 13.08 g/m*3 22.9 C 0 km/h
1943 07-09-2006 11:59:02 23.8 C 13.12 g/m*3 23.8 C 0 km/h
1944 07-09-2006 12:09:02 24.3 C 13.5 g/m*3 24.3 C 0 km/h
1945 07-09-2006 12:19:02 24.6 C 13.05 g/m*3 24.6 C 0 km/h
1946 07-09-2006 12:29:02 25.3 C 12.88 g/m*3 25.3 C 0 km/h
1947 07-09-2006 12:39:02 25.3 C 13.11 g/m*3 25.3 C 0 km/h
1948 07-09-2006 12:49:02 25.7 C 12.45 g/m*3 25.7 C 0 km/h
1949 07-09-2006 12:59:02 25.9 C 12.35 g/m*3 25.9 C 0 km/h
1950 07-09-2006 13:09:02 25.9 C 12.83 g/m*3 25.9 C 0 km/h
Sensor: Nr:Datum:Temp:Abs-Feuchte:Windchill:Wind:
Aussen-T/F 1951 07-09-2006 13:19:02 26.3 C 12.87 g/m*3 26.3 C 0 km/h
1952 07-09-2006 13:29:02 26.9 C 12.54 g/m*3 26.9 C 0 km/h
1953 07-09-2006 13:39:01 27 C 12.1 g/m*3 27 C 0 km/h
1954 07-09-2006 13:49:02 27.2 C 10.93 g/m*3 27.2 C 0 km/h
1955 07-09-2006 13:59:02 27.5 C 11.38 g/m*3 27.5 C 0 km/h
1956 07-09-2006 14:09:02 26.9 C 11.77 g/m*3 26.9 C 0 km/h
1957 07-09-2006 14:19:02 27.1 C 11.39 g/m*3 27.1 C 0 km/h
1958 07-09-2006 14:29:02 27.3 C 11.51 g/m*3 27.3 C 0 km/h
1959 07-09-2006 14:39:01 26.4 C 12.2 g/m*3 26.4 C 0 km/h
1960 07-09-2006 14:49:02 26.7 C 11.64 g/m*3 26.7 C 0 km/h
1961 07-09-2006 14:59:02 26.4 C 11.95 g/m*3 26.4 C 0 km/h
1962 07-09-2006 15:09:02 26.3 C 11.64 g/m*3 26.3 C 0 km/h
1963 07-09-2006 15:19:02 24.8 C 11.61 g/m*3 24.8 C 0 km/h
1964 07-09-2006 15:29:02 23.7 C 11.76 g/m*3 23.7 C 0 km/h
1965 07-09-2006 15:39:02 23.1 C 11.78 g/m*3 23.1 C 0 km/h
1966 07-09-2006 15:49:02 23.1 C 11.78 g/m*3 23.1 C 0 km/h
1967 07-09-2006 15:59:02 23.3 C 11.92 g/m*3 23.3 C 0 km/h
1968 07-09-2006 16:09:02 23 C 11.92 g/m*3 23 C 0 km/h
1969 07-09-2006 16:19:02 21.7 C 11.83 g/m*3 21.7 C 0 km/h
1970 07-09-2006 16:29:02 20.8 C 11.59 g/m*3 20.8 C 0 km/h
1971 07-09-2006 16:39:02 20.1 C 11.3 g/m*3 20.1 C 0 km/h
1972 07-09-2006 16:49:02 20.4 C 10.97 g/m*3 20.4 C 0 km/h
1973 07-09-2006 16:59:02 20.4 C 10.61 g/m*3 20.4 C 0 km/h
1974 07-09-2006 17:09:03 20.4 C 10.61 g/m*3 20.4 C 0 km/h
1975 07-09-2006 17:19:03 19.7 C 10.7 g/m*3 19.7 C 0 km/h
Sensor: Nr:Datum:Temp:Abs-Feuchte:Windchill:Wind:
Aussen-T/F 1976 07-09-2006 17:29:03 19.5 C 10.57 g/m*3 19.5 C 0 km/h
1977 07-09-2006 17:39:02 19.6 C 10.8 g/m*3 19.6 C 0 km/h
1978 07-09-2006 17:49:02 19.2 C 10.72 g/m*3 19.2 C 0 km/h
1979 07-09-2006 17:59:02 18.9 C 11.02 g/m*3 18.9 C 0 km/h
1980 07-09-2006 18:09:02 18.8 C 10.95 g/m*3 18.8 C 0 km/h
1981 07-09-2006 18:19:02 18.8 C 10.63 g/m*3 18.8 C 0 km/h
1982 07-09-2006 18:29:02 18.7 C 9.93 g/m*3 18.7 C 0 km/h
1983 07-09-2006 18:39:02 18.6 C 9.87 g/m*3 18.6 C 0 km/h
1984 07-09-2006 18:49:02 18.4 C 9.75 g/m*3 18.4 C 0 km/h
1985 07-09-2006 18:59:02 18.3 C 9.54 g/m*3 18.3 C 0 km/h
1986 07-09-2006 19:09:03 18.3 C 9.69 g/m*3 18.3 C 0 km/h
1987 07-09-2006 19:19:02 18.5 C 9.81 g/m*3 18.5 C 0 km/h
1988 07-09-2006 19:29:02 18.5 C 9.81 g/m*3 18.5 C 0 km/h
1989 07-09-2006 19:39:02 18.1 C 9.58 g/m*3 18.1 C 0 km/h
1990 07-09-2006 19:49:03 18.1 C 9.73 g/m*3 18.1 C 0 km/h
1991 07-09-2006 19:59:03 18.2 C 9.95 g/m*3 18.2 C 0 km/h
1992 07-09-2006 20:09:03 18.2 C 10.1 g/m*3 18.2 C 0 km/h
1993 07-09-2006 20:19:03 18 C 9.98 g/m*3 18 C 0 km/h
1994 07-09-2006 20:29:03 17.7 C 10.11 g/m*3 17.7 C 0 km/h
1995 07-09-2006 20:39:02 17.3 C 10.02 g/m*3 17.3 C 0 km/h
1996 07-09-2006 20:49:02 17.2 C 10.1 g/m*3 17.2 C 0 km/h
1997 07-09-2006 20:59:02 17 C 10.27 g/m*3 17 C 0 km/h
1998 07-09-2006 21:09:03 16.9 C 10.5 g/m*3 16.9 C 0 km/h
1999 07-09-2006 21:19:02 16.7 C 10.52 g/m*3 16.7 C 0 km/h
2000 07-09-2006 21:29:02 16.6 C 10.59 g/m*3 16.6 C 0 km/h
Sensor: Nr:Datum:Temp:Abs-Feuchte:Windchill:Wind:
Aussen-T/F 2001 07-09-2006 21:39:02 16.6 C 10.45 g/m*3 16.6 C 0 km/h
2002 07-09-2006 21:49:03 16.5 C 9.83 g/m*3 16.5 C 0 km/h
2003 07-09-2006 21:59:03 16.4 C 9.49 g/m*3 16.4 C 0 km/h
2004 07-09-2006 22:09:02 16.2 C 9.24 g/m*3 16.2 C 0 km/h
2005 07-09-2006 22:19:02 16.1 C 8.91 g/m*3 16.1 C 0 km/h
2006 07-09-2006 22:29:02 16 C 8.72 g/m*3 16 C 0 km/h
2007 07-09-2006 22:39:02 15.9 C 8.53 g/m*3 15.9 C 0 km/h
2008 07-09-2006 22:49:02 15.7 C 8.43 g/m*3 15.7 C 0 km/h
2009 07-09-2006 22:59:02 15.5 C 8.46 g/m*3 15.5 C 0 km/h
2010 07-09-2006 23:09:01 15.4 C 8.41 g/m*3 15.4 C 0 km/h
2011 07-09-2006 23:19:01 15.3 C 8.23 g/m*3 15.3 C 0 km/h
2012 07-09-2006 23:29:01 15.2 C 8.18 g/m*3 15.2 C 0 km/h
2013 07-09-2006 23:39:02 15 C 8.08 g/m*3 15 C 0 km/h
2014 07-09-2006 23:49:02 14.9 C 8.03 g/m*3 14.9 C 0 km/h
2015 07-09-2006 23:59:02 14.6 C 8.01 g/m*3 14.6 C 0 km/h
2016 08-09-2006 00:09:01 14.5 C 7.96 g/m*3 14.5 C 0 km/h
2017 08-09-2006 00:19:02 14.4 C 8.03 g/m*3 14.4 C 0 km/h
2018 08-09-2006 00:29:02 14.2 C 8.06 g/m*3 14.2 C 0 km/h
2019 08-09-2006 00:39:01 14.2 C 8.18 g/m*3 14.2 C 0 km/h
2020 08-09-2006 00:49:02 13.9 C 8.27 g/m*3 13.9 C 0 km/h
2021 08-09-2006 00:59:02 13.8 C 8.22 g/m*3 13.8 C 0 km/h
2022 08-09-2006 01:09:02 13.7 C 8.29 g/m*3 13.7 C 0 km/h
2023 08-09-2006 01:19:02 13.6 C 8.24 g/m*3 13.6 C 0 km/h
2024 08-09-2006 01:29:02 13.4 C 8.25 g/m*3 13.4 C 0 km/h
2025 08-09-2006 01:39:03 13.2 C 8.27 g/m*3 13.2 C 0 km/h
Sensor: Nr:Datum:Temp:Abs-Feuchte:Windchill:Wind:
Aussen-T/F 2026 08-09-2006 01:49:03 13 C 8.17 g/m*3 13 C 0 km/h
2027 08-09-2006 01:59:03 13 C 8.17 g/m*3 13 C 0 km/h
2028 08-09-2006 02:09:03 13.1 C 8.33 g/m*3 13.1 C 0 km/h
2029 08-09-2006 02:19:02 13.3 C 8.32 g/m*3 13.3 C 0 km/h
2030 08-09-2006 02:29:02 13.2 C 8.15 g/m*3 13.2 C 0 km/h
2031 08-09-2006 02:39:02 12.9 C 8.23 g/m*3 12.9 C 0 km/h
2032 08-09-2006 02:50:04 12.7 C 8.24 g/m*3 12.7 C 0 km/h
2033 08-09-2006 03:00:04 12.9 C 8.34 g/m*3 12.9 C 0 km/h
2034 08-09-2006 03:10:04 12.9 C 8.34 g/m*3 12.9 C 0 km/h
2035 08-09-2006 03:20:04 13.1 C 8.33 g/m*3 13.1 C 0 km/h
2036 08-09-2006 03:30:04 13.1 C 8.33 g/m*3 13.1 C 0 km/h
2037 08-09-2006 03:40:03 13.2 C 8.27 g/m*3 13.2 C 0 km/h
2038 08-09-2006 03:50:03 13.2 C 8.27 g/m*3 13.2 C 0 km/h
2039 08-09-2006 04:00:03 13 C 8.28 g/m*3 13 C 0 km/h
2040 08-09-2006 04:10:03 13 C 8.39 g/m*3 13 C 0 km/h
2041 08-09-2006 04:20:02 13.1 C 8.44 g/m*3 13.1 C 0 km/h
2042 08-09-2006 04:30:02 13 C 8.39 g/m*3 13 C 0 km/h
2043 08-09-2006 04:40:02 12.8 C 8.51 g/m*3 12.8 C 0 km/h
2044 08-09-2006 04:50:02 12.8 C 8.51 g/m*3 12.8 C 0 km/h
2045 08-09-2006 05:00:02 12.5 C 8.58 g/m*3 12.5 C 0 km/h
2046 08-09-2006 05:10:02 12.5 C 8.58 g/m*3 12.5 C 0 km/h
2047 08-09-2006 05:20:02 12.5 C 8.58 g/m*3 12.5 C 0 km/h
2048 08-09-2006 05:30:02 12.2 C 8.52 g/m*3 12.2 C 0 km/h
2049 08-09-2006 05:40:01 12 C 8.53 g/m*3 12 C 0 km/h
2050 08-09-2006 05:50:02 11.8 C 8.63 g/m*3 11.8 C 0 km/h
Sensor: Nr:Datum:Temp:Abs-Feuchte:Windchill:Wind:
Aussen-T/F 2051 08-09-2006 06:00:02 11.7 C 8.68 g/m*3 11.7 C 0 km/h
2052 08-09-2006 06:10:02 11.8 C 8.74 g/m*3 11.8 C 0 km/h
2053 08-09-2006 06:20:02 11.9 C 8.9 g/m*3 11.9 C 0 km/h
2054 08-09-2006 06:30:02 12.1 C 8.9 g/m*3 12.1 C 0 km/h
2055 08-09-2006 06:40:02 12.2 C 8.74 g/m*3 12.2 C 0 km/h
2056 08-09-2006 06:50:02 12.4 C 8.85 g/m*3 12.4 C 0 km/h
2057 08-09-2006 07:00:02 12.2 C 8.74 g/m*3 12.2 C 0 km/h
2058 08-09-2006 07:10:02 12.1 C 8.58 g/m*3 12.1 C 0 km/h
2059 08-09-2006 07:20:02 12.1 C 8.69 g/m*3 12.1 C 0 km/h
2060 08-09-2006 07:30:02 12.2 C 8.74 g/m*3 12.2 C 0 km/h
2061 08-09-2006 07:40:03 12 C 8.63 g/m*3 12 C 0 km/h
2062 08-09-2006 07:50:01 12 C 8.63 g/m*3 12 C 0 km/h
2063 08-09-2006 08:00:01 12.4 C 8.96 g/m*3 12.4 C 0 km/h
2064 08-09-2006 08:10:04 12.7 C 9.02 g/m*3 12.7 C 0 km/h
2065 08-09-2006 08:20:02 12.7 C 8.79 g/m*3 12.7 C 0 km/h
2066 08-09-2006 08:30:02 12.9 C 9.02 g/m*3 12.9 C 0 km/h
2067 08-09-2006 08:40:02 13.3 C 9.13 g/m*3 13.3 C 0 km/h
2068 08-09-2006 08:50:03 13.8 C 9.06 g/m*3 13.8 C 0 km/h
2069 08-09-2006 09:00:03 13.8 C 8.94 g/m*3 13.8 C 0 km/h
2070 08-09-2006 09:10:02 13.7 C 9 g/m*3 13.7 C 0 km/h
2071 08-09-2006 09:20:02 13.6 C 8.94 g/m*3 13.6 C 0 km/h
2072 08-09-2006 09:30:02 13.7 C 8.88 g/m*3 13.7 C 0 km/h
2073 08-09-2006 09:40:02 14.2 C 8.79 g/m*3 14.2 C 0 km/h
2074 08-09-2006 09:50:02 14.7 C 8.56 g/m*3 14.7 C 0 km/h
2075 08-09-2006 10:00:02 15.2 C 8.57 g/m*3 15.2 C 0 km/h
Sensor: Nr:Datum:Temp:Abs-Feuchte:Windchill:Wind:
Aussen-T/F 2076 08-09-2006 10:10:01 15 C 8.33 g/m*3 15 C 0 km/h
2077 08-09-2006 10:20:01 14.8 C 8.11 g/m*3 14.8 C 0 km/h
2078 08-09-2006 10:30:01 14.8 C 8.11 g/m*3 14.8 C 0 km/h
2079 08-09-2006 10:40:01 16.2 C 8.27 g/m*3 16.2 C 0 km/h
2080 08-09-2006 10:50:03 16.8 C 8.29 g/m*3 16.8 C 0 km/h
2081 08-09-2006 11:00:03 16.9 C 7.91 g/m*3 16.9 C 0 km/h
2082 08-09-2006 11:10:02 16.8 C 7.58 g/m*3 16.8 C 0 km/h
2083 08-09-2006 11:20:02 17.2 C 7.61 g/m*3 17.2 C 0 km/h
2084 08-09-2006 11:30:02 18.3 C 7.66 g/m*3 18.3 C 0 km/h
2085 08-09-2006 11:40:02 17.3 C 7.07 g/m*3 17.3 C 0 km/h
2086 08-09-2006 11:50:02 17.5 C 7.45 g/m*3 17.5 C 0 km/h
2087 08-09-2006 12:00:02 18.1 C 7.11 g/m*3 18.1 C 0 km/h
2088 08-09-2006 12:10:01 18.9 C 7.45 g/m*3 18.9 C 0 km/h
2089 08-09-2006 12:20:01 19.4 C 7.01 g/m*3 19.4 C 0 km/h
2090 08-09-2006 12:30:01 19 C 6.84 g/m*3 19 C 0 km/h
2091 08-09-2006 12:40:01 18.5 C 6.65 g/m*3 18.5 C 0 km/h
2092 08-09-2006 12:50:02 18.7 C 6.72 g/m*3 18.7 C 0 km/h
2093 08-09-2006 13:00:02 18.7 C 6.56 g/m*3 18.7 C 0 km/h
2094 08-09-2006 13:10:02 19.6 C 6.75 g/m*3 19.6 C 0 km/h
2095 08-09-2006 13:20:01 19.3 C 6.63 g/m*3 19.3 C 0 km/h
2096 08-09-2006 13:30:01 19.2 C 6.6 g/m*3 19.2 C 0 km/h
2097 08-09-2006 13:40:01 20 C 6.57 g/m*3 20 C 0 km/h
2098 08-09-2006 13:50:02 19.9 C 6.36 g/m*3 19.9 C 0 km/h
2099 08-09-2006 14:00:02 21.5 C 6.98 g/m*3 21.5 C 0 km/h
2100 08-09-2006 14:10:01 20.3 C 6.33 g/m*3 20.3 C 0 km/h
Sensor: Nr:Datum:Temp:Abs-Feuchte:Windchill:Wind:
Aussen-T/F 2101 08-09-2006 14:20:01 20.1 C 6.61 g/m*3 20.1 C 0 km/h
2102 08-09-2006 14:30:01 21.9 C 6.56 g/m*3 21.9 C 0 km/h
2103 08-09-2006 14:40:01 21 C 6.41 g/m*3 21 C 0 km/h
2104 08-09-2006 14:50:02 21.4 C 6.56 g/m*3 21.4 C 0 km/h
2105 08-09-2006 15:00:02 22.7 C 6.47 g/m*3 22.7 C 0 km/h
2106 08-09-2006 15:10:02 23.3 C 6.06 g/m*3 23.3 C 0 km/h
2107 08-09-2006 15:20:03 22.7 C 6.47 g/m*3 22.7 C 0 km/h
2108 08-09-2006 15:30:03 22.7 C 6.26 g/m*3 22.7 C 0 km/h
2109 08-09-2006 15:40:02 23 C 6.37 g/m*3 23 C 0 km/h
2110 08-09-2006 15:50:03 24.2 C 6.16 g/m*3 24.2 C 0 km/h
2111 08-09-2006 16:00:04 23.4 C 6.1 g/m*3 23.4 C 0 km/h
2112 08-09-2006 16:10:03 23.3 C 6.27 g/m*3 23.3 C 0 km/h
2113 08-09-2006 16:20:02 24 C 5.87 g/m*3 24 C 0 km/h
2114 08-09-2006 16:30:02 23.4 C 6.1 g/m*3 23.4 C 0 km/h
2115 08-09-2006 16:40:02 24.3 C 5.97 g/m*3 24.3 C 0 km/h
2116 08-09-2006 16:50:02 24.5 C 6.27 g/m*3 24.5 C 0 km/h
2117 08-09-2006 17:00:02 22.5 C 5.99 g/m*3 22.5 C 0 km/h
2118 08-09-2006 17:10:02 24.1 C 6.35 g/m*3 24.1 C 0 km/h
2119 08-09-2006 17:20:01 24.3 C 5.97 g/m*3 24.3 C 0 km/h
2120 08-09-2006 17:30:01 24.2 C 5.72 g/m*3 24.2 C 0 km/h
2121 08-09-2006 17:40:02 23.6 C 5.96 g/m*3 23.6 C 0 km/h
2122 08-09-2006 17:50:03 23.3 C 6.27 g/m*3 23.3 C 0 km/h
2123 08-09-2006 18:00:03 23.3 C 5.85 g/m*3 23.3 C 0 km/h
2124 08-09-2006 18:10:03 23.8 C 5.59 g/m*3 23.8 C 0 km/h
2125 08-09-2006 18:20:03 22.9 C 5.72 g/m*3 22.9 C 0 km/h
Sensor: Nr:Datum:Temp:Abs-Feuchte:Windchill:Wind:
Aussen-T/F 2126 08-09-2006 18:30:03 22.7 C 6.06 g/m*3 22.7 C 0 km/h
2127 08-09-2006 18:40:03 22.4 C 6.16 g/m*3 22.4 C 0 km/h
2128 08-09-2006 18:50:02 22.3 C 6.12 g/m*3 22.3 C 0 km/h
2129 08-09-2006 19:00:03 22.1 C 6.05 g/m*3 22.1 C 0 km/h
2130 08-09-2006 19:10:02 22.3 C 6.52 g/m*3 22.3 C 0 km/h
2131 08-09-2006 19:20:02 22 C 6.4 g/m*3 22 C 0 km/h
2132 08-09-2006 19:30:02 21.6 C 6.83 g/m*3 21.6 C 0 km/h
2133 08-09-2006 19:40:03 20.6 C 7.16 g/m*3 20.6 C 0 km/h
2134 08-09-2006 19:50:02 19.5 C 7.22 g/m*3 19.5 C 0 km/h
2135 08-09-2006 20:00:02 18.4 C 7.24 g/m*3 18.4 C 0 km/h
2136 08-09-2006 20:10:02 18 C 6.91 g/m*3 18 C 0 km/h
2137 08-09-2006 20:20:01 17.5 C 7.01 g/m*3 17.5 C 0 km/h
2138 08-09-2006 20:30:01 16.8 C 7.01 g/m*3 16.8 C 0 km/h
2139 08-09-2006 20:40:04 16.3 C 7.08 g/m*3 16.3 C 0 km/h
2140 08-09-2006 20:50:03 15.8 C 7.27 g/m*3 15.8 C 0 km/h
2141 08-09-2006 21:00:03 15.6 C 7.31 g/m*3 15.6 C 0 km/h
2142 08-09-2006 21:10:03 15.5 C 7.27 g/m*3 15.5 C 0 km/h
2143 08-09-2006 21:20:02 15.1 C 7.22 g/m*3 15.1 C 0 km/h
2144 08-09-2006 21:30:02 15.2 C 7.4 g/m*3 15.2 C 0 km/h
2145 08-09-2006 21:40:02 15 C 7.44 g/m*3 15 C 0 km/h
2146 08-09-2006 21:50:02 14.8 C 7.6 g/m*3 14.8 C 0 km/h
2147 08-09-2006 22:00:02 14.6 C 7.63 g/m*3 14.6 C 0 km/h
2148 08-09-2006 22:10:02 14.5 C 7.71 g/m*3 14.5 C 0 km/h
2149 08-09-2006 22:20:02 14.5 C 7.71 g/m*3 14.5 C 0 km/h
2150 08-09-2006 22:30:02 14.2 C 7.69 g/m*3 14.2 C 0 km/h
Sensor: Nr:Datum:Temp:Abs-Feuchte:Windchill:Wind:
Aussen-T/F 2151 08-09-2006 22:40:02 14.1 C 7.65 g/m*3 14.1 C 0 km/h
2152 08-09-2006 22:50:02 14.1 C 7.77 g/m*3 14.1 C 0 km/h
2153 08-09-2006 23:00:02 13.8 C 7.74 g/m*3 13.8 C 0 km/h
2154 08-09-2006 23:10:02 13.7 C 7.7 g/m*3 13.7 C 0 km/h
2155 08-09-2006 23:20:01 13.5 C 7.6 g/m*3 13.5 C 0 km/h
2156 08-09-2006 23:30:01 13.4 C 7.67 g/m*3 13.4 C 0 km/h
2157 08-09-2006 23:40:02 13.2 C 7.46 g/m*3 13.2 C 0 km/h
2158 08-09-2006 23:50:02 13.1 C 7.53 g/m*3 13.1 C 0 km/h
2159 09-09-2006 00:00:02 12.9 C 7.66 g/m*3 12.9 C 0 km/h
2160 09-09-2006 00:10:03 12.7 C 7.79 g/m*3 12.7 C 0 km/h
2161 09-09-2006 00:20:04 12.5 C 7.59 g/m*3 12.5 C 0 km/h
2162 09-09-2006 00:30:04 12.4 C 7.54 g/m*3 12.4 C 0 km/h
2163 09-09-2006 00:40:03 12.2 C 7.55 g/m*3 12.2 C 0 km/h
2164 09-09-2006 00:50:02 12.1 C 7.51 g/m*3 12.1 C 0 km/h
2165 09-09-2006 01:00:02 12 C 7.57 g/m*3 12 C 0 km/h
2166 09-09-2006 01:10:03 11.9 C 7.63 g/m*3 11.9 C 0 km/h
2167 09-09-2006 01:20:03 11.6 C 7.48 g/m*3 11.6 C 0 km/h
2168 09-09-2006 01:30:03 11.5 C 7.64 g/m*3 11.5 C 0 km/h
2169 09-09-2006 01:40:02 11.4 C 7.6 g/m*3 11.4 C 0 km/h
2170 09-09-2006 01:50:02 11.2 C 7.6 g/m*3 11.2 C 0 km/h
2171 09-09-2006 02:00:03 11 C 7.51 g/m*3 11 C 0 km/h
2172 09-09-2006 02:10:02 10.9 C 7.66 g/m*3 10.9 C 0 km/h
2173 09-09-2006 02:20:03 10.9 C 7.76 g/m*3 10.9 C 0 km/h
2174 09-09-2006 02:30:03 10.8 C 7.81 g/m*3 10.8 C 0 km/h
2175 09-09-2006 02:40:02 10.7 C 7.76 g/m*3 10.7 C 0 km/h
Sensor: Nr:Datum:Temp:Abs-Feuchte:Windchill:Wind:
Aussen-T/F 2176 09-09-2006 02:51:04 10.6 C 7.71 g/m*3 10.6 C 0 km/h
2177 09-09-2006 03:01:04 10.5 C 7.76 g/m*3 10.5 C 0 km/h
2178 09-09-2006 03:11:03 10.4 C 7.81 g/m*3 10.4 C 0 km/h
2179 09-09-2006 03:21:04 10.4 C 7.81 g/m*3 10.4 C 0 km/h
2180 09-09-2006 03:31:02 10.2 C 7.71 g/m*3 10.2 C 0 km/h
2181 09-09-2006 03:41:03 10.1 C 7.66 g/m*3 10.1 C 0 km/h
2182 09-09-2006 03:51:03 10.1 C 7.66 g/m*3 10.1 C 0 km/h
2183 09-09-2006 04:01:03 9.9 C 7.66 g/m*3 9.9 C 0 km/h
2184 09-09-2006 04:11:03 9.8 C 7.7 g/m*3 9.8 C 0 km/h
2185 09-09-2006 04:21:03 9.8 C 7.79 g/m*3 9.8 C 0 km/h
2186 09-09-2006 04:31:02 9.7 C 7.74 g/m*3 9.7 C 0 km/h
2187 09-09-2006 04:41:02 9.6 C 7.69 g/m*3 9.6 C 0 km/h
2188 09-09-2006 04:51:03 9.5 C 7.65 g/m*3 9.5 C 0 km/h
2189 09-09-2006 05:01:02 9.4 C 7.69 g/m*3 9.4 C 0 km/h
2190 09-09-2006 05:11:02 9.3 C 7.64 g/m*3 9.3 C 0 km/h
2191 09-09-2006 05:21:02 9.2 C 7.59 g/m*3 9.2 C 0 km/h
2192 09-09-2006 05:31:02 9.3 C 7.73 g/m*3 9.3 C 0 km/h
2193 09-09-2006 05:41:02 9.1 C 7.54 g/m*3 9.1 C 0 km/h
2194 09-09-2006 05:51:02 9.1 C 7.63 g/m*3 9.1 C 0 km/h
2195 09-09-2006 06:01:02 9 C 7.58 g/m*3 9 C 0 km/h
2196 09-09-2006 06:11:02 9 C 7.58 g/m*3 9 C 0 km/h
2197 09-09-2006 06:21:02 8.9 C 7.62 g/m*3 8.9 C 0 km/h
2198 09-09-2006 06:31:02 8.7 C 7.52 g/m*3 8.7 C 0 km/h
2199 09-09-2006 06:41:02 8.7 C 7.52 g/m*3 8.7 C 0 km/h
2200 09-09-2006 06:51:02 8.6 C 7.48 g/m*3 8.6 C 0 km/h
Sensor: Nr:Datum:Temp:Abs-Feuchte:Windchill:Wind:
Aussen-T/F 2201 09-09-2006 07:01:02 8.6 C 7.48 g/m*3 8.6 C 0 km/h
2202 09-09-2006 07:11:02 8.6 C 7.48 g/m*3 8.6 C 0 km/h
2203 09-09-2006 07:21:01 8.6 C 7.56 g/m*3 8.6 C 0 km/h
2204 09-09-2006 07:31:01 8.6 C 7.56 g/m*3 8.6 C 0 km/h
2205 09-09-2006 07:41:01 8.7 C 7.61 g/m*3 8.7 C 0 km/h
2206 09-09-2006 07:51:02 8.7 C 7.61 g/m*3 8.7 C 0 km/h
2207 09-09-2006 08:01:02 8.8 C 7.75 g/m*3 8.8 C 0 km/h
2208 09-09-2006 08:11:02 8.8 C 7.75 g/m*3 8.8 C 0 km/h
2209 09-09-2006 08:21:02 8.9 C 7.8 g/m*3 8.9 C 0 km/h
2210 09-09-2006 08:31:01 9 C 7.76 g/m*3 9 C 0 km/h
2211 09-09-2006 08:41:01 9.2 C 7.86 g/m*3 9.2 C 0 km/h
2212 09-09-2006 08:51:02 9.3 C 8 g/m*3 9.3 C 0 km/h
2213 09-09-2006 09:01:02 9.6 C 8.15 g/m*3 9.6 C 0 km/h
2214 09-09-2006 09:11:02 9.8 C 8.26 g/m*3 9.8 C 0 km/h
2215 09-09-2006 09:21:01 10.1 C 8.32 g/m*3 10.1 C 0 km/h
2216 09-09-2006 09:31:01 10.7 C 8.64 g/m*3 10.7 C 0 km/h
2217 09-09-2006 09:41:01 11.1 C 8.76 g/m*3 11.1 C 0 km/h
2218 09-09-2006 09:51:02 11.7 C 8.89 g/m*3 11.7 C 0 km/h
2219 09-09-2006 10:01:02 12.4 C 8.74 g/m*3 12.4 C 0 km/h
2220 09-09-2006 10:11:02 12.7 C 8.79 g/m*3 12.7 C 0 km/h
2221 09-09-2006 10:21:02 13.4 C 8.25 g/m*3 13.4 C 0 km/h
2222 09-09-2006 10:31:03 14 C 8.32 g/m*3 14 C 0 km/h
2223 09-09-2006 10:41:03 14.4 C 8.16 g/m*3 14.4 C 0 km/h
2224 09-09-2006 10:51:02 15 C 7.95 g/m*3 15 C 0 km/h
2225 09-09-2006 11:01:02 15.4 C 8.01 g/m*3 15.4 C 0 km/h
Sensor: Nr:Datum:Temp:Abs-Feuchte:Windchill:Wind:
Aussen-T/F 2226 09-09-2006 11:11:02 15.6 C 7.85 g/m*3 15.6 C 0 km/h
2227 09-09-2006 11:21:02 16.2 C 8 g/m*3 16.2 C 0 km/h
2228 09-09-2006 11:34:02 16.7 C 7.96 g/m*3 16.7 C 0 km/h
2229 09-09-2006 11:44:02 17.2 C 7.91 g/m*3 17.2 C 0 km/h
2230 09-09-2006 11:54:03 17.5 C 8.05 g/m*3 17.5 C 0 km/h
2231 09-09-2006 12:04:03 18.1 C 7.88 g/m*3 18.1 C 0 km/h
2232 09-09-2006 12:14:03 18.4 C 8.02 g/m*3 18.4 C 0 km/h
2233 09-09-2006 12:24:02 18.7 C 7.84 g/m*3 18.7 C 0 km/h
2234 09-09-2006 12:34:02 19.2 C 7.75 g/m*3 19.2 C 0 km/h
2235 09-09-2006 12:44:02 19.4 C 7.84 g/m*3 19.4 C 0 km/h
2236 09-09-2006 12:54:02 19.6 C 7.77 g/m*3 19.6 C 0 km/h
2237 09-09-2006 13:04:02 19.9 C 7.9 g/m*3 19.9 C 0 km/h
2238 09-09-2006 13:14:02 20.2 C 7.34 g/m*3 20.2 C 0 km/h
2239 09-09-2006 13:24:01 20.9 C 7.47 g/m*3 20.9 C 0 km/h
2240 09-09-2006 13:34:03 21.3 C 7.46 g/m*3 21.3 C 0 km/h
2241 09-09-2006 13:44:03 21.7 C 7.06 g/m*3 21.7 C 0 km/h
2242 09-09-2006 13:54:01 22.2 C 6.48 g/m*3 22.2 C 0 km/h
2243 09-09-2006 14:04:02 22.8 C 6.71 g/m*3 22.8 C 0 km/h
2244 09-09-2006 14:14:02 23.4 C 6.73 g/m*3 23.4 C 0 km/h
2245 09-09-2006 14:24:01 23.7 C 6.42 g/m*3 23.7 C 0 km/h
2246 09-09-2006 14:34:02 24 C 6.53 g/m*3 24 C 0 km/h
2247 09-09-2006 14:44:02 24.6 C 6.53 g/m*3 24.6 C 0 km/h
2248 09-09-2006 14:54:03 24.8 C 6.37 g/m*3 24.8 C 0 km/h
2249 09-09-2006 15:04:03 25.1 C 6.25 g/m*3 25.1 C 0 km/h
2250 09-09-2006 15:14:03 25.4 C 6.12 g/m*3 25.4 C 0 km/h
Sensor: Nr:Datum:Temp:Abs-Feuchte:Windchill:Wind:
Aussen-T/F 2251 09-09-2006 15:24:03 25.6 C 5.95 g/m*3 25.6 C 0 km/h
2252 09-09-2006 15:34:03 25.5 C 6.16 g/m*3 25.5 C 0 km/h
2253 09-09-2006 15:44:03 26.3 C 6.44 g/m*3 26.3 C 0 km/h
2254 09-09-2006 15:54:02 26.3 C 5.94 g/m*3 26.3 C 0 km/h
2255 09-09-2006 16:04:03 26.8 C 6.36 g/m*3 26.8 C 0 km/h
2256 09-09-2006 16:14:03 27 C 5.92 g/m*3 27 C 0 km/h
2257 09-09-2006 16:24:02 27.3 C 6.02 g/m*3 27.3 C 0 km/h
2258 09-09-2006 16:34:08 27.7 C 6.15 g/m*3 27.7 C 0 km/h
2259 09-09-2006 16:44:08 28.2 C 5.77 g/m*3 28.2 C 0 km/h
2260 09-09-2006 16:54:03 27.9 C 5.68 g/m*3 27.9 C 0 km/h
2261 09-09-2006 17:04:02 28.3 C 5.81 g/m*3 28.3 C 0 km/h
2262 09-09-2006 17:14:02 28.9 C 5.71 g/m*3 28.9 C 0 km/h
2263 09-09-2006 17:24:02 28.7 C 5.65 g/m*3 28.7 C 0 km/h
2264 09-09-2006 17:34:02 28.9 C 5.71 g/m*3 28.9 C 0 km/h
2265 09-09-2006 17:44:02 28.9 C 5.71 g/m*3 28.9 C 0 km/h
2266 09-09-2006 17:54:02 28.8 C 5.68 g/m*3 28.8 C 0 km/h
2267 09-09-2006 18:04:02 28.7 C 5.65 g/m*3 28.7 C 0 km/h
2268 09-09-2006 18:14:02 28.3 C 5.81 g/m*3 28.3 C 0 km/h
2269 09-09-2006 18:24:02 27.4 C 5.26 g/m*3 27.4 C 0 km/h
2270 09-09-2006 18:34:02 27.9 C 5.68 g/m*3 27.9 C 0 km/h
2271 09-09-2006 18:44:02 27.5 C 5.56 g/m*3 27.5 C 0 km/h
2272 09-09-2006 18:54:02 27.3 C 6.54 g/m*3 27.3 C 0 km/h
2273 09-09-2006 19:04:03 26.9 C 6.65 g/m*3 26.9 C 0 km/h
2274 09-09-2006 19:14:03 26.1 C 6.12 g/m*3 26.1 C 0 km/h
2275 09-09-2006 19:24:02 24.5 C 6.71 g/m*3 24.5 C 0 km/h
Sensor: Nr:Datum:Temp:Abs-Feuchte:Windchill:Wind:
Aussen-T/F 2276 09-09-2006 19:34:02 23.4 C 6.73 g/m*3 23.4 C 0 km/h
2277 09-09-2006 19:44:02 22.3 C 6.71 g/m*3 22.3 C 0 km/h
2278 09-09-2006 19:54:02 21.2 C 6.86 g/m*3 21.2 C 0 km/h
2279 09-09-2006 20:04:02 20.6 C 6.98 g/m*3 20.6 C 0 km/h
2280 09-09-2006 20:14:02 19.9 C 6.87 g/m*3 19.9 C 0 km/h
2281 09-09-2006 20:24:02 19.6 C 6.92 g/m*3 19.6 C 0 km/h
2282 09-09-2006 20:34:02 19.4 C 7.01 g/m*3 19.4 C 0 km/h
2283 09-09-2006 20:44:02 19.1 C 7.05 g/m*3 19.1 C 0 km/h
2284 09-09-2006 20:54:02 18.7 C 7.2 g/m*3 18.7 C 0 km/h
2285 09-09-2006 21:04:03 18.1 C 7.11 g/m*3 18.1 C 0 km/h
2286 09-09-2006 21:14:03 17.8 C 7.29 g/m*3 17.8 C 0 km/h
2287 09-09-2006 21:24:02 17.7 C 7.24 g/m*3 17.7 C 0 km/h
2288 09-09-2006 21:34:02 17.5 C 7.31 g/m*3 17.5 C 0 km/h
2289 09-09-2006 21:44:02 17.3 C 7.37 g/m*3 17.3 C 0 km/h
2290 09-09-2006 21:54:01 17.2 C 7.47 g/m*3 17.2 C 0 km/h
2291 09-09-2006 22:04:01 17 C 7.38 g/m*3 17 C 0 km/h
2292 09-09-2006 22:14:01 16.8 C 7.58 g/m*3 16.8 C 0 km/h
2293 09-09-2006 22:24:02 16.4 C 7.54 g/m*3 16.4 C 0 km/h
2294 09-09-2006 22:34:02 16.4 C 7.68 g/m*3 16.4 C 0 km/h
2295 09-09-2006 22:44:02 16.2 C 7.72 g/m*3 16.2 C 0 km/h
2296 09-09-2006 22:54:02 15.9 C 7.72 g/m*3 15.9 C 0 km/h
2297 09-09-2006 23:04:02 15.6 C 7.71 g/m*3 15.6 C 0 km/h
2298 09-09-2006 23:14:02 15.4 C 7.75 g/m*3 15.4 C 0 km/h
2299 09-09-2006 23:24:01 15.1 C 7.74 g/m*3 15.1 C 0 km/h
2300 09-09-2006 23:34:01 15.1 C 7.87 g/m*3 15.1 C 0 km/h
Sensor: Nr:Datum:Temp:Abs-Feuchte:Windchill:Wind:
Aussen-T/F 2301 09-09-2006 23:44:01 14.8 C 7.98 g/m*3 14.8 C 0 km/h
2302 09-09-2006 23:54:02 14.8 C 8.11 g/m*3 14.8 C 0 km/h
2303 10-09-2006 00:04:02 14.6 C 8.01 g/m*3 14.6 C 0 km/h
2304 10-09-2006 00:14:02 14.3 C 7.99 g/m*3 14.3 C 0 km/h
2305 10-09-2006 00:24:03 14.3 C 7.99 g/m*3 14.3 C 0 km/h
2306 10-09-2006 00:34:02 14.3 C 7.99 g/m*3 14.3 C 0 km/h
2307 10-09-2006 00:44:02 14.3 C 7.99 g/m*3 14.3 C 0 km/h
2308 10-09-2006 00:54:02 14.3 C 7.99 g/m*3 14.3 C 0 km/h
2309 10-09-2006 01:04:02 14.3 C 7.99 g/m*3 14.3 C 0 km/h
2310 10-09-2006 01:14:02 14.3 C 7.99 g/m*3 14.3 C 0 km/h
2311 10-09-2006 01:24:03 14.3 C 7.99 g/m*3 14.3 C 0 km/h
2312 10-09-2006 01:34:02 14.3 C 7.99 g/m*3 14.3 C 0 km/h
2313 10-09-2006 01:44:02 14.3 C 7.99 g/m*3 14.3 C 0 km/h
2314 10-09-2006 01:54:03 14.3 C 7.99 g/m*3 14.3 C 0 km/h
2315 10-09-2006 02:04:03 14.3 C 7.99 g/m*3 14.3 C 0 km/h
2316 10-09-2006 02:14:03 14.3 C 7.99 g/m*3 14.3 C 0 km/h
2317 10-09-2006 02:24:02 14.3 C 7.99 g/m*3 14.3 C 0 km/h
2318 10-09-2006 02:34:02 14.3 C 7.99 g/m*3 14.3 C 0 km/h
2319 10-09-2006 02:44:02 14.3 C 7.99 g/m*3 14.3 C 0 km/h
2320 10-09-2006 02:55:05 14.3 C 7.99 g/m*3 14.3 C 0 km/h
2321 10-09-2006 03:05:05 14.3 C 7.99 g/m*3 14.3 C 0 km/h
2322 10-09-2006 03:15:04 14.3 C 7.99 g/m*3 14.3 C 0 km/h
2323 10-09-2006 03:25:04 14.3 C 7.99 g/m*3 14.3 C 0 km/h
2324 10-09-2006 03:35:02 14.3 C 7.99 g/m*3 14.3 C 0 km/h
2325 10-09-2006 03:45:02 14.3 C 7.99 g/m*3 14.3 C 0 km/h
Sensor: Nr:Datum:Temp:Abs-Feuchte:Windchill:Wind:
Aussen-T/F 2326 10-09-2006 03:55:02 14.3 C 7.99 g/m*3 14.3 C 0 km/h
2327 10-09-2006 04:05:03 14.3 C 7.99 g/m*3 14.3 C 0 km/h
2328 10-09-2006 04:15:02 14.3 C 7.99 g/m*3 14.3 C 0 km/h
2329 10-09-2006 04:25:03 14.3 C 7.99 g/m*3 14.3 C 0 km/h
2330 10-09-2006 04:35:02 14.3 C 7.99 g/m*3 14.3 C 0 km/h
2331 10-09-2006 04:45:03 14.3 C 7.99 g/m*3 14.3 C 0 km/h
2332 10-09-2006 04:55:03 14.3 C 7.99 g/m*3 14.3 C 0 km/h
2333 10-09-2006 05:05:02 14.3 C 7.99 g/m*3 14.3 C 0 km/h
2334 10-09-2006 05:15:02 14.3 C 7.99 g/m*3 14.3 C 0 km/h
2335 10-09-2006 05:25:02 10.7 C 8.15 g/m*3 10.7 C 0 km/h
2336 10-09-2006 05:35:03 10.6 C 8.1 g/m*3 10.6 C 0 km/h
2337 10-09-2006 05:45:02 10.4 C 8 g/m*3 10.4 C 0 km/h
2338 10-09-2006 05:55:03 10.4 C 8 g/m*3 10.4 C 0 km/h
2339 10-09-2006 06:05:02 10.4 C 8 g/m*3 10.4 C 0 km/h
2340 10-09-2006 06:15:01 10.4 C 8 g/m*3 10.4 C 0 km/h
2341 10-09-2006 06:25:01 10.4 C 8 g/m*3 10.4 C 0 km/h
2342 10-09-2006 06:35:02 10.4 C 8 g/m*3 10.4 C 0 km/h
2343 10-09-2006 06:45:02 10.4 C 8 g/m*3 10.4 C 0 km/h
2344 10-09-2006 06:55:03 10.4 C 8 g/m*3 10.4 C 0 km/h
2345 10-09-2006 07:05:02 10.4 C 8 g/m*3 10.4 C 0 km/h
2346 10-09-2006 07:15:01 10.2 C 7.9 g/m*3 10.2 C 0 km/h
2347 10-09-2006 07:25:01 10.2 C 7.9 g/m*3 10.2 C 0 km/h
2348 10-09-2006 07:35:01 10.2 C 7.9 g/m*3 10.2 C 0 km/h
2349 10-09-2006 07:45:02 10.2 C 7.9 g/m*3 10.2 C 0 km/h
2350 10-09-2006 07:55:02 10.2 C 7.9 g/m*3 10.2 C 0 km/h
Sensor: Nr:Datum:Temp:Abs-Feuchte:Windchill:Wind:
Aussen-T/F 2351 10-09-2006 08:05:02 10.5 C 8.15 g/m*3 10.5 C 0 km/h
2352 10-09-2006 08:15:01 10.5 C 8.15 g/m*3 10.5 C 0 km/h
2353 10-09-2006 08:25:01 10.5 C 8.15 g/m*3 10.5 C 0 km/h
2354 10-09-2006 08:35:01 10.5 C 8.15 g/m*3 10.5 C 0 km/h
2355 10-09-2006 08:45:02 11.2 C 8.51 g/m*3 11.2 C 0 km/h
2356 10-09-2006 08:55:02 11.5 C 8.68 g/m*3 11.5 C 0 km/h
2357 10-09-2006 09:05:02 11.7 C 8.79 g/m*3 11.7 C 0 km/h
2358 10-09-2006 09:15:02 11.8 C 8.84 g/m*3 11.8 C 0 km/h
2359 10-09-2006 09:25:02 12.4 C 9.07 g/m*3 12.4 C 0 km/h
2360 10-09-2006 09:35:02 12.7 C 9.02 g/m*3 12.7 C 0 km/h
2361 10-09-2006 09:45:02 12.9 C 9.13 g/m*3 12.9 C 0 km/h
2362 10-09-2006 09:55:02 13.6 C 8.94 g/m*3 13.6 C 0 km/h
2363 10-09-2006 10:05:03 13.8 C 8.94 g/m*3 13.8 C 0 km/h
2364 10-09-2006 10:15:02 14.4 C 8.9 g/m*3 14.4 C 0 km/h
2365 10-09-2006 10:25:02 15 C 8.85 g/m*3 15 C 0 km/h
2366 10-09-2006 10:35:02 15.4 C 8.93 g/m*3 15.4 C 0 km/h
2367 10-09-2006 10:45:01 15.8 C 8.75 g/m*3 15.8 C 0 km/h
2368 10-09-2006 10:55:01 16.4 C 8.93 g/m*3 16.4 C 0 km/h
2369 10-09-2006 11:05:02 17 C 8.25 g/m*3 17 C 0 km/h
2370 10-09-2006 11:15:02 17.4 C 8.74 g/m*3 17.4 C 0 km/h
2371 10-09-2006 11:25:02 17.8 C 8.95 g/m*3 17.8 C 0 km/h
2372 10-09-2006 11:35:02 18.3 C 8.91 g/m*3 18.3 C 0 km/h
2373 10-09-2006 11:45:01 18.8 C 9.02 g/m*3 18.8 C 0 km/h
2374 10-09-2006 11:55:01 19.5 C 8.56 g/m*3 19.5 C 0 km/h
2375 10-09-2006 12:05:03 19.7 C 8.49 g/m*3 19.7 C 0 km/h
Sensor: Nr:Datum:Temp:Abs-Feuchte:Windchill:Wind:
Aussen-T/F 2376 10-09-2006 12:15:02 20.3 C 8.79 g/m*3 20.3 C 0 km/h
2377 10-09-2006 12:25:02 20.7 C 8.46 g/m*3 20.7 C 0 km/h
2378 10-09-2006 12:35:02 21 C 9.16 g/m*3 21 C 0 km/h
2379 10-09-2006 12:45:01 21.4 C 8.25 g/m*3 21.4 C 0 km/h
2380 10-09-2006 12:55:01 21.8 C 8.44 g/m*3 21.8 C 0 km/h
2381 10-09-2006 13:05:02 22 C 8.15 g/m*3 22 C 0 km/h
2382 10-09-2006 13:15:01 22.3 C 8.49 g/m*3 22.3 C 0 km/h
2383 10-09-2006 13:25:01 22.8 C 8.13 g/m*3 22.8 C 0 km/h
2384 10-09-2006 13:35:03 23.3 C 7.95 g/m*3 23.3 C 0 km/h
2385 10-09-2006 13:45:02 23.9 C 8.22 g/m*3 23.9 C 0 km/h
2386 10-09-2006 13:55:02 24.4 C 8.23 g/m*3 24.4 C 0 km/h
2387 10-09-2006 14:05:02 24.9 C 8.47 g/m*3 24.9 C 0 km/h
2388 10-09-2006 14:15:02 25.5 C 8.29 g/m*3 25.5 C 0 km/h
2389 10-09-2006 14:25:02 25.8 C 7.7 g/m*3 25.8 C 0 km/h
2390 10-09-2006 14:35:02 26.1 C 7.83 g/m*3 26.1 C 0 km/h
2391 10-09-2006 14:45:02 26.6 C 8.56 g/m*3 26.6 C 0 km/h
2392 10-09-2006 14:55:02 27.1 C 8.02 g/m*3 27.1 C 0 km/h
2393 10-09-2006 15:05:02 27.6 C 7.98 g/m*3 27.6 C 0 km/h
2394 10-09-2006 15:15:02 27.6 C 7.71 g/m*3 27.6 C 0 km/h
2395 10-09-2006 15:25:03 28 C 7.61 g/m*3 28 C 0 km/h
2396 10-09-2006 15:35:02 27.7 C 8.02 g/m*3 27.7 C 0 km/h
2397 10-09-2006 15:45:02 27.7 C 9.36 g/m*3 27.7 C 0 km/h
2398 10-09-2006 15:55:03 27.7 C 9.36 g/m*3 27.7 C 0 km/h
2399 10-09-2006 16:05:02 27.6 C 8.25 g/m*3 27.6 C 0 km/h
2400 10-09-2006 16:15:02 29.1 C 8.38 g/m*3 29.1 C 0 km/h
Sensor: Nr:Datum:Temp:Abs-Feuchte:Windchill:Wind:
Aussen-T/F 2401 10-09-2006 16:25:03 30.1 C 7.93 g/m*3 30.1 C 0 km/h
2402 10-09-2006 16:35:02 30 C 7.58 g/m*3 30 C 0 km/h
2403 10-09-2006 16:45:01 30.3 C 8.01 g/m*3 30.3 C 0 km/h
2404 10-09-2006 16:55:01 30.2 C 7.66 g/m*3 30.2 C 0 km/h
2405 10-09-2006 17:05:03 30.7 C 7.56 g/m*3 30.7 C 0 km/h
2406 10-09-2006 17:15:02 30.8 C 7.28 g/m*3 30.8 C 0 km/h
2407 10-09-2006 17:25:02 30.1 C 7.62 g/m*3 30.1 C 0 km/h
2408 10-09-2006 17:35:02 30.1 C 8.23 g/m*3 30.1 C 0 km/h
2409 10-09-2006 17:45:01 30.4 C 8.06 g/m*3 30.4 C 0 km/h
2410 10-09-2006 17:55:01 30.4 C 8.37 g/m*3 30.4 C 0 km/h
2411 10-09-2006 18:05:02 30.1 C 9.15 g/m*3 30.1 C 0 km/h
2412 10-09-2006 18:15:02 30 C 8.19 g/m*3 30 C 0 km/h
2413 10-09-2006 18:25:02 29.4 C 8.51 g/m*3 29.4 C 0 km/h
2414 10-09-2006 18:35:02 29 C 8.04 g/m*3 29 C 0 km/h
2415 10-09-2006 18:45:03 28 C 9.52 g/m*3 28 C 0 km/h
2416 10-09-2006 18:55:03 27.6 C 8.51 g/m*3 27.6 C 0 km/h
2417 10-09-2006 19:05:03 27.3 C 9.42 g/m*3 27.3 C 0 km/h
2418 10-09-2006 19:15:02 26 C 9.25 g/m*3 26 C 0 km/h
2419 10-09-2006 19:25:02 25.3 C 9.13 g/m*3 25.3 C 0 km/h
2420 10-09-2006 19:35:02 24.2 C 9.24 g/m*3 24.2 C 0 km/h
2421 10-09-2006 19:45:02 23.2 C 9.56 g/m*3 23.2 C 0 km/h
2422 10-09-2006 19:55:02 22.6 C 9.44 g/m*3 22.6 C 0 km/h
2423 10-09-2006 20:05:02 21.9 C 9.46 g/m*3 21.9 C 0 km/h
2424 10-09-2006 20:15:02 21.6 C 9.29 g/m*3 21.6 C 0 km/h
2425 10-09-2006 20:25:02 21.5 C 9.43 g/m*3 21.5 C 0 km/h
Sensor: Nr:Datum:Temp:Abs-Feuchte:Windchill:Wind:
Aussen-T/F 2426 10-09-2006 20:35:02 20.8 C 9.42 g/m*3 20.8 C 0 km/h
2427 10-09-2006 20:45:02 20.3 C 9.5 g/m*3 20.3 C 0 km/h
2428 10-09-2006 20:55:02 19.8 C 9.57 g/m*3 19.8 C 0 km/h
2429 10-09-2006 21:05:02 19.7 C 9.68 g/m*3 19.7 C 0 km/h
2430 10-09-2006 21:15:01 19.5 C 9.57 g/m*3 19.5 C 0 km/h
2431 10-09-2006 21:25:01 19.3 C 9.62 g/m*3 19.3 C 0 km/h
2432 10-09-2006 21:35:03 19.2 C 9.73 g/m*3 19.2 C 0 km/h
2433 10-09-2006 21:45:01 19.1 C 9.84 g/m*3 19.1 C 0 km/h
2434 10-09-2006 21:55:01 19 C 9.78 g/m*3 19 C 0 km/h
2435 10-09-2006 22:05:02 18.9 C 9.88 g/m*3 18.9 C 0 km/h
2436 10-09-2006 22:15:02 18.7 C 9.93 g/m*3 18.7 C 0 km/h
2437 10-09-2006 22:25:02 18.5 C 9.97 g/m*3 18.5 C 0 km/h
2438 10-09-2006 22:35:02 18.4 C 9.91 g/m*3 18.4 C 0 km/h
2439 10-09-2006 22:45:03 18.1 C 9.89 g/m*3 18.1 C 0 km/h
2440 10-09-2006 22:55:03 18.1 C 10.04 g/m*3 18.1 C 0 km/h
2441 10-09-2006 23:05:03 18 C 9.98 g/m*3 18 C 0 km/h
2442 10-09-2006 23:15:03 17.8 C 10.17 g/m*3 17.8 C 0 km/h
2443 10-09-2006 23:25:03 17.7 C 10.26 g/m*3 17.7 C 0 km/h
2444 10-09-2006 23:35:02 17.4 C 10.08 g/m*3 17.4 C 0 km/h
2445 10-09-2006 23:45:02 17.2 C 10.1 g/m*3 17.2 C 0 km/h
2446 10-09-2006 23:55:02 17.1 C 10.04 g/m*3 17.1 C 0 km/h
2447 11-09-2006 00:05:03 17 C 10.13 g/m*3 17 C 0 km/h
2448 11-09-2006 00:15:02 16.8 C 10.29 g/m*3 16.8 C 0 km/h
2449 11-09-2006 00:25:02 16.7 C 10.37 g/m*3 16.7 C 0 km/h
2450 11-09-2006 00:35:02 16.6 C 10.31 g/m*3 16.6 C 0 km/h
Sensor: Nr:Datum:Temp:Abs-Feuchte:Windchill:Wind:
Aussen-T/F 2451 11-09-2006 00:45:03 16.4 C 10.05 g/m*3 16.4 C 0 km/h
2452 11-09-2006 00:55:03 16.4 C 10.19 g/m*3 16.4 C 0 km/h
2453 11-09-2006 01:05:03 16.3 C 10.27 g/m*3 16.3 C 0 km/h
2454 11-09-2006 01:15:03 16.1 C 10.14 g/m*3 16.1 C 0 km/h
2455 11-09-2006 01:25:03 16 C 10.08 g/m*3 16 C 0 km/h
2456 11-09-2006 01:35:03 15.8 C 10.1 g/m*3 15.8 C 0 km/h
2457 11-09-2006 01:45:02 15.6 C 9.97 g/m*3 15.6 C 0 km/h
2458 11-09-2006 01:55:02 15.4 C 9.99 g/m*3 15.4 C 0 km/h
2459 11-09-2006 02:05:03 15.3 C 9.92 g/m*3 15.3 C 0 km/h
2460 11-09-2006 02:15:02 15 C 9.87 g/m*3 15 C 0 km/h
2461 11-09-2006 02:25:02 15.1 C 10.06 g/m*3 15.1 C 0 km/h
2462 11-09-2006 02:35:02 14.9 C 10.07 g/m*3 14.9 C 0 km/h
2463 11-09-2006 02:46:04 14.9 C 10.07 g/m*3 14.9 C 0 km/h
2464 11-09-2006 02:56:04 14.7 C 10.07 g/m*3 14.7 C 0 km/h
2465 11-09-2006 03:06:04 14.7 C 10.07 g/m*3 14.7 C 0 km/h
2466 11-09-2006 03:16:04 14.5 C 9.95 g/m*3 14.5 C 0 km/h
2467 11-09-2006 03:26:04 14.4 C 9.89 g/m*3 14.4 C 0 km/h
2468 11-09-2006 03:36:03 14.4 C 9.89 g/m*3 14.4 C 0 km/h
2469 11-09-2006 03:46:03 14.3 C 9.83 g/m*3 14.3 C 0 km/h
2470 11-09-2006 03:56:03 14.1 C 9.71 g/m*3 14.1 C 0 km/h
2471 11-09-2006 04:06:02 14.1 C 9.83 g/m*3 14.1 C 0 km/h
2472 11-09-2006 04:16:02 14 C 9.77 g/m*3 14 C 0 km/h
2473 11-09-2006 04:26:02 13.9 C 9.83 g/m*3 13.9 C 0 km/h
2474 11-09-2006 04:36:03 13.7 C 9.71 g/m*3 13.7 C 0 km/h
2475 11-09-2006 04:46:02 13.7 C 9.71 g/m*3 13.7 C 0 km/h
Sensor: Nr:Datum:Temp:Abs-Feuchte:Windchill:Wind:
Aussen-T/F 2476 11-09-2006 04:56:02 13.7 C 9.71 g/m*3 13.7 C 0 km/h
2477 11-09-2006 05:06:02 13.6 C 9.65 g/m*3 13.6 C 0 km/h
2478 11-09-2006 05:16:02 13.5 C 9.71 g/m*3 13.5 C 0 km/h
2479 11-09-2006 05:26:03 13.4 C 9.65 g/m*3 13.4 C 0 km/h
2480 11-09-2006 05:36:02 13.5 C 9.83 g/m*3 13.5 C 0 km/h
2481 11-09-2006 05:46:03 13.3 C 9.7 g/m*3 13.3 C 0 km/h
2482 11-09-2006 05:56:03 13.2 C 9.53 g/m*3 13.2 C 0 km/h
2483 11-09-2006 06:06:02 13.2 C 9.64 g/m*3 13.2 C 0 km/h
2484 11-09-2006 06:16:02 13.1 C 9.59 g/m*3 13.1 C 0 km/h
2485 11-09-2006 06:26:02 13 C 9.53 g/m*3 13 C 0 km/h
2486 11-09-2006 06:36:02 13 C 9.53 g/m*3 13 C 0 km/h
2487 11-09-2006 06:46:02 12.8 C 9.52 g/m*3 12.8 C 0 km/h
2488 11-09-2006 06:56:02 12.8 C 9.52 g/m*3 12.8 C 0 km/h
2489 11-09-2006 07:06:02 12.8 C 9.52 g/m*3 12.8 C 0 km/h
2490 11-09-2006 07:16:02 12.8 C 9.52 g/m*3 12.8 C 0 km/h
2491 11-09-2006 07:26:02 12.8 C 9.52 g/m*3 12.8 C 0 km/h
2492 11-09-2006 07:36:01 12.9 C 9.58 g/m*3 12.9 C 0 km/h
2493 11-09-2006 07:46:02 12.9 C 9.69 g/m*3 12.9 C 0 km/h
2494 11-09-2006 07:56:02 13 C 9.64 g/m*3 13 C 0 km/h
2495 11-09-2006 08:06:02 13 C 9.64 g/m*3 13 C 0 km/h
2496 11-09-2006 08:16:02 13.1 C 9.7 g/m*3 13.1 C 0 km/h
2497 11-09-2006 08:26:02 13.2 C 9.76 g/m*3 13.2 C 0 km/h
2498 11-09-2006 08:36:02 13.5 C 9.94 g/m*3 13.5 C 0 km/h
2499 11-09-2006 08:46:02 13.6 C 9.89 g/m*3 13.6 C 0 km/h
2500 11-09-2006 08:56:02 13.7 C 9.95 g/m*3 13.7 C 0 km/h
Sensor: Nr:Datum:Temp:Abs-Feuchte:Windchill:Wind:
Aussen-T/F 2501 11-09-2006 09:06:02 13.8 C 10.01 g/m*3 13.8 C 0 km/h
2502 11-09-2006 09:16:03 14.1 C 10.07 g/m*3 14.1 C 0 km/h
2503 11-09-2006 09:26:03 14.4 C 10.26 g/m*3 14.4 C 0 km/h
2504 11-09-2006 09:36:03 14.9 C 10.58 g/m*3 14.9 C 0 km/h
2505 11-09-2006 09:46:02 15.3 C 10.19 g/m*3 15.3 C 0 km/h
2506 11-09-2006 09:56:02 15.5 C 10.18 g/m*3 15.5 C 0 km/h
2507 11-09-2006 10:06:02 15.9 C 10.43 g/m*3 15.9 C 0 km/h
2508 11-09-2006 10:16:02 16.2 C 10.62 g/m*3 16.2 C 0 km/h
2509 11-09-2006 10:26:03 16.7 C 10.66 g/m*3 16.7 C 0 km/h
2510 11-09-2006 10:36:03 17.3 C 10.75 g/m*3 17.3 C 0 km/h
2511 11-09-2006 10:46:01 17.9 C 10.69 g/m*3 17.9 C 0 km/h
2512 11-09-2006 10:56:01 18.3 C 10.63 g/m*3 18.3 C 0 km/h
2513 11-09-2006 11:06:03 18.9 C 11.02 g/m*3 18.9 C 0 km/h
2514 11-09-2006 11:16:01 19.3 C 10.95 g/m*3 19.3 C 0 km/h
2515 11-09-2006 11:26:01 19.7 C 11.21 g/m*3 19.7 C 0 km/h
2516 11-09-2006 11:36:01 20.1 C 10.95 g/m*3 20.1 C 0 km/h
2517 11-09-2006 11:46:03 20.9 C 11.29 g/m*3 20.9 C 0 km/h
2518 11-09-2006 11:56:03 21.6 C 11.38 g/m*3 21.6 C 0 km/h
2519 11-09-2006 12:06:02 21.9 C 11.77 g/m*3 21.9 C 0 km/h
2520 11-09-2006 12:16:02 22.5 C 11.39 g/m*3 22.5 C 0 km/h
2521 11-09-2006 12:26:02 22.9 C 11.44 g/m*3 22.9 C 0 km/h
2522 11-09-2006 12:36:02 23.5 C 11 g/m*3 23.5 C 0 km/h
2523 11-09-2006 12:46:02 23.7 C 11.76 g/m*3 23.7 C 0 km/h
2524 11-09-2006 12:56:02 24 C 11.53 g/m*3 24 C 0 km/h
2525 11-09-2006 13:06:02 24.5 C 11.41 g/m*3 24.5 C 0 km/h
Sensor: Nr:Datum:Temp:Abs-Feuchte:Windchill:Wind:
Aussen-T/F 2526 11-09-2006 13:16:03 24.9 C 11.67 g/m*3 24.9 C 0 km/h
2527 11-09-2006 13:26:03 25.7 C 11.25 g/m*3 25.7 C 0 km/h
2528 11-09-2006 13:36:02 26 C 11.69 g/m*3 26 C 0 km/h
2529 11-09-2006 13:46:02 26.5 C 11.01 g/m*3 26.5 C 0 km/h
2530 11-09-2006 13:56:02 27.5 C 10.58 g/m*3 27.5 C 0 km/h
2531 11-09-2006 14:06:02 28 C 10.61 g/m*3 28 C 0 km/h
2532 11-09-2006 14:16:02 28.4 C 10.01 g/m*3 28.4 C 0 km/h
2533 11-09-2006 14:26:03 28.7 C 9.89 g/m*3 28.7 C 0 km/h
2534 11-09-2006 14:36:02 29.1 C 9.82 g/m*3 29.1 C 0 km/h
2535 11-09-2006 14:46:02 29.5 C 8.85 g/m*3 29.5 C 0 km/h
2536 11-09-2006 14:56:02 29.6 C 9.2 g/m*3 29.6 C 0 km/h
2537 11-09-2006 15:06:02 30 C 9.4 g/m*3 30 C 0 km/h
2538 11-09-2006 15:16:02 30 C 9.4 g/m*3 30 C 0 km/h
2539 11-09-2006 15:26:02 30.6 C 9.08 g/m*3 30.6 C 0 km/h
2540 11-09-2006 15:36:02 30.7 C 8.5 g/m*3 30.7 C 0 km/h
2541 11-09-2006 15:46:01 30.8 C 8.86 g/m*3 30.8 C 0 km/h
2542 11-09-2006 15:56:01 30.9 C 8.91 g/m*3 30.9 C 0 km/h
2543 11-09-2006 16:06:02 31 C 9.6 g/m*3 31 C 0 km/h
2544 11-09-2006 16:16:02 31 C 8.32 g/m*3 31 C 0 km/h
2545 11-09-2006 16:26:02 31.2 C 8.09 g/m*3 31.2 C 0 km/h
2546 11-09-2006 16:36:02 31.3 C 9.11 g/m*3 31.3 C 0 km/h
2547 11-09-2006 16:46:01 31.2 C 8.09 g/m*3 31.2 C 0 km/h
2548 11-09-2006 16:56:01 31.4 C 9.48 g/m*3 31.4 C 0 km/h
2549 11-09-2006 17:06:02 31.4 C 8.17 g/m*3 31.4 C 0 km/h
2550 11-09-2006 17:16:02 31.5 C 8.55 g/m*3 31.5 C 0 km/h
Sensor: Nr:Datum:Temp:Abs-Feuchte:Windchill:Wind:
Aussen-T/F 2551 11-09-2006 17:26:02 31.1 C 8.69 g/m*3 31.1 C 0 km/h
2552 11-09-2006 17:36:02 31.1 C 9.97 g/m*3 31.1 C 0 km/h
2553 11-09-2006 17:46:02 31 C 9.92 g/m*3 31 C 0 km/h
2554 11-09-2006 17:56:02 30.9 C 10.19 g/m*3 30.9 C 0 km/h
2555 11-09-2006 18:06:02 30.9 C 9.87 g/m*3 30.9 C 0 km/h
2556 11-09-2006 18:16:02 30.7 C 9.76 g/m*3 30.7 C 0 km/h
2557 11-09-2006 18:26:02 30.4 C 10.23 g/m*3 30.4 C 0 km/h
2558 11-09-2006 18:36:03 30.1 C 10.67 g/m*3 30.1 C 0 km/h
2559 11-09-2006 18:46:03 29.5 C 11.22 g/m*3 29.5 C 0 km/h
2560 11-09-2006 18:56:03 28.9 C 11.14 g/m*3 28.9 C 0 km/h
2561 11-09-2006 19:06:03 28.3 C 11.06 g/m*3 28.3 C 0 km/h
2562 11-09-2006 19:16:02 27.7 C 11.5 g/m*3 27.7 C 0 km/h
2563 11-09-2006 19:26:02 26.8 C 11.45 g/m*3 26.8 C 0 km/h
2564 11-09-2006 19:36:03 26 C 11.2 g/m*3 26 C 0 km/h
2565 11-09-2006 19:46:02 25.3 C 11.24 g/m*3 25.3 C 0 km/h
2566 11-09-2006 19:56:02 24.9 C 11.45 g/m*3 24.9 C 0 km/h
2567 11-09-2006 20:06:03 24.5 C 11.64 g/m*3 24.5 C 0 km/h
2568 11-09-2006 20:16:03 24.1 C 11.38 g/m*3 24.1 C 0 km/h
2569 11-09-2006 20:26:03 24 C 11.53 g/m*3 24 C 0 km/h
2570 11-09-2006 20:36:03 23.8 C 11.62 g/m*3 23.8 C 0 km/h
2571 11-09-2006 20:46:03 23.4 C 11.78 g/m*3 23.4 C 0 km/h
2572 11-09-2006 20:56:03 23.3 C 11.71 g/m*3 23.3 C 0 km/h
2573 11-09-2006 21:06:04 23.2 C 11.85 g/m*3 23.2 C 0 km/h
2574 11-09-2006 21:16:03 22.9 C 12.06 g/m*3 22.9 C 0 km/h
2575 11-09-2006 21:26:03 22.6 C 12.05 g/m*3 22.6 C 0 km/h
Sensor: Nr:Datum:Temp:Abs-Feuchte:Windchill:Wind:
Aussen-T/F 2576 11-09-2006 21:36:02 22.2 C 12.17 g/m*3 22.2 C 0 km/h
2577 11-09-2006 21:46:03 22.2 C 12.37 g/m*3 22.2 C 0 km/h
2578 11-09-2006 21:56:03 21.9 C 12.35 g/m*3 21.9 C 0 km/h
2579 11-09-2006 22:06:03 21.8 C 12.47 g/m*3 21.8 C 0 km/h
2580 11-09-2006 22:16:03 21.6 C 12.33 g/m*3 21.6 C 0 km/h
2581 11-09-2006 22:26:03 21.5 C 12.45 g/m*3 21.5 C 0 km/h
2582 11-09-2006 22:36:02 21.5 C 12.45 g/m*3 21.5 C 0 km/h
2583 11-09-2006 22:46:02 21.4 C 12.37 g/m*3 21.4 C 0 km/h
2584 11-09-2006 22:56:02 21 C 12.46 g/m*3 21 C 0 km/h
2585 11-09-2006 23:06:02 20.8 C 12.49 g/m*3 20.8 C 0 km/h
2586 11-09-2006 23:16:02 20.6 C 12.53 g/m*3 20.6 C 0 km/h
2587 11-09-2006 23:26:02 20.4 C 12.38 g/m*3 20.4 C 0 km/h
2588 11-09-2006 23:36:02 20.2 C 12.41 g/m*3 20.2 C 0 km/h
2589 11-09-2006 23:46:02 20 C 12.44 g/m*3 20 C 0 km/h
2590 11-09-2006 23:56:03 19.8 C 12.47 g/m*3 19.8 C 0 km/h
2591 12-09-2006 00:06:02 19.7 C 12.4 g/m*3 19.7 C 0 km/h
2592 12-09-2006 00:16:03 19.5 C 12.59 g/m*3 19.5 C 0 km/h
2593 12-09-2006 00:26:03 19.5 C 12.59 g/m*3 19.5 C 0 km/h
2594 12-09-2006 00:36:03 19.4 C 12.51 g/m*3 19.4 C 0 km/h
2595 12-09-2006 00:46:03 19.3 C 12.44 g/m*3 19.3 C 0 km/h
2596 12-09-2006 00:56:03 19.2 C 12.53 g/m*3 19.2 C 0 km/h
2597 12-09-2006 01:06:03 19.1 C 12.46 g/m*3 19.1 C 0 km/h
2598 12-09-2006 01:16:03 19 C 12.39 g/m*3 19 C 0 km/h
2599 12-09-2006 01:26:03 18.9 C 12.31 g/m*3 18.9 C 0 km/h
2600 12-09-2006 01:36:03 18.8 C 12.4 g/m*3 18.8 C 0 km/h
Sensor: Nr:Datum:Temp:Abs-Feuchte:Windchill:Wind:
Aussen-T/F 2601 12-09-2006 01:46:02 18.6 C 12.41 g/m*3 18.6 C 0 km/h
2602 12-09-2006 01:56:02 18.4 C 12.43 g/m*3 18.4 C 0 km/h
2603 12-09-2006 02:06:02 18.2 C 12.28 g/m*3 18.2 C 0 km/h
2604 12-09-2006 02:16:02 18.1 C 12.36 g/m*3 18.1 C 0 km/h
2605 12-09-2006 02:26:02 18 C 12.29 g/m*3 18 C 0 km/h
2606 12-09-2006 02:36:02 17.9 C 12.37 g/m*3 17.9 C 0 km/h
2607 12-09-2006 02:47:03 17.8 C 12.14 g/m*3 17.8 C 0 km/h
2608 12-09-2006 02:57:03 17.7 C 12.22 g/m*3 17.7 C 0 km/h
2609 12-09-2006 03:07:03 17.7 C 12.22 g/m*3 17.7 C 0 km/h
2610 12-09-2006 03:17:03 17.7 C 12.22 g/m*3 17.7 C 0 km/h
2611 12-09-2006 03:27:03 17.5 C 12.23 g/m*3 17.5 C 0 km/h
2612 12-09-2006 03:37:03 17.4 C 12.15 g/m*3 17.4 C 0 km/h
2613 12-09-2006 03:47:03 17.3 C 12.08 g/m*3 17.3 C 0 km/h
2614 12-09-2006 03:57:03 17.2 C 12.01 g/m*3 17.2 C 0 km/h
2615 12-09-2006 04:07:03 17.1 C 11.94 g/m*3 17.1 C 0 km/h
2616 12-09-2006 04:17:03 17 C 11.87 g/m*3 17 C 0 km/h
2617 12-09-2006 04:27:03 16.8 C 11.72 g/m*3 16.8 C 0 km/h
2618 12-09-2006 04:37:03 16.7 C 11.8 g/m*3 16.7 C 0 km/h
2619 12-09-2006 04:47:02 16.6 C 11.72 g/m*3 16.6 C 0 km/h
2620 12-09-2006 04:57:02 16.5 C 11.65 g/m*3 16.5 C 0 km/h
2621 12-09-2006 05:07:02 16.5 C 11.51 g/m*3 16.5 C 0 km/h
2622 12-09-2006 05:17:02 16.3 C 11.52 g/m*3 16.3 C 0 km/h
2623 12-09-2006 05:27:02 16.2 C 11.45 g/m*3 16.2 C 0 km/h
2624 12-09-2006 05:37:02 16.2 C 11.45 g/m*3 16.2 C 0 km/h
2625 12-09-2006 05:47:01 16 C 11.31 g/m*3 16 C 0 km/h
Sensor: Nr:Datum:Temp:Abs-Feuchte:Windchill:Wind:
Aussen-T/F 2626 12-09-2006 05:57:01 15.9 C 11.38 g/m*3 15.9 C 0 km/h
2627 12-09-2006 06:07:02 15.9 C 11.38 g/m*3 15.9 C 0 km/h
2628 12-09-2006 06:17:02 15.8 C 11.31 g/m*3 15.8 C 0 km/h
2629 12-09-2006 06:27:02 15.7 C 11.24 g/m*3 15.7 C 0 km/h
2630 12-09-2006 06:37:02 15.6 C 11.17 g/m*3 15.6 C 0 km/h
2631 12-09-2006 06:47:02 15.4 C 11.04 g/m*3 15.4 C 0 km/h
2632 12-09-2006 06:57:03 15.3 C 10.97 g/m*3 15.3 C 0 km/h
2633 12-09-2006 07:07:02 15.3 C 10.97 g/m*3 15.3 C 0 km/h
2634 12-09-2006 07:17:02 15.2 C 11.03 g/m*3 15.2 C 0 km/h
2635 12-09-2006 07:27:02 15.3 C 11.1 g/m*3 15.3 C 0 km/h
2636 12-09-2006 07:37:02 15.3 C 11.1 g/m*3 15.3 C 0 km/h
2637 12-09-2006 07:47:02 15.3 C 11.1 g/m*3 15.3 C 0 km/h
2638 12-09-2006 07:57:02 15.4 C 11.17 g/m*3 15.4 C 0 km/h
2639 12-09-2006 08:07:02 15.3 C 11.1 g/m*3 15.3 C 0 km/h
2640 12-09-2006 08:17:01 15.3 C 11.23 g/m*3 15.3 C 0 km/h
2641 12-09-2006 08:27:01 15.3 C 11.23 g/m*3 15.3 C 0 km/h
2642 12-09-2006 08:37:01 15.3 C 11.23 g/m*3 15.3 C 0 km/h
2643 12-09-2006 08:47:02 15.6 C 11.44 g/m*3 15.6 C 0 km/h
2644 12-09-2006 08:57:02 15.8 C 11.71 g/m*3 15.8 C 0 km/h
2645 12-09-2006 09:07:02 16 C 11.72 g/m*3 16 C 0 km/h
2646 12-09-2006 09:17:02 16.2 C 11.72 g/m*3 16.2 C 0 km/h
2647 12-09-2006 09:27:02 16.3 C 11.65 g/m*3 16.3 C 0 km/h
2648 12-09-2006 09:37:01 16.5 C 11.8 g/m*3 16.5 C 0 km/h
2649 12-09-2006 09:47:02 17 C 12.15 g/m*3 17 C 0 km/h
2650 12-09-2006 09:57:02 17.5 C 12.37 g/m*3 17.5 C 0 km/h
Sensor: Nr:Datum:Temp:Abs-Feuchte:Windchill:Wind:
Aussen-T/F 2651 12-09-2006 10:07:02 18.1 C 12.52 g/m*3 18.1 C 0 km/h
2652 12-09-2006 10:17:02 18.5 C 12.66 g/m*3 18.5 C 0 km/h
2653 12-09-2006 10:27:02 18.9 C 12.96 g/m*3 18.9 C 0 km/h
2654 12-09-2006 10:37:01 19.3 C 12.94 g/m*3 19.3 C 0 km/h
2655 12-09-2006 10:47:02 20 C 12.96 g/m*3 20 C 0 km/h
2656 12-09-2006 10:57:02 20.4 C 13.09 g/m*3 20.4 C 0 km/h
2657 12-09-2006 11:07:02 21 C 13.19 g/m*3 21 C 0 km/h
2658 12-09-2006 11:17:02 21.3 C 13.23 g/m*3 21.3 C 0 km/h
2659 12-09-2006 11:27:02 22 C 13.39 g/m*3 22 C 0 km/h
2660 12-09-2006 11:37:02 22.6 C 13.46 g/m*3 22.6 C 0 km/h
2661 12-09-2006 11:47:02 23.2 C 13.31 g/m*3 23.2 C 0 km/h
2662 12-09-2006 11:57:02 23.5 C 13.53 g/m*3 23.5 C 0 km/h
2663 12-09-2006 12:07:02 23.7 C 13.48 g/m*3 23.7 C 0 km/h
2664 12-09-2006 12:17:02 24 C 13.49 g/m*3 24 C 0 km/h
2665 12-09-2006 12:27:02 24.6 C 13.05 g/m*3 24.6 C 0 km/h
2666 12-09-2006 12:37:02 25 C 13.35 g/m*3 25 C 0 km/h
2667 12-09-2006 12:47:03 25.5 C 13.02 g/m*3 25.5 C 0 km/h
2668 12-09-2006 12:57:03 25.9 C 12.83 g/m*3 25.9 C 0 km/h
2669 12-09-2006 13:07:02 26.2 C 12.31 g/m*3 26.2 C 0 km/h
2670 12-09-2006 13:17:02 27 C 11.58 g/m*3 27 C 0 km/h
2671 12-09-2006 13:27:02 27.5 C 11.38 g/m*3 27.5 C 0 km/h
2672 12-09-2006 13:37:03 27.3 C 11.25 g/m*3 27.3 C 0 km/h
2673 12-09-2006 13:47:02 28 C 10.33 g/m*3 28 C 0 km/h
2674 12-09-2006 13:57:02 28.1 C 10.66 g/m*3 28.1 C 0 km/h
2675 12-09-2006 14:07:02 28.6 C 9.84 g/m*3 28.6 C 0 km/h
Sensor: Nr:Datum:Temp:Abs-Feuchte:Windchill:Wind:
Aussen-T/F 2676 12-09-2006 14:17:02 29.2 C 9.58 g/m*3 29.2 C 0 km/h
2677 12-09-2006 14:27:02 29.7 C 10.44 g/m*3 29.7 C 0 km/h
2678 12-09-2006 14:37:02 30 C 9.4 g/m*3 30 C 0 km/h
2679 12-09-2006 14:47:02 30.5 C 9.66 g/m*3 30.5 C 0 km/h
2680 12-09-2006 14:57:02 30.7 C 8.82 g/m*3 30.7 C 0 km/h
2681 12-09-2006 15:07:02 30.9 C 9.23 g/m*3 30.9 C 0 km/h
2682 12-09-2006 15:17:02 31.1 C 8.69 g/m*3 31.1 C 0 km/h
2683 12-09-2006 15:27:02 31 C 8.96 g/m*3 31 C 0 km/h
2684 12-09-2006 15:37:02 31.2 C 8.09 g/m*3 31.2 C 0 km/h
2685 12-09-2006 15:47:02 31.3 C 8.46 g/m*3 31.3 C 0 km/h
2686 12-09-2006 15:57:02 31 C 8.32 g/m*3 31 C 0 km/h
2687 12-09-2006 16:07:02 30.7 C 7.87 g/m*3 30.7 C 0 km/h
2688 12-09-2006 16:17:01 31.8 C 8.68 g/m*3 31.8 C 0 km/h
2689 12-09-2006 16:27:01 31.8 C 7.68 g/m*3 31.8 C 0 km/h
2690 12-09-2006 16:37:01 31.9 C 8.06 g/m*3 31.9 C 0 km/h
2691 12-09-2006 16:47:02 31.9 C 8.39 g/m*3 31.9 C 0 km/h
2692 12-09-2006 16:57:02 30.9 C 8.28 g/m*3 30.9 C 0 km/h
2693 12-09-2006 17:07:02 31 C 8.32 g/m*3 31 C 0 km/h
2694 12-09-2006 17:17:02 31.5 C 9.2 g/m*3 31.5 C 0 km/h
2695 12-09-2006 17:27:03 32 C 9.11 g/m*3 32 C 0 km/h
2696 12-09-2006 17:37:02 31.8 C 8.68 g/m*3 31.8 C 0 km/h
2697 12-09-2006 17:47:03 31.8 C 9.02 g/m*3 31.8 C 0 km/h
2698 12-09-2006 17:57:03 31.6 C 8.59 g/m*3 31.6 C 0 km/h
2699 12-09-2006 18:07:02 31.6 C 9.58 g/m*3 31.6 C 0 km/h
2700 12-09-2006 18:17:02 31.4 C 9.81 g/m*3 31.4 C 0 km/h
Sensor: Nr:Datum:Temp:Abs-Feuchte:Windchill:Wind:
Aussen-T/F 2701 12-09-2006 18:27:03 31.1 C 9.97 g/m*3 31.1 C 0 km/h
2702 12-09-2006 18:37:02 30.6 C 10.34 g/m*3 30.6 C 0 km/h
2703 12-09-2006 18:47:02 30 C 10.92 g/m*3 30 C 0 km/h
2704 12-09-2006 18:57:03 29.5 C 10.63 g/m*3 29.5 C 0 km/h
2705 12-09-2006 19:07:01 29.3 C 10.8 g/m*3 29.3 C 0 km/h
2706 12-09-2006 19:17:01 28.9 C 11.14 g/m*3 28.9 C 0 km/h
2707 12-09-2006 19:27:01 28.3 C 11.06 g/m*3 28.3 C 0 km/h
2708 12-09-2006 19:37:03 27 C 11.07 g/m*3 27 C 0 km/h
2709 12-09-2006 19:47:02 25.9 C 11.14 g/m*3 25.9 C 0 km/h
2710 12-09-2006 19:57:02 25.2 C 10.94 g/m*3 25.2 C 0 km/h
2711 12-09-2006 20:07:02 24.5 C 11.19 g/m*3 24.5 C 0 km/h
2712 12-09-2006 20:17:01 24.3 C 10.84 g/m*3 24.3 C 0 km/h
2713 12-09-2006 20:27:01 24 C 10.88 g/m*3 24 C 0 km/h
2714 12-09-2006 20:37:03 23.8 C 10.97 g/m*3 23.8 C 0 km/h
2715 12-09-2006 20:47:02 23.5 C 11 g/m*3 23.5 C 0 km/h
2716 12-09-2006 20:57:02 23.5 C 11.21 g/m*3 23.5 C 0 km/h
2717 12-09-2006 21:07:02 23.3 C 11.29 g/m*3 23.3 C 0 km/h
2718 12-09-2006 21:17:02 23 C 11.1 g/m*3 23 C 0 km/h
2719 12-09-2006 21:27:03 22.8 C 11.18 g/m*3 22.8 C 0 km/h
2720 12-09-2006 21:37:02 22.9 C 11.44 g/m*3 22.9 C 0 km/h
2721 12-09-2006 21:47:02 22.7 C 11.31 g/m*3 22.7 C 0 km/h
2722 12-09-2006 21:57:02 22.5 C 11.19 g/m*3 22.5 C 0 km/h
2723 12-09-2006 22:07:02 22.3 C 11.26 g/m*3 22.3 C 0 km/h
2724 12-09-2006 22:18:03 22 C 11.06 g/m*3 22 C 0 km/h
2725 12-09-2006 22:28:03 22 C 11.26 g/m*3 22 C 0 km/h
Sensor: Nr:Datum:Temp:Abs-Feuchte:Windchill:Wind:
Aussen-T/F 2726 12-09-2006 22:38:03 21.9 C 11.39 g/m*3 21.9 C 0 km/h
2727 12-09-2006 22:48:03 21.7 C 11.45 g/m*3 21.7 C 0 km/h
2728 12-09-2006 22:58:03 21.6 C 11.38 g/m*3 21.6 C 0 km/h
2729 12-09-2006 23:08:03 21.5 C 11.5 g/m*3 21.5 C 0 km/h
2730 12-09-2006 23:18:03 21.3 C 11.56 g/m*3 21.3 C 0 km/h
2731 12-09-2006 23:28:03 21.2 C 11.49 g/m*3 21.2 C 0 km/h
2732 12-09-2006 23:38:03 20.8 C 11.77 g/m*3 20.8 C 0 km/h
2733 12-09-2006 23:48:04 20.6 C 11.81 g/m*3 20.6 C 0 km/h
2734 12-09-2006 23:58:04 20.3 C 11.78 g/m*3 20.3 C 0 km/h
2735 13-09-2006 00:08:04 20.2 C 11.89 g/m*3 20.2 C 0 km/h
2736 13-09-2006 00:18:04 20 C 11.92 g/m*3 20 C 0 km/h
2737 13-09-2006 00:28:04 19.9 C 12.03 g/m*3 19.9 C 0 km/h
2738 13-09-2006 00:38:04 19.7 C 11.89 g/m*3 19.7 C 0 km/h
2739 13-09-2006 00:48:04 19.6 C 11.82 g/m*3 19.6 C 0 km/h
2740 13-09-2006 00:58:04 19.4 C 11.85 g/m*3 19.4 C 0 km/h
2741 13-09-2006 01:08:04 19.3 C 11.78 g/m*3 19.3 C 0 km/h
2742 13-09-2006 01:18:04 19.2 C 11.71 g/m*3 19.2 C 0 km/h
2743 13-09-2006 01:28:04 19.1 C 11.8 g/m*3 19.1 C 0 km/h
2744 13-09-2006 01:38:04 18.9 C 11.99 g/m*3 18.9 C 0 km/h
2745 13-09-2006 01:48:04 18.7 C 11.85 g/m*3 18.7 C 0 km/h
2746 13-09-2006 01:58:04 18.6 C 11.78 g/m*3 18.6 C 0 km/h
2747 13-09-2006 02:08:04 18.5 C 11.71 g/m*3 18.5 C 0 km/h
2748 13-09-2006 02:18:04 18.4 C 11.8 g/m*3 18.4 C 0 km/h
2749 13-09-2006 02:28:04 18.3 C 11.88 g/m*3 18.3 C 0 km/h
2750 13-09-2006 02:38:05 18.2 C 11.81 g/m*3 18.2 C 0 km/h
Sensor: Nr:Datum:Temp:Abs-Feuchte:Windchill:Wind:
Aussen-T/F 2751 13-09-2006 02:48:05 18 C 11.67 g/m*3 18 C 0 km/h
2752 13-09-2006 02:58:05 17.9 C 11.91 g/m*3 17.9 C 0 km/h
2753 13-09-2006 03:08:05 17.9 C 11.91 g/m*3 17.9 C 0 km/h
2754 13-09-2006 03:18:05 17.8 C 11.84 g/m*3 17.8 C 0 km/h
2755 13-09-2006 03:28:05 17.7 C 11.77 g/m*3 17.7 C 0 km/h
2756 13-09-2006 03:38:05 17.8 C 11.99 g/m*3 17.8 C 0 km/h
2757 13-09-2006 03:48:05 17.5 C 11.93 g/m*3 17.5 C 0 km/h
2758 13-09-2006 03:58:05 17.3 C 11.79 g/m*3 17.3 C 0 km/h
2759 13-09-2006 04:08:05 17.2 C 11.57 g/m*3 17.2 C 0 km/h
2760 13-09-2006 04:18:05 17.1 C 11.5 g/m*3 17.1 C 0 km/h
2761 13-09-2006 04:28:05 17 C 11.58 g/m*3 17 C 0 km/h
2762 13-09-2006 04:38:05 16.8 C 11.58 g/m*3 16.8 C 0 km/h
2763 13-09-2006 04:48:05 16.8 C 11.58 g/m*3 16.8 C 0 km/h
2764 13-09-2006 04:58:05 16.6 C 11.58 g/m*3 16.6 C 0 km/h
2765 13-09-2006 05:08:05 16.6 C 11.72 g/m*3 16.6 C 0 km/h
2766 13-09-2006 05:18:05 16.5 C 11.51 g/m*3 16.5 C 0 km/h
2767 13-09-2006 05:28:05 16.3 C 11.38 g/m*3 16.3 C 0 km/h
2768 13-09-2006 05:38:06 16.3 C 11.38 g/m*3 16.3 C 0 km/h
2769 13-09-2006 05:48:06 16.2 C 11.31 g/m*3 16.2 C 0 km/h
2770 13-09-2006 05:58:06 16.1 C 11.24 g/m*3 16.1 C 0 km/h
2771 13-09-2006 06:08:06 16 C 11.17 g/m*3 16 C 0 km/h
2772 13-09-2006 06:18:06 15.8 C 11.17 g/m*3 15.8 C 0 km/h
2773 13-09-2006 06:28:06 15.8 C 11.31 g/m*3 15.8 C 0 km/h
2774 13-09-2006 06:38:06 15.7 C 11.37 g/m*3 15.7 C 0 km/h
2775 13-09-2006 06:48:06 15.6 C 11.17 g/m*3 15.6 C 0 km/h
Sensor: Nr:Datum:Temp:Abs-Feuchte:Windchill:Wind:
Aussen-T/F 2776 13-09-2006 06:58:06 15.6 C 11.17 g/m*3 15.6 C 0 km/h
2777 13-09-2006 07:08:06 15.5 C 11.24 g/m*3 15.5 C 0 km/h
2778 13-09-2006 07:18:06 15.3 C 11.1 g/m*3 15.3 C 0 km/h
2779 13-09-2006 07:28:06 15.3 C 11.1 g/m*3 15.3 C 0 km/h
2780 13-09-2006 07:38:06 15.3 C 11.1 g/m*3 15.3 C 0 km/h
2781 13-09-2006 07:48:06 15.4 C 11.04 g/m*3 15.4 C 0 km/h
2782 13-09-2006 07:58:06 15.5 C 11.24 g/m*3 15.5 C 0 km/h
2783 13-09-2006 08:08:06 15.6 C 11.3 g/m*3 15.6 C 0 km/h
2784 13-09-2006 08:18:07 15.6 C 11.17 g/m*3 15.6 C 0 km/h
2785 13-09-2006 08:28:07 15.7 C 11.37 g/m*3 15.7 C 0 km/h
2786 13-09-2006 08:38:07 15.8 C 11.44 g/m*3 15.8 C 0 km/h
2787 13-09-2006 08:48:07 16 C 11.44 g/m*3 16 C 0 km/h
2788 13-09-2006 08:58:07 16.2 C 11.72 g/m*3 16.2 C 0 km/h
2789 13-09-2006 09:08:03 16.3 C 11.79 g/m*3 16.3 C 0 km/h
2790 13-09-2006 09:18:02 16.5 C 11.94 g/m*3 16.5 C 0 km/h
2791 13-09-2006 09:28:02 16.7 C 12.08 g/m*3 16.7 C 0 km/h
2792 13-09-2006 09:38:02 17 C 12.15 g/m*3 17 C 0 km/h
2793 13-09-2006 09:48:03 17.4 C 12.3 g/m*3 17.4 C 0 km/h
2794 13-09-2006 09:58:03 17.8 C 12.45 g/m*3 17.8 C 0 km/h
2795 13-09-2006 10:08:03 18.3 C 12.51 g/m*3 18.3 C 0 km/h
2796 13-09-2006 10:18:03 18.7 C 12.65 g/m*3 18.7 C 0 km/h
2797 13-09-2006 10:28:03 19.2 C 12.7 g/m*3 19.2 C 0 km/h
2798 13-09-2006 10:38:02 19.5 C 12.75 g/m*3 19.5 C 0 km/h
2799 13-09-2006 10:48:02 20 C 12.62 g/m*3 20 C 0 km/h
2800 13-09-2006 10:58:02 20.7 C 12.6 g/m*3 20.7 C 0 km/h
Sensor: Nr:Datum:Temp:Abs-Feuchte:Windchill:Wind:
Aussen-T/F 2801 13-09-2006 11:08:02 21.1 C 12.53 g/m*3 21.1 C 0 km/h
2802 13-09-2006 11:18:02 21.6 C 12.9 g/m*3 21.6 C 0 km/h
2803 13-09-2006 11:28:02 22 C 12.81 g/m*3 22 C 0 km/h
2804 13-09-2006 11:38:02 22.4 C 12.91 g/m*3 22.4 C 0 km/h
2805 13-09-2006 11:48:02 23 C 12.95 g/m*3 23 C 0 km/h
2806 13-09-2006 11:58:02 23.9 C 13.41 g/m*3 23.9 C 0 km/h
2807 13-09-2006 12:08:02 23.8 C 13.12 g/m*3 23.8 C 0 km/h
2808 13-09-2006 12:18:01 24.4 C 12.91 g/m*3 24.4 C 0 km/h
2809 13-09-2006 12:28:01 25.2 C 12.57 g/m*3 25.2 C 0 km/h
2810 13-09-2006 12:38:01 25.4 C 12.95 g/m*3 25.4 C 0 km/h
2811 13-09-2006 12:48:02 25.6 C 11.67 g/m*3 25.6 C 0 km/h
2812 13-09-2006 12:58:02 26.1 C 12.49 g/m*3 26.1 C 0 km/h
2813 13-09-2006 13:08:02 26.6 C 11.33 g/m*3 26.6 C 0 km/h
2814 13-09-2006 13:18:01 27.1 C 11.39 g/m*3 27.1 C 0 km/h
2815 13-09-2006 13:28:01 27.6 C 11.97 g/m*3 27.6 C 0 km/h
2816 13-09-2006 13:38:01 28.3 C 10.78 g/m*3 28.3 C 0 km/h
2817 13-09-2006 13:48:02 28.9 C 9.71 g/m*3 28.9 C 0 km/h
2818 13-09-2006 13:58:02 29.4 C 10.27 g/m*3 29.4 C 0 km/h
2819 13-09-2006 14:08:02 29.7 C 9.85 g/m*3 29.7 C 0 km/h
2820 13-09-2006 14:18:02 30 C 9.4 g/m*3 30 C 0 km/h
2821 13-09-2006 14:28:02 30.4 C 9.3 g/m*3 30.4 C 0 km/h
2822 13-09-2006 14:38:01 30.6 C 8.46 g/m*3 30.6 C 0 km/h
2823 13-09-2006 14:48:02 30.9 C 8.91 g/m*3 30.9 C 0 km/h
2824 13-09-2006 14:58:02 30.4 C 8.68 g/m*3 30.4 C 0 km/h
2825 13-09-2006 15:08:02 30.6 C 9.08 g/m*3 30.6 C 0 km/h
Sensor: Nr:Datum:Temp:Abs-Feuchte:Windchill:Wind:
Aussen-T/F 2826 13-09-2006 15:18:02 30.7 C 8.82 g/m*3 30.7 C 0 km/h
2827 13-09-2006 15:28:02 30.9 C 8.91 g/m*3 30.9 C 0 km/h
2828 13-09-2006 15:38:01 31 C 9.28 g/m*3 31 C 0 km/h
2829 13-09-2006 15:48:02 30.6 C 8.46 g/m*3 30.6 C 0 km/h
2830 13-09-2006 15:58:03 30.9 C 8.91 g/m*3 30.9 C 0 km/h
2831 13-09-2006 16:08:02 31 C 8.96 g/m*3 31 C 0 km/h
2832 13-09-2006 16:18:02 31.1 C 9.33 g/m*3 31.1 C 0 km/h
2833 13-09-2006 16:28:02 31.2 C 8.73 g/m*3 31.2 C 0 km/h
2834 13-09-2006 16:38:02 30.9 C 9.55 g/m*3 30.9 C 0 km/h
2835 13-09-2006 16:48:02 30.6 C 9.4 g/m*3 30.6 C 0 km/h
2836 13-09-2006 16:58:02 30.4 C 9.61 g/m*3 30.4 C 0 km/h
2837 13-09-2006 17:08:02 30.2 C 10.42 g/m*3 30.2 C 0 km/h
2838 13-09-2006 17:18:02 29.5 C 10.92 g/m*3 29.5 C 0 km/h
2839 13-09-2006 17:28:02 30.4 C 10.85 g/m*3 30.4 C 0 km/h
2840 13-09-2006 17:38:02 30.9 C 10.19 g/m*3 30.9 C 0 km/h
2841 13-09-2006 17:48:02 31 C 10.56 g/m*3 31 C 0 km/h
2842 13-09-2006 17:58:02 30.9 C 10.19 g/m*3 30.9 C 0 km/h
2843 13-09-2006 18:08:02 30.9 C 10.5 g/m*3 30.9 C 0 km/h
2844 13-09-2006 18:18:02 30.9 C 10.82 g/m*3 30.9 C 0 km/h
2845 13-09-2006 18:28:02 30.6 C 10.96 g/m*3 30.6 C 0 km/h
2846 13-09-2006 18:38:02 30 C 10.92 g/m*3 30 C 0 km/h
2847 13-09-2006 18:48:02 29.6 C 10.98 g/m*3 29.6 C 0 km/h
2848 13-09-2006 18:58:02 28.7 C 11.3 g/m*3 28.7 C 0 km/h
2849 13-09-2006 19:08:02 27.6 C 11.17 g/m*3 27.6 C 0 km/h
2850 13-09-2006 19:18:02 26.9 C 11.26 g/m*3 26.9 C 0 km/h
Sensor: Nr:Datum:Temp:Abs-Feuchte:Windchill:Wind:
Aussen-T/F 2851 13-09-2006 19:28:02 26.2 C 11.08 g/m*3 26.2 C 0 km/h
2852 13-09-2006 19:38:03 25.3 C 10.77 g/m*3 25.3 C 0 km/h
2853 13-09-2006 19:48:02 24.9 C 10.99 g/m*3 24.9 C 0 km/h
2854 13-09-2006 19:58:02 24.3 C 10.62 g/m*3 24.3 C 0 km/h
2855 13-09-2006 20:08:02 24.2 C 10.56 g/m*3 24.2 C 0 km/h
2856 13-09-2006 20:18:02 23.7 C 10.69 g/m*3 23.7 C 0 km/h
2857 13-09-2006 20:28:02 23.2 C 10.81 g/m*3 23.2 C 0 km/h
2858 13-09-2006 20:38:02 23.1 C 10.96 g/m*3 23.1 C 0 km/h
2859 13-09-2006 20:48:02 22.9 C 11.04 g/m*3 22.9 C 0 km/h
2860 13-09-2006 20:58:03 22.8 C 10.97 g/m*3 22.8 C 0 km/h
2861 13-09-2006 21:08:02 22.5 C 10.99 g/m*3 22.5 C 0 km/h
2862 13-09-2006 21:18:02 22.4 C 10.92 g/m*3 22.4 C 0 km/h
2863 13-09-2006 21:28:02 22.3 C 10.86 g/m*3 22.3 C 0 km/h
2864 13-09-2006 21:39:48 22.1 C 10.74 g/m*3 22.1 C 0 km/h
2865 13-09-2006 21:49:48 22 C 10.87 g/m*3 22 C 0 km/h
2866 13-09-2006 21:59:48 21.9 C 11 g/m*3 21.9 C 0 km/h
2867 13-09-2006 22:09:48 21.8 C 10.94 g/m*3 21.8 C 0 km/h
2868 13-09-2006 22:19:48 21.7 C 10.87 g/m*3 21.7 C 0 km/h
2869 13-09-2006 22:29:48 21.6 C 11 g/m*3 21.6 C 0 km/h
2870 13-09-2006 22:39:48 21.5 C 10.94 g/m*3 21.5 C 0 km/h
2871 13-09-2006 22:49:48 21.2 C 10.75 g/m*3 21.2 C 0 km/h
2872 13-09-2006 22:59:48 21 C 10.81 g/m*3 21 C 0 km/h
2873 13-09-2006 23:09:48 20.9 C 10.93 g/m*3 20.9 C 0 km/h
2874 13-09-2006 23:19:48 20.8 C 11.05 g/m*3 20.8 C 0 km/h
2875 13-09-2006 23:29:48 20.6 C 10.92 g/m*3 20.6 C 0 km/h
Sensor: Nr:Datum:Temp:Abs-Feuchte:Windchill:Wind:
Aussen-T/F 2876 13-09-2006 23:39:48 20.3 C 10.9 g/m*3 20.3 C 0 km/h
2877 13-09-2006 23:49:48 20.3 C 11.08 g/m*3 20.3 C 0 km/h
2878 13-09-2006 23:59:49 20 C 10.89 g/m*3 20 C 0 km/h
2879 14-09-2006 00:09:49 19.9 C 11.17 g/m*3 19.9 C 0 km/h
2880 14-09-2006 00:19:49 19.7 C 11.21 g/m*3 19.7 C 0 km/h
2881 14-09-2006 00:29:49 19.6 C 11.14 g/m*3 19.6 C 0 km/h
2882 14-09-2006 00:39:49 19.6 C 11.48 g/m*3 19.6 C 0 km/h
2883 14-09-2006 00:49:49 19.4 C 11.18 g/m*3 19.4 C 0 km/h
2884 14-09-2006 00:59:49 19.1 C 11.15 g/m*3 19.1 C 0 km/h
2885 14-09-2006 01:09:49 19 C 11.24 g/m*3 19 C 0 km/h
2886 14-09-2006 01:19:49 18.9 C 11.34 g/m*3 18.9 C 0 km/h
2887 14-09-2006 01:29:49 18.7 C 11.53 g/m*3 18.7 C 0 km/h
2888 14-09-2006 01:39:49 18.6 C 11.46 g/m*3 18.6 C 0 km/h
2889 14-09-2006 01:49:49 18.5 C 11.39 g/m*3 18.5 C 0 km/h
2890 14-09-2006 01:59:49 18.3 C 11.41 g/m*3 18.3 C 0 km/h
2891 14-09-2006 02:09:49 18.2 C 11.35 g/m*3 18.2 C 0 km/h
2892 14-09-2006 02:19:49 18.1 C 11.28 g/m*3 18.1 C 0 km/h
2893 14-09-2006 02:29:49 17.9 C 11.45 g/m*3 17.9 C 0 km/h
2894 14-09-2006 02:39:49 17.9 C 11.45 g/m*3 17.9 C 0 km/h
2895 14-09-2006 02:49:50 17.7 C 11.47 g/m*3 17.7 C 0 km/h
2896 14-09-2006 02:59:50 17.7 C 11.62 g/m*3 17.7 C 0 km/h
2897 14-09-2006 03:09:50 17.5 C 11.78 g/m*3 17.5 C 0 km/h
2898 14-09-2006 03:19:50 17.3 C 11.49 g/m*3 17.3 C 0 km/h
2899 14-09-2006 03:29:50 17.2 C 11.42 g/m*3 17.2 C 0 km/h
2900 14-09-2006 03:39:50 17.1 C 11.35 g/m*3 17.1 C 0 km/h
Sensor: Nr:Datum:Temp:Abs-Feuchte:Windchill:Wind:
Aussen-T/F 2901 14-09-2006 03:49:50 16.9 C 11.36 g/m*3 16.9 C 0 km/h
2902 14-09-2006 03:59:50 16.8 C 11.29 g/m*3 16.8 C 0 km/h
2903 14-09-2006 04:09:50 16.8 C 11.29 g/m*3 16.8 C 0 km/h
2904 14-09-2006 04:19:50 16.7 C 11.23 g/m*3 16.7 C 0 km/h
2905 14-09-2006 04:29:50 16.5 C 11.23 g/m*3 16.5 C 0 km/h
2906 14-09-2006 04:39:50 16.4 C 11.17 g/m*3 16.4 C 0 km/h
2907 14-09-2006 04:49:50 16.4 C 11.17 g/m*3 16.4 C 0 km/h
2908 14-09-2006 04:59:50 16.3 C 11.24 g/m*3 16.3 C 0 km/h
2909 14-09-2006 05:09:50 16.2 C 11.31 g/m*3 16.2 C 0 km/h
2910 14-09-2006 05:19:50 16.1 C 11.24 g/m*3 16.1 C 0 km/h
2911 14-09-2006 05:29:50 16 C 11.17 g/m*3 16 C 0 km/h
2912 14-09-2006 05:39:50 15.7 C 11.11 g/m*3 15.7 C 0 km/h
2913 14-09-2006 05:49:51 15.6 C 11.17 g/m*3 15.6 C 0 km/h
2914 14-09-2006 05:59:51 15.4 C 11.04 g/m*3 15.4 C 0 km/h
2915 14-09-2006 06:09:51 15.2 C 10.9 g/m*3 15.2 C 0 km/h
2916 14-09-2006 06:19:51 15.2 C 10.9 g/m*3 15.2 C 0 km/h
2917 14-09-2006 06:29:51 15.1 C 10.84 g/m*3 15.1 C 0 km/h
2918 14-09-2006 06:39:51 15 C 10.77 g/m*3 15 C 0 km/h
2919 14-09-2006 06:49:51 15 C 10.77 g/m*3 15 C 0 km/h
2920 14-09-2006 06:59:51 14.9 C 10.96 g/m*3 14.9 C 0 km/h
2921 14-09-2006 07:09:51 14.8 C 10.77 g/m*3 14.8 C 0 km/h
2922 14-09-2006 07:19:51 14.9 C 10.96 g/m*3 14.9 C 0 km/h
2923 14-09-2006 07:29:02 14.9 C 10.96 g/m*3 14.9 C 0 km/h
2924 14-09-2006 07:39:02 14.8 C 10.89 g/m*3 14.8 C 0 km/h
2925 14-09-2006 07:49:02 15 C 10.9 g/m*3 15 C 0 km/h
Sensor: Nr:Datum:Temp:Abs-Feuchte:Windchill:Wind:
Aussen-T/F 2926 14-09-2006 07:59:02 15.2 C 11.03 g/m*3 15.2 C 0 km/h
2927 14-09-2006 08:09:02 15.3 C 11.1 g/m*3 15.3 C 0 km/h
2928 14-09-2006 08:19:02 15.3 C 11.1 g/m*3 15.3 C 0 km/h
2929 14-09-2006 08:29:02 15.8 C 11.31 g/m*3 15.8 C 0 km/h
2930 14-09-2006 08:39:02 16.1 C 11.38 g/m*3 16.1 C 0 km/h
2931 14-09-2006 08:49:02 16.3 C 11.38 g/m*3 16.3 C 0 km/h
2932 14-09-2006 08:59:02 16.5 C 11.51 g/m*3 16.5 C 0 km/h
2933 14-09-2006 09:09:03 16.6 C 11.44 g/m*3 16.6 C 0 km/h
2934 14-09-2006 09:19:02 16.6 C 11.3 g/m*3 16.6 C 0 km/h
2935 14-09-2006 09:29:02 16.9 C 11.36 g/m*3 16.9 C 0 km/h
2936 14-09-2006 09:39:03 17.2 C 11.72 g/m*3 17.2 C 0 km/h
2937 14-09-2006 09:49:02 17.6 C 12.15 g/m*3 17.6 C 0 km/h
2938 14-09-2006 09:59:02 18 C 11.98 g/m*3 18 C 0 km/h
2939 14-09-2006 10:09:02 18.3 C 11.88 g/m*3 18.3 C 0 km/h
2940 14-09-2006 10:19:02 18.7 C 11.69 g/m*3 18.7 C 0 km/h
2941 14-09-2006 10:29:02 19.2 C 11.05 g/m*3 19.2 C 0 km/h
2942 14-09-2006 10:39:02 19.7 C 10.87 g/m*3 19.7 C 0 km/h
2943 14-09-2006 10:49:02 20.2 C 10.49 g/m*3 20.2 C 0 km/h
2944 14-09-2006 10:59:02 20.6 C 10.56 g/m*3 20.6 C 0 km/h
2945 14-09-2006 11:09:02 21 C 10.44 g/m*3 21 C 0 km/h
2946 14-09-2006 11:19:02 21.4 C 10.5 g/m*3 21.4 C 0 km/h
2947 14-09-2006 11:29:02 21.6 C 10.24 g/m*3 21.6 C 0 km/h
2948 14-09-2006 11:39:03 22 C 9.9 g/m*3 22 C 0 km/h
2949 14-09-2006 11:49:02 22.5 C 10.19 g/m*3 22.5 C 0 km/h
2950 14-09-2006 11:59:02 22.6 C 10.04 g/m*3 22.6 C 0 km/h
Sensor: Nr:Datum:Temp:Abs-Feuchte:Windchill:Wind:
Aussen-T/F 2951 14-09-2006 12:09:03 23.1 C 10.13 g/m*3 23.1 C 0 km/h
2952 14-09-2006 12:19:02 23.3 C 10.04 g/m*3 23.3 C 0 km/h
2953 14-09-2006 12:29:02 23.7 C 10.27 g/m*3 23.7 C 0 km/h
2954 14-09-2006 12:39:03 23.8 C 10.76 g/m*3 23.8 C 0 km/h
2955 14-09-2006 12:49:03 23.7 C 10.48 g/m*3 23.7 C 0 km/h
2956 14-09-2006 12:59:03 24.1 C 10.94 g/m*3 24.1 C 0 km/h
2957 14-09-2006 13:09:03 24.4 C 10.9 g/m*3 24.4 C 0 km/h
2958 14-09-2006 13:19:02 24.9 C 11.45 g/m*3 24.9 C 0 km/h
2959 14-09-2006 13:29:02 25.6 C 10 g/m*3 25.6 C 0 km/h
2960 14-09-2006 13:39:02 26 C 10.96 g/m*3 26 C 0 km/h
2961 14-09-2006 13:49:02 26.6 C 10.57 g/m*3 26.6 C 0 km/h
2962 14-09-2006 13:59:02 27.2 C 9.63 g/m*3 27.2 C 0 km/h
2963 14-09-2006 14:09:02 27.5 C 10.58 g/m*3 27.5 C 0 km/h
2964 14-09-2006 14:19:02 28.3 C 8.85 g/m*3 28.3 C 0 km/h
2965 14-09-2006 14:29:02 28.5 C 9.5 g/m*3 28.5 C 0 km/h
2966 14-09-2006 14:39:01 28.5 C 9.22 g/m*3 28.5 C 0 km/h
2967 14-09-2006 14:49:02 28.4 C 8.9 g/m*3 28.4 C 0 km/h
2968 14-09-2006 14:59:02 28.8 C 10.51 g/m*3 28.8 C 0 km/h
2969 14-09-2006 15:09:02 29.5 C 8.85 g/m*3 29.5 C 0 km/h
2970 14-09-2006 15:19:02 30 C 8.19 g/m*3 30 C 0 km/h
2971 14-09-2006 15:29:02 30.4 C 8.37 g/m*3 30.4 C 0 km/h
2972 14-09-2006 15:39:02 30.3 C 8.32 g/m*3 30.3 C 0 km/h
2973 14-09-2006 15:49:02 30.1 C 8.54 g/m*3 30.1 C 0 km/h
2974 14-09-2006 15:59:02 29.6 C 8.9 g/m*3 29.6 C 0 km/h
2975 14-09-2006 16:09:02 29.2 C 9.87 g/m*3 29.2 C 0 km/h
Sensor: Nr:Datum:Temp:Abs-Feuchte:Windchill:Wind:
Aussen-T/F 2976 14-09-2006 16:19:02 29.7 C 10.44 g/m*3 29.7 C 0 km/h
2977 14-09-2006 16:29:02 30 C 9.7 g/m*3 30 C 0 km/h
2978 14-09-2006 16:39:02 30.4 C 8.37 g/m*3 30.4 C 0 km/h
2979 14-09-2006 16:49:02 30.1 C 9.15 g/m*3 30.1 C 0 km/h
2980 14-09-2006 16:59:02 29.4 C 9.39 g/m*3 29.4 C 0 km/h
2981 14-09-2006 17:09:02 28.9 C 10 g/m*3 28.9 C 0 km/h
2982 14-09-2006 17:19:02 28.2 C 10.17 g/m*3 28.2 C 0 km/h
2983 14-09-2006 17:29:02 28.2 C 10.17 g/m*3 28.2 C 0 km/h
2984 14-09-2006 17:39:02 26.9 C 10.49 g/m*3 26.9 C 0 km/h
2985 14-09-2006 17:49:02 26.4 C 10.7 g/m*3 26.4 C 0 km/h
2986 14-09-2006 17:59:02 26.1 C 10.53 g/m*3 26.1 C 0 km/h
2987 14-09-2006 18:09:03 25.7 C 11.01 g/m*3 25.7 C 0 km/h
2988 14-09-2006 18:19:03 25.5 C 10.89 g/m*3 25.5 C 0 km/h
2989 14-09-2006 18:29:03 25.2 C 10.94 g/m*3 25.2 C 0 km/h
2990 14-09-2006 18:39:03 25.2 C 10.94 g/m*3 25.2 C 0 km/h
2991 14-09-2006 18:49:02 24.5 C 10.74 g/m*3 24.5 C 0 km/h
2992 14-09-2006 18:59:02 24.2 C 10.56 g/m*3 24.2 C 0 km/h
2993 14-09-2006 19:09:02 23.9 C 10.38 g/m*3 23.9 C 0 km/h
2994 14-09-2006 19:19:02 23.7 C 10.27 g/m*3 23.7 C 0 km/h
2995 14-09-2006 19:29:02 23.5 C 10.36 g/m*3 23.5 C 0 km/h
2996 14-09-2006 19:39:03 23.3 C 10.45 g/m*3 23.3 C 0 km/h
2997 14-09-2006 19:49:03 23.2 C 10.39 g/m*3 23.2 C 0 km/h
2998 14-09-2006 19:59:03 23.1 C 10.34 g/m*3 23.1 C 0 km/h
2999 14-09-2006 20:09:02 23.1 C 10.13 g/m*3 23.1 C 0 km/h
3000 14-09-2006 20:19:03 23.1 C 10.13 g/m*3 23.1 C 0 km/h
Sensor: Nr:Datum:Temp:Abs-Feuchte:Windchill:Wind:
Aussen-T/F 3001 14-09-2006 20:29:03 23 C 10.07 g/m*3 23 C 0 km/h
3002 14-09-2006 20:39:03 22.7 C 10.3 g/m*3 22.7 C 0 km/h
3003 14-09-2006 20:49:02 22.5 C 10.19 g/m*3 22.5 C 0 km/h
3004 14-09-2006 20:59:02 22.1 C 10.15 g/m*3 22.1 C 0 km/h
3005 14-09-2006 21:09:02 21.8 C 10.36 g/m*3 21.8 C 0 km/h
3006 14-09-2006 21:19:02 21.7 C 10.3 g/m*3 21.7 C 0 km/h
3007 14-09-2006 21:29:02 21.5 C 10.37 g/m*3 21.5 C 0 km/h
3008 14-09-2006 21:39:02 21.4 C 10.5 g/m*3 21.4 C 0 km/h
3009 14-09-2006 21:49:01 21.2 C 10.19 g/m*3 21.2 C 0 km/h
3010 14-09-2006 21:59:01 21.1 C 10.32 g/m*3 21.1 C 0 km/h
3011 14-09-2006 22:09:02 21.1 C 10.5 g/m*3 21.1 C 0 km/h
3012 14-09-2006 22:19:02 21.2 C 10.56 g/m*3 21.2 C 0 km/h
3013 14-09-2006 22:29:02 21.2 C 10.75 g/m*3 21.2 C 0 km/h
3014 14-09-2006 22:39:02 21 C 10.62 g/m*3 21 C 0 km/h
3015 14-09-2006 22:49:02 21 C 10.62 g/m*3 21 C 0 km/h
3016 14-09-2006 22:59:02 21 C 10.62 g/m*3 21 C 0 km/h
3017 14-09-2006 23:09:01 20.9 C 10.75 g/m*3 20.9 C 0 km/h
3018 14-09-2006 23:19:01 20.8 C 10.68 g/m*3 20.8 C 0 km/h
3019 14-09-2006 23:29:01 20.7 C 10.62 g/m*3 20.7 C 0 km/h
3020 14-09-2006 23:39:01 20.4 C 10.44 g/m*3 20.4 C 0 km/h
3021 14-09-2006 23:49:02 20.3 C 10.55 g/m*3 20.3 C 0 km/h
3022 14-09-2006 23:59:02 20.1 C 10.6 g/m*3 20.1 C 0 km/h
3023 15-09-2006 00:09:02 19.8 C 10.59 g/m*3 19.8 C 0 km/h
3024 15-09-2006 00:19:03 19.7 C 10.36 g/m*3 19.7 C 0 km/h
3025 15-09-2006 00:29:03 19.8 C 10.42 g/m*3 19.8 C 0 km/h
Sensor: Nr:Datum:Temp:Abs-Feuchte:Windchill:Wind:
Aussen-T/F 3026 15-09-2006 00:39:03 19.7 C 10.02 g/m*3 19.7 C 0 km/h
3027 15-09-2006 00:49:02 19.7 C 10.19 g/m*3 19.7 C 0 km/h
3028 15-09-2006 00:59:03 19.5 C 10.07 g/m*3 19.5 C 0 km/h
3029 15-09-2006 01:09:02 19.5 C 10.24 g/m*3 19.5 C 0 km/h
3030 15-09-2006 01:19:02 19.5 C 10.07 g/m*3 19.5 C 0 km/h
3031 15-09-2006 01:29:02 19.3 C 10.12 g/m*3 19.3 C 0 km/h
3032 15-09-2006 01:39:03 19.1 C 10.33 g/m*3 19.1 C 0 km/h
3033 15-09-2006 01:49:02 19 C 10.43 g/m*3 19 C 0 km/h
3034 15-09-2006 01:59:02 18.8 C 10.31 g/m*3 18.8 C 0 km/h
3035 15-09-2006 02:09:02 18.7 C 10.09 g/m*3 18.7 C 0 km/h
3036 15-09-2006 02:19:01 18.4 C 9.91 g/m*3 18.4 C 0 km/h
3037 15-09-2006 02:29:01 18.2 C 9.79 g/m*3 18.2 C 0 km/h
3038 15-09-2006 02:39:02 18 C 9.83 g/m*3 18 C 0 km/h
3039 15-09-2006 02:50:04 17.9 C 9.92 g/m*3 17.9 C 0 km/h
3040 15-09-2006 03:00:04 17.9 C 10.23 g/m*3 17.9 C 0 km/h
3041 15-09-2006 03:10:04 17.8 C 10.02 g/m*3 17.8 C 0 km/h
3042 15-09-2006 03:20:04 17.7 C 9.96 g/m*3 17.7 C 0 km/h
3043 15-09-2006 03:30:04 17.6 C 9.9 g/m*3 17.6 C 0 km/h
3044 15-09-2006 03:40:02 17.5 C 9.84 g/m*3 17.5 C 0 km/h
3045 15-09-2006 03:50:02 17.4 C 9.93 g/m*3 17.4 C 0 km/h
3046 15-09-2006 04:00:03 17.2 C 9.81 g/m*3 17.2 C 0 km/h
3047 15-09-2006 04:10:03 17.1 C 9.75 g/m*3 17.1 C 0 km/h
3048 15-09-2006 04:20:03 17 C 9.84 g/m*3 17 C 0 km/h
3049 15-09-2006 04:30:03 17 C 9.84 g/m*3 17 C 0 km/h
3050 15-09-2006 04:40:02 17.1 C 9.9 g/m*3 17.1 C 0 km/h
Sensor: Nr:Datum:Temp:Abs-Feuchte:Windchill:Wind:
Aussen-T/F 3051 15-09-2006 04:50:02 17.2 C 10.1 g/m*3 17.2 C 0 km/h
3052 15-09-2006 05:00:02 17.2 C 9.96 g/m*3 17.2 C 0 km/h
3053 15-09-2006 05:10:02 17.3 C 10.02 g/m*3 17.3 C 0 km/h
3054 15-09-2006 05:20:02 17.4 C 9.93 g/m*3 17.4 C 0 km/h
3055 15-09-2006 05:30:02 17.4 C 9.93 g/m*3 17.4 C 0 km/h
3056 15-09-2006 05:40:03 17.5 C 9.84 g/m*3 17.5 C 0 km/h
3057 15-09-2006 05:50:02 17.5 C 9.84 g/m*3 17.5 C 0 km/h
3058 15-09-2006 06:00:02 17.3 C 10.02 g/m*3 17.3 C 0 km/h
3059 15-09-2006 06:10:03 17.3 C 9.87 g/m*3 17.3 C 0 km/h
3060 15-09-2006 06:20:03 17.2 C 9.81 g/m*3 17.2 C 0 km/h
3061 15-09-2006 06:30:03 17.3 C 9.72 g/m*3 17.3 C 0 km/h
3062 15-09-2006 06:40:03 17.3 C 9.58 g/m*3 17.3 C 0 km/h
3063 15-09-2006 06:50:02 17.4 C 9.48 g/m*3 17.4 C 0 km/h
3064 15-09-2006 07:00:02 17.3 C 9.43 g/m*3 17.3 C 0 km/h
3065 15-09-2006 07:10:03 17 C 9.55 g/m*3 17 C 0 km/h
3066 15-09-2006 07:20:02 17 C 9.55 g/m*3 17 C 0 km/h
3067 15-09-2006 07:30:02 16.9 C 9.64 g/m*3 16.9 C 0 km/h
3068 15-09-2006 07:40:03 16.6 C 9.61 g/m*3 16.6 C 0 km/h
3069 15-09-2006 07:50:02 16.7 C 9.81 g/m*3 16.7 C 0 km/h
3070 15-09-2006 08:00:02 16.6 C 9.89 g/m*3 16.6 C 0 km/h
3071 15-09-2006 08:10:02 16.8 C 9.87 g/m*3 16.8 C 0 km/h
3072 15-09-2006 08:20:02 17.1 C 9.9 g/m*3 17.1 C 0 km/h
3073 15-09-2006 08:30:02 17.3 C 9.87 g/m*3 17.3 C 0 km/h
3074 15-09-2006 08:40:01 17.5 C 9.99 g/m*3 17.5 C 0 km/h
3075 15-09-2006 08:50:02 17.7 C 9.96 g/m*3 17.7 C 0 km/h
Sensor: Nr:Datum:Temp:Abs-Feuchte:Windchill:Wind:
Aussen-T/F 3076 15-09-2006 09:00:02 17.8 C 9.87 g/m*3 17.8 C 0 km/h
3077 15-09-2006 09:10:02 17.9 C 9.92 g/m*3 17.9 C 0 km/h
3078 15-09-2006 09:20:02 18.2 C 9.95 g/m*3 18.2 C 0 km/h
3079 15-09-2006 09:30:02 18.4 C 10.07 g/m*3 18.4 C 0 km/h
3080 15-09-2006 09:40:02 18.7 C 9.93 g/m*3 18.7 C 0 km/h
3081 15-09-2006 09:50:02 19 C 9.61 g/m*3 19 C 0 km/h
3082 15-09-2006 10:00:02 19.2 C 10.06 g/m*3 19.2 C 0 km/h
3083 15-09-2006 10:10:02 19.3 C 10.12 g/m*3 19.3 C 0 km/h
3084 15-09-2006 10:20:02 19.6 C 9.96 g/m*3 19.6 C 0 km/h
3085 15-09-2006 10:30:02 20 C 9.85 g/m*3 20 C 0 km/h
3086 15-09-2006 10:40:02 20.8 C 9.78 g/m*3 20.8 C 0 km/h
3087 15-09-2006 10:50:02 21.4 C 8.81 g/m*3 21.4 C 0 km/h
3088 15-09-2006 11:00:02 21.8 C 9.21 g/m*3 21.8 C 0 km/h
3089 15-09-2006 11:10:02 22.5 C 9.19 g/m*3 22.5 C 0 km/h
3090 15-09-2006 11:20:02 22.7 C 8.89 g/m*3 22.7 C 0 km/h
3091 15-09-2006 11:30:02 22.9 C 8.99 g/m*3 22.9 C 0 km/h
3092 15-09-2006 11:40:02 23.3 C 8.99 g/m*3 23.3 C 0 km/h
3093 15-09-2006 11:50:02 23.7 C 8.98 g/m*3 23.7 C 0 km/h
3094 15-09-2006 12:00:02 23.8 C 9.25 g/m*3 23.8 C 0 km/h
3095 15-09-2006 12:10:03 24.1 C 8.75 g/m*3 24.1 C 0 km/h
3096 15-09-2006 12:20:02 24.4 C 9.12 g/m*3 24.4 C 0 km/h
3097 15-09-2006 12:30:02 24.6 C 8.78 g/m*3 24.6 C 0 km/h
3098 15-09-2006 12:40:02 24.7 C 8.83 g/m*3 24.7 C 0 km/h
3099 15-09-2006 12:50:02 25.3 C 8.43 g/m*3 25.3 C 0 km/h
3100 15-09-2006 13:00:02 25.4 C 8.71 g/m*3 25.4 C 0 km/h
Sensor: Nr:Datum:Temp:Abs-Feuchte:Windchill:Wind:
Aussen-T/F 3101 15-09-2006 13:10:02 25.1 C 8.8 g/m*3 25.1 C 0 km/h
3102 15-09-2006 13:20:02 25.8 C 8.91 g/m*3 25.8 C 0 km/h
3103 15-09-2006 13:30:02 26.4 C 8.71 g/m*3 26.4 C 0 km/h
3104 15-09-2006 13:40:02 26.7 C 8.86 g/m*3 26.7 C 0 km/h
3105 15-09-2006 13:50:02 26.6 C 9.06 g/m*3 26.6 C 0 km/h
3106 15-09-2006 14:00:02 26.7 C 8.86 g/m*3 26.7 C 0 km/h
3107 15-09-2006 14:10:02 26.9 C 9.21 g/m*3 26.9 C 0 km/h
3108 15-09-2006 14:20:02 26.8 C 9.42 g/m*3 26.8 C 0 km/h
3109 15-09-2006 14:30:02 26.9 C 8.96 g/m*3 26.9 C 0 km/h
3110 15-09-2006 14:40:02 26.9 C 8.96 g/m*3 26.9 C 0 km/h
3111 15-09-2006 14:50:02 27.3 C 8.9 g/m*3 27.3 C 0 km/h
3112 15-09-2006 15:00:02 27.5 C 9.26 g/m*3 27.5 C 0 km/h
3113 15-09-2006 15:10:02 27.4 C 9.47 g/m*3 27.4 C 0 km/h
3114 15-09-2006 15:20:01 27 C 9.01 g/m*3 27 C 0 km/h
3115 15-09-2006 15:30:01 27 C 9.01 g/m*3 27 C 0 km/h
3116 15-09-2006 15:40:03 26.7 C 9.11 g/m*3 26.7 C 0 km/h
3117 15-09-2006 15:50:02 26.7 C 9.11 g/m*3 26.7 C 0 km/h
3118 15-09-2006 16:00:02 26.8 C 9.67 g/m*3 26.8 C 0 km/h
3119 15-09-2006 16:10:02 26.7 C 10.38 g/m*3 26.7 C 0 km/h
3120 15-09-2006 16:20:02 26.2 C 9.85 g/m*3 26.2 C 0 km/h
3121 15-09-2006 16:30:02 26 C 10.23 g/m*3 26 C 0 km/h
3122 15-09-2006 16:40:02 25.9 C 10.41 g/m*3 25.9 C 0 km/h
3123 15-09-2006 16:50:02 26 C 10.96 g/m*3 26 C 0 km/h
3124 15-09-2006 17:00:02 26 C 10.71 g/m*3 26 C 0 km/h
3125 15-09-2006 17:10:02 26.4 C 10.46 g/m*3 26.4 C 0 km/h
Sensor: Nr:Datum:Temp:Abs-Feuchte:Windchill:Wind:
Aussen-T/F 3126 15-09-2006 17:20:01 26.3 C 11.14 g/m*3 26.3 C 0 km/h
3127 15-09-2006 17:30:01 25.7 C 11.01 g/m*3 25.7 C 0 km/h
3128 15-09-2006 17:40:01 25.3 C 11.24 g/m*3 25.3 C 0 km/h
3129 15-09-2006 17:50:02 25 C 11.28 g/m*3 25 C 0 km/h
3130 15-09-2006 18:00:02 24.3 C 11.51 g/m*3 24.3 C 0 km/h
3131 15-09-2006 18:10:02 23.5 C 12.05 g/m*3 23.5 C 0 km/h
3132 15-09-2006 18:20:02 22.9 C 12.26 g/m*3 22.9 C 0 km/h
3133 15-09-2006 18:30:02 21.8 C 12.09 g/m*3 21.8 C 0 km/h
3134 15-09-2006 18:40:02 22 C 11.84 g/m*3 22 C 0 km/h
3135 15-09-2006 18:50:02 22.8 C 11.58 g/m*3 22.8 C 0 km/h
3136 15-09-2006 19:00:02 22.8 C 11.38 g/m*3 22.8 C 0 km/h
3137 15-09-2006 19:10:02 22.8 C 11.38 g/m*3 22.8 C 0 km/h
3138 15-09-2006 19:20:02 22.8 C 11.18 g/m*3 22.8 C 0 km/h
3139 15-09-2006 19:30:02 22.7 C 10.91 g/m*3 22.7 C 0 km/h
3140 15-09-2006 19:40:01 22.7 C 11.11 g/m*3 22.7 C 0 km/h
3141 15-09-2006 19:50:02 22.6 C 11.05 g/m*3 22.6 C 0 km/h
3142 15-09-2006 20:00:02 22.4 C 11.12 g/m*3 22.4 C 0 km/h
3143 15-09-2006 20:10:02 22.2 C 10.8 g/m*3 22.2 C 0 km/h
3144 15-09-2006 20:20:02 22.2 C 10.8 g/m*3 22.2 C 0 km/h
3145 15-09-2006 20:30:02 22.1 C 10.74 g/m*3 22.1 C 0 km/h
3146 15-09-2006 20:40:03 22.1 C 10.74 g/m*3 22.1 C 0 km/h
3147 15-09-2006 20:50:02 22.1 C 10.74 g/m*3 22.1 C 0 km/h
3148 15-09-2006 21:00:02 22.1 C 10.74 g/m*3 22.1 C 0 km/h
3149 15-09-2006 21:10:02 22.1 C 10.74 g/m*3 22.1 C 0 km/h
3150 15-09-2006 21:20:02 22 C 10.67 g/m*3 22 C 0 km/h
Sensor: Nr:Datum:Temp:Abs-Feuchte:Windchill:Wind:
Aussen-T/F 3151 15-09-2006 21:30:02 21.9 C 10.81 g/m*3 21.9 C 0 km/h
3152 15-09-2006 21:40:02 21.9 C 10.81 g/m*3 21.9 C 0 km/h
3153 15-09-2006 21:50:02 21.8 C 10.74 g/m*3 21.8 C 0 km/h
3154 15-09-2006 22:00:02 21.8 C 10.74 g/m*3 21.8 C 0 km/h
3155 15-09-2006 22:10:02 21.8 C 10.74 g/m*3 21.8 C 0 km/h
3156 15-09-2006 22:20:02 21.7 C 10.68 g/m*3 21.7 C 0 km/h
3157 15-09-2006 22:30:02 21.6 C 10.62 g/m*3 21.6 C 0 km/h
3158 15-09-2006 22:40:03 21.3 C 10.62 g/m*3 21.3 C 0 km/h
3159 15-09-2006 22:50:02 21.2 C 10.56 g/m*3 21.2 C 0 km/h
3160 15-09-2006 23:00:02 20.8 C 10.68 g/m*3 20.8 C 0 km/h
3161 15-09-2006 23:10:02 20.8 C 10.68 g/m*3 20.8 C 0 km/h
3162 15-09-2006 23:20:02 20.4 C 10.79 g/m*3 20.4 C 0 km/h
3163 15-09-2006 23:30:02 20.2 C 10.67 g/m*3 20.2 C 0 km/h
3164 15-09-2006 23:40:02 20 C 10.54 g/m*3 20 C 0 km/h
3165 15-09-2006 23:50:01 19.9 C 10.65 g/m*3 19.9 C 0 km/h
3166 16-09-2006 00:00:01 19.6 C 10.64 g/m*3 19.6 C 0 km/h
3167 16-09-2006 00:10:01 19.4 C 10.68 g/m*3 19.4 C 0 km/h
3168 16-09-2006 00:20:02 19.2 C 10.72 g/m*3 19.2 C 0 km/h
3169 16-09-2006 00:30:02 19.1 C 10.66 g/m*3 19.1 C 0 km/h
3170 16-09-2006 00:40:02 19 C 10.76 g/m*3 19 C 0 km/h
3171 16-09-2006 00:50:02 19.1 C 10.82 g/m*3 19.1 C 0 km/h
3172 16-09-2006 01:00:02 19.1 C 10.82 g/m*3 19.1 C 0 km/h
3173 16-09-2006 01:10:02 19 C 10.76 g/m*3 19 C 0 km/h
3174 16-09-2006 01:20:02 18.9 C 11.02 g/m*3 18.9 C 0 km/h
3175 16-09-2006 01:30:02 18.8 C 11.11 g/m*3 18.8 C 0 km/h
Sensor: Nr:Datum:Temp:Abs-Feuchte:Windchill:Wind:
Aussen-T/F 3176 16-09-2006 01:40:02 18.8 C 11.11 g/m*3 18.8 C 0 km/h
3177 16-09-2006 01:50:02 18.7 C 11.05 g/m*3 18.7 C 0 km/h
3178 16-09-2006 02:00:02 18.7 C 11.05 g/m*3 18.7 C 0 km/h
3179 16-09-2006 02:10:02 18.7 C 10.89 g/m*3 18.7 C 0 km/h
3180 16-09-2006 02:20:02 18.7 C 11.05 g/m*3 18.7 C 0 km/h
3181 16-09-2006 02:30:02 18.6 C 10.98 g/m*3 18.6 C 0 km/h
3182 16-09-2006 02:40:02 18.5 C 11.08 g/m*3 18.5 C 0 km/h
3183 16-09-2006 02:51:04 18.5 C 11.08 g/m*3 18.5 C 0 km/h
3184 16-09-2006 03:01:04 18.4 C 11.01 g/m*3 18.4 C 0 km/h
3185 16-09-2006 03:11:04 18.3 C 11.1 g/m*3 18.3 C 0 km/h
3186 16-09-2006 03:21:04 18.2 C 11.04 g/m*3 18.2 C 0 km/h
3187 16-09-2006 03:31:02 18.1 C 10.97 g/m*3 18.1 C 0 km/h
3188 16-09-2006 03:41:02 18 C 10.91 g/m*3 18 C 0 km/h
3189 16-09-2006 03:51:02 18 C 11.06 g/m*3 18 C 0 km/h
3190 16-09-2006 04:01:02 18.1 C 11.12 g/m*3 18.1 C 0 km/h
3191 16-09-2006 04:11:02 17.8 C 11.23 g/m*3 17.8 C 0 km/h
3192 16-09-2006 04:21:01 17.5 C 11.03 g/m*3 17.5 C 0 km/h
3193 16-09-2006 04:31:02 17.5 C 11.18 g/m*3 17.5 C 0 km/h
3194 16-09-2006 04:41:03 17.4 C 11.12 g/m*3 17.4 C 0 km/h
3195 16-09-2006 04:51:01 17.3 C 11.05 g/m*3 17.3 C 0 km/h
3196 16-09-2006 05:01:01 17.2 C 10.98 g/m*3 17.2 C 0 km/h
3197 16-09-2006 05:11:01 17.2 C 11.13 g/m*3 17.2 C 0 km/h
3198 16-09-2006 05:21:01 17.1 C 10.92 g/m*3 17.1 C 0 km/h
3199 16-09-2006 05:31:02 17 C 11.14 g/m*3 17 C 0 km/h
3200 16-09-2006 05:41:02 16.8 C 11.29 g/m*3 16.8 C 0 km/h
Sensor: Nr:Datum:Temp:Abs-Feuchte:Windchill:Wind:
Aussen-T/F 3201 16-09-2006 05:51:02 16.6 C 11.16 g/m*3 16.6 C 0 km/h
3202 16-09-2006 06:01:02 16.5 C 11.09 g/m*3 16.5 C 0 km/h
3203 16-09-2006 06:11:02 16.4 C 11.03 g/m*3 16.4 C 0 km/h
3204 16-09-2006 06:21:02 16.2 C 10.89 g/m*3 16.2 C 0 km/h
3205 16-09-2006 06:31:02 16.1 C 10.97 g/m*3 16.1 C 0 km/h
3206 16-09-2006 06:41:02 16 C 10.9 g/m*3 16 C 0 km/h
3207 16-09-2006 06:51:02 15.8 C 11.17 g/m*3 15.8 C 0 km/h
3208 16-09-2006 07:01:02 15.8 C 11.17 g/m*3 15.8 C 0 km/h
3209 16-09-2006 07:11:02 15.6 C 11.04 g/m*3 15.6 C 0 km/h
3210 16-09-2006 07:21:02 15.6 C 11.04 g/m*3 15.6 C 0 km/h
3211 16-09-2006 07:31:02 15.5 C 10.97 g/m*3 15.5 C 0 km/h
3212 16-09-2006 07:41:02 15.4 C 10.9 g/m*3 15.4 C 0 km/h
3213 16-09-2006 07:51:02 15.6 C 11.04 g/m*3 15.6 C 0 km/h
3214 16-09-2006 08:01:02 15.7 C 11.24 g/m*3 15.7 C 0 km/h
3215 16-09-2006 08:11:02 15.8 C 11.31 g/m*3 15.8 C 0 km/h
3216 16-09-2006 08:21:02 15.8 C 11.31 g/m*3 15.8 C 0 km/h
3217 16-09-2006 08:31:02 16 C 11.31 g/m*3 16 C 0 km/h
3218 16-09-2006 08:41:02 16.2 C 11.45 g/m*3 16.2 C 0 km/h
3219 16-09-2006 08:51:02 16.4 C 11.45 g/m*3 16.4 C 0 km/h
3220 16-09-2006 09:01:02 16.6 C 11.58 g/m*3 16.6 C 0 km/h
3221 16-09-2006 09:11:02 16.8 C 11.58 g/m*3 16.8 C 0 km/h
3222 16-09-2006 09:21:02 17 C 11.58 g/m*3 17 C 0 km/h
3223 16-09-2006 09:31:02 17.3 C 11.64 g/m*3 17.3 C 0 km/h
3224 16-09-2006 09:41:02 17.6 C 11.7 g/m*3 17.6 C 0 km/h
3225 16-09-2006 09:51:02 18 C 11.83 g/m*3 18 C 0 km/h
Sensor: Nr:Datum:Temp:Abs-Feuchte:Windchill:Wind:
Aussen-T/F 3226 16-09-2006 10:01:02